
Distance (Route):
Temperature : -0.2°C
Humidity : 69.8%
Pressure : 0hPa| Receiver | Frames | First received | Last received |
|---|---|---|---|
| BIOWL1-15 | 351 | 2026-09-03 23:58:25 | 2026-09-04 01:25:54 |
| DM0DOS-11 | 205 | 2026-09-03 23:55:45 | 2026-09-04 01:28:56 |
| AU51GT2 | 100 | 2026-09-03 23:53:54 | 2026-09-04 01:39:57 |
| DB0UT-7 | 68 | 2026-09-03 23:48:53 | 2026-09-04 01:41:43 |
| BIOWL9-15 | 48 | 2026-09-03 23:59:20 | 2026-09-04 01:25:46 |
| DL1XH-west | 30 | 2026-09-04 00:47:59 | 2026-09-04 00:56:42 |
| HTAHTA | 25 | 2026-09-04 00:08:25 | 2026-09-04 01:21:24 |
| WEDDY | 25 | 2026-09-04 01:11:01 | 2026-09-04 01:29:36 |
| DO1YAY-16 | 18 | 2026-09-04 00:38:04 | 2026-09-04 01:08:36 |
| DJ2DS-15 | 17 | 2026-09-04 00:17:19 | 2026-09-04 01:09:01 |
| DO9LL-15 | 8 | 2026-09-04 00:16:31 | 2026-09-04 00:36:16 |
| DL1XH1-15 | 7 | 2026-09-04 00:49:01 | 2026-09-04 00:53:49 |
| DB0ND-19 | 5 | 2026-09-04 00:36:10 | 2026-09-04 01:02:32 |
| BIOWL7-15 | 3 | 2026-09-04 00:13:54 | 2026-09-04 01:12:21 |
| DB0DAN | 3 | 2026-09-04 00:41:55 | 2026-09-04 00:56:55 |
| Receiver | Date | Latitude | Longitude | Direction | Speed | Altitude | Climb | Temperature | Humidity | Pressure | Voltage | Killtimer | Uptime | BKT | XDATA |
|---|---|---|---|---|---|---|---|---|---|---|---|---|---|---|---|
| DB0UT-7 | 2026-09-04 01:41:43 | 50.85434 | 2.80477 | 90° | 99km/h | 4416m | -4.0m/s | -0.2°C | 69.8% | 0hPa | 2.6V | 00:00:00 | 02:50:32 | 00:00:00 | |
| DB0UT-7 | 2026-09-04 01:40:17 | 50.85494 | 2.77091 | 92° | 102km/h | 4763m | -4.1m/s | -3.0°C | 76.8% | 0hPa | 2.7V | 00:00:00 | 00:00:00 | 00:00:00 | |
| AU51GT2 | 2026-09-04 01:39:57 | 50.85510 | 2.76160 | 91° | 99km/h | 4861m | -4.0m/s | -3.8°C | 77.6% | -1.0hPa | 2.7V | 00:00:00 | 00:00:00 | 00:00:00 | |
| DB0UT-7 | 2026-09-04 01:39:47 | 50.85522 | 2.75875 | 94° | 104km/h | 4891m | -4.4m/s | -3.9°C | 79.1% | 0hPa | 2.7V | 00:00:00 | 02:48:36 | 00:00:00 | |
| AU51GT2 | 2026-09-04 01:39:26 | 50.85539 | 2.74999 | 93° | 102km/h | 4983m | -4.4m/s | -4.7°C | 76.3% | -1.0hPa | 2.7V | 00:00:00 | 00:00:00 | 00:00:00 | |
| DB0UT-7 | 2026-09-04 01:39:14 | 50.85553 | 2.74496 | 93° | 108km/h | 5038m | -4.7m/s | -5.0°C | 78.2% | 0hPa | 2.7V | 00:00:00 | 00:00:00 | 00:00:00 | |
| DB0UT-7 | 2026-09-04 01:38:42 | 50.85575 | 2.73133 | 92° | 108km/h | 5187m | -5.3m/s | -6.1°C | 79.0% | 0hPa | 2.6V | 07:46:00 | 02:47:31 | 00:00:00 | |
| AU51GT2 | 2026-09-04 01:38:24 | 50.85586 | 2.72135 | 88° | 108km/h | 5304m | -4.7m/s | -7.2°C | 80.9% | -1.0hPa | 2.6V | 00:00:00 | 00:00:00 | 00:00:00 | |
| DB0UT-7 | 2026-09-04 01:38:12 | 50.85584 | 2.71831 | 89° | 113km/h | 5337m | -4.9m/s | -7.3°C | 80.7% | 0hPa | 2.6V | 00:00:00 | 00:00:00 | 00:00:00 | |
| AU51GT2 | 2026-09-04 01:37:53 | 50.85574 | 2.71011 | 90° | 104km/h | 5427m | -5.0m/s | -7.9°C | 76.4% | -1.0hPa | 2.6V | 00:00:00 | 00:00:00 | 00:00:00 | |
| AU51GT2 | 2026-09-04 01:37:22 | 50.85588 | 2.69634 | 88° | 113km/h | 5576m | -4.4m/s | -9.0°C | -1.0% | -1.0hPa | 2.6V | 00:00:00 | 00:00:00 | 00:00:00 | |
| AU51GT2 | 2026-09-04 01:36:51 | 50.85615 | 2.68223 | 91° | 115km/h | 5724m | -5.1m/s | 0°C | -1.0% | -1.0hPa | 2.6V | 00:00:00 | 00:00:00 | 00:00:00 | |
| DB0UT-7 | 2026-09-04 01:36:27 | 50.85647 | 2.67107 | 91° | 119km/h | 5840m | -4.9m/s | -10.6°C | 67.4% | 0hPa | 2.6V | 00:00:00 | 00:00:00 | 00:00:00 | |
| DB0UT-7 | 2026-09-04 01:35:57 | 50.85681 | 2.65716 | 95° | 117km/h | 5981m | -4.8m/s | -11.9°C | 73.2% | 0hPa | 2.6V | 00:00:00 | 02:44:46 | 00:00:00 | |
| DB0UT-7 | 2026-09-04 01:35:17 | 50.85722 | 2.63829 | 94° | 115km/h | 6167m | -4.3m/s | -13.4°C | 69.8% | 0hPa | 2.6V | 00:00:00 | 00:00:00 | 00:00:00 | |
| DB0UT-7 | 2026-09-04 01:34:47 | 50.85789 | 2.62449 | 94° | 119km/h | 6302m | -4.8m/s | -14.0°C | 44.7% | 0hPa | 2.5V | 00:00:00 | 02:43:36 | 00:00:00 | |
| AU51GT2 | 2026-09-04 01:34:16 | 50.85848 | 2.61032 | 94° | 111km/h | 6444m | -4.6m/s | -14.6°C | 35.5% | -1.0hPa | 2.5V | 00:00:00 | 00:00:00 | 00:00:00 | |
| DB0UT-7 | 2026-09-04 01:34:04 | 50.85880 | 2.60467 | 92° | 117km/h | 6499m | -4.2m/s | -14.9°C | 38.3% | 0hPa | 2.5V | 00:00:00 | 00:00:00 | 00:00:00 | |
| AU51GT2 | 2026-09-04 01:33:45 | 50.85908 | 2.59591 | 94° | 113km/h | 6587m | -4.3m/s | -15.5°C | -1.0% | -1.0hPa | 2.5V | 00:00:00 | 00:00:00 | 00:00:00 | |
| DB0UT-7 | 2026-09-04 01:33:34 | 50.85922 | 2.59063 | 90° | 115km/h | 6639m | -4.8m/s | -15.8°C | 36.2% | 0hPa | 2.5V | 07:51:00 | 02:42:23 | 00:00:00 | |
| DB0UT-7 | 2026-09-04 01:33:04 | 50.85937 | 2.57690 | 94° | 115km/h | 6784m | -5.1m/s | -16.8°C | 31.0% | 0hPa | 2.5V | 00:00:00 | 00:00:00 | 00:00:00 | |
| DB0UT-7 | 2026-09-04 01:32:23 | 50.85929 | 2.55767 | 90° | 110km/h | 6994m | -5.5m/s | -17.6°C | 23.4% | 0hPa | 2.5V | 00:00:00 | 02:41:12 | 00:00:00 | |
| AU51GT2 | 2026-09-04 01:32:12 | 50.85941 | 2.54786 | 90° | 104km/h | 7108m | -5.0m/s | -17.6°C | 7.6% | -1.0hPa | 2.5V | 00:00:00 | 00:00:00 | 00:00:00 | |
| DB0UT-7 | 2026-09-04 01:31:53 | 50.85955 | 2.54444 | 95° | 111km/h | 7150m | -5.0m/s | -17.7°C | 7.6% | 0hPa | 2.5V | 00:00:00 | 00:00:00 | 00:00:00 | |
| AU51GT2 | 2026-09-04 01:31:41 | 50.85964 | 2.53844 | 88° | 111km/h | 7219m | -5.6m/s | -18.0°C | 6.4% | -1.0hPa | 2.5V | 00:00:00 | 00:00:00 | 00:00:00 | |
| DB0UT-7 | 2026-09-04 01:31:23 | 50.85953 | 2.53110 | 93° | 110km/h | 7310m | -5.2m/s | -18.3°C | 7.2% | 0hPa | 2.5V | 00:00:00 | 02:40:12 | 00:00:00 | |
| AU51GT2 | 2026-09-04 01:31:10 | 50.85943 | 2.52534 | 84° | 106km/h | 7380m | -5.3m/s | -18.8°C | 8.4% | -1.0hPa | 2.5V | 00:00:00 | 00:00:00 | 00:00:00 | |
| AU51GT2 | 2026-09-04 01:30:39 | 50.85920 | 2.51245 | 91° | 108km/h | 7546m | -5.2m/s | -19.9°C | 10.7% | -1.0hPa | 2.5V | 00:00:00 | 00:00:00 | 00:00:00 | |
| DB0UT-7 | 2026-09-04 01:30:09 | 50.85925 | 2.49916 | 89° | 111km/h | 7706m | -5.3m/s | -21.1°C | 16.2% | 0hPa | 2.5V | 00:00:00 | 00:00:00 | 00:00:00 | |
| AU51GT2 | 2026-09-04 01:30:08 | 50.85923 | 2.49824 | 87° | 111km/h | 7717m | -5.4m/s | -21.2°C | 15.3% | -1.0hPa | 2.5V | 00:00:00 | 00:00:00 | 00:00:00 | |
| DB0UT-7 | 2026-09-04 01:29:39 | 50.85926 | 2.48573 | 88° | 106km/h | 7863m | -5.5m/s | -22.4°C | 17.0% | 0hPa | 2.5V | 00:00:00 | 02:38:28 | 00:00:00 | |
| WEDDY | 2026-09-04 01:29:36 | 50.85924 | 2.48486 | 89° | 108km/h | 7874m | -5.2m/s | -22.6°C | 15.7% | 0hPa | 2.5V | 07:55:00 | 00:00:00 | 00:00:00 | |
| WEDDY | 2026-09-04 01:29:15 | 50.85923 | 2.47546 | 88° | 108km/h | 7982m | -5.0m/s | -23.6°C | 21.1% | 0hPa | 2.5V | 00:00:00 | 00:00:00 | 00:00:00 | |
| AU51GT2 | 2026-09-04 01:29:06 | 50.85928 | 2.47074 | 93° | 113km/h | 8038m | -4.7m/s | -24.0°C | 18.6% | -1.0hPa | 2.5V | 00:00:00 | 00:00:00 | 00:00:00 | |
| DM0DOS-11 | 2026-09-04 01:28:56 | 50.85927 | 2.46568 | 86° | 110km/h | 8093m | -5.1m/s | -24.4°C | 16.4% | 0hPa | 2.5V | 07:55:54 | 02:37:43 | 00:00:00 | |
| WEDDY | 2026-09-04 01:28:55 | 50.85930 | 2.46657 | 88° | 113km/h | 8084m | -4.8m/s | -24.4°C | 15.0% | 0hPa | 2.6V | 00:00:00 | 00:00:00 | 00:00:00 | |
| DM0DOS-11 | 2026-09-04 01:28:49 | 50.85929 | 2.46136 | 89° | 115km/h | 8143m | -5.2m/s | -24.8°C | 15.9% | 0hPa | 2.6V | 07:56:04 | 02:37:33 | 00:00:00 | |
| DM0DOS-11 | 2026-09-04 01:28:36 | 50.85916 | 2.45703 | 88° | 102km/h | 8193m | -5m/s | -25.2°C | 17.6% | 0hPa | 2.5V | 07:56:14 | 02:37:23 | 00:00:00 | |
| AU51GT2 | 2026-09-04 01:28:35 | 50.85916 | 2.45702 | 88° | 100km/h | 8193m | -5.0m/s | -25.2°C | 15.9% | -1.0hPa | 2.5V | 00:00:00 | 00:00:00 | 00:00:00 | |
| DB0UT-7 | 2026-09-04 01:28:23 | 50.85924 | 2.45243 | 93° | 104km/h | 8245m | -4.9m/s | -25.5°C | 19.9% | 0hPa | 2.5V | 00:00:00 | 00:00:00 | 00:00:00 | |
| WEDDY | 2026-09-04 01:28:13 | 50.85920 | 2.44816 | 91° | 99km/h | 8294m | -5.0m/s | -25.8°C | 16.9% | 0hPa | 2.5V | 07:57:00 | 00:00:00 | 00:00:00 | |
| DM0DOS-11 | 2026-09-04 01:28:10 | 50.85922 | 2.44657 | 93° | 99km/h | 8313m | -5m/s | -26°C | 22.5% | 0hPa | 2.5V | 07:56:39 | 02:36:58 | 00:00:00 | |
| AU51GT2 | 2026-09-04 01:28:04 | 50.85934 | 2.44416 | 96° | 102km/h | 8343m | -5.1m/s | -26.2°C | 26.0% | -1.0hPa | 2.6V | 00:00:00 | 00:00:00 | 00:00:00 | |
| DB0UT-7 | 2026-09-04 01:27:53 | 50.85966 | 2.43987 | 97° | 111km/h | 8394m | -4.9m/s | -26.4°C | 32.6% | 0hPa | 2.6V | 07:56:00 | 02:36:42 | 00:00:00 | |
| WEDDY | 2026-09-04 01:27:52 | 50.85966 | 2.43987 | 98° | 111km/h | 8394m | -4.9m/s | -26.5°C | 30.0% | 0hPa | 2.6V | 07:57:00 | 00:00:00 | 00:00:00 | |
| DM0DOS-11 | 2026-09-04 01:27:50 | 50.85977 | 2.43761 | 92° | 111km/h | 8418m | -4.8m/s | -26.7°C | 31.7% | 0hPa | 2.6V | 07:57:00 | 02:36:37 | 00:00:00 | |
| DM0DOS-11 | 2026-09-04 01:27:42 | 50.86001 | 2.43344 | 99° | 108km/h | 8468m | -5.3m/s | -26.8°C | 19.7% | 0hPa | 2.6V | 07:57:10 | 02:36:27 | 00:00:00 | |
| AU51GT2 | 2026-09-04 01:27:33 | 50.86028 | 2.43077 | 98° | 117km/h | 8499m | -5.2m/s | -26.8°C | 19.6% | -1.0hPa | 2.5V | 00:00:00 | 00:00:00 | 00:00:00 | |
| DM0DOS-11 | 2026-09-04 01:27:31 | 50.86044 | 2.42799 | 93° | 113km/h | 8528m | -5.2m/s | -27°C | 22.4% | 0hPa | 2.5V | 07:57:22 | 02:36:15 | 00:00:00 | |
| DM0DOS-11 | 2026-09-04 01:27:20 | 50.86069 | 2.42372 | 98° | 110km/h | 8578m | -5m/s | -27.4°C | 23% | 0hPa | 2.5V | 07:57:32 | 02:36:05 | 00:00:00 | |
| DM0DOS-11 | 2026-09-04 01:27:11 | 50.86104 | 2.41914 | 92° | 115km/h | 8628m | -4.9m/s | -27.8°C | 23.3% | 0hPa | 2.6V | 07:57:42 | 02:35:55 | 00:00:00 | |
| AU51GT2 | 2026-09-04 01:27:02 | 50.86109 | 2.41689 | 91° | 108km/h | 8653m | -4.7m/s | -28.0°C | 22.7% | -1.0hPa | 2.6V | 00:00:00 | 00:00:00 | 00:00:00 | |
| DM0DOS-11 | 2026-09-04 01:27:01 | 50.86120 | 2.41476 | 97° | 108km/h | 8677m | -4.7m/s | -28.2°C | 29.2% | 0hPa | 2.6V | 07:57:52 | 02:35:45 | 00:00:00 | |
| DM0DOS-11 | 2026-09-04 01:26:51 | 50.86155 | 2.41020 | 94° | 119km/h | 8727m | -5.3m/s | -28.6°C | 29.7% | 0hPa | 2.6V | 07:58:02 | 02:35:35 | 00:00:00 | |
| WEDDY | 2026-09-04 01:26:50 | 50.86140 | 2.41254 | 98° | 115km/h | 8702m | -5.0m/s | -28.4°C | 27.0% | 0hPa | 2.6V | 07:58:00 | 00:00:00 | 00:00:00 | |
| DB0UT-7 | 2026-09-04 01:26:45 | 50.86157 | 2.40972 | 94° | 115km/h | 8733m | -5.0m/s | -28.6°C | 27.6% | 0hPa | 2.6V | 00:00:00 | 00:00:00 | 00:00:00 | |
| DM0DOS-11 | 2026-09-04 01:26:40 | 50.86164 | 2.40561 | 92° | 108km/h | 8778m | -5.1m/s | -28.9°C | 20.7% | 0hPa | 2.5V | 07:58:12 | 02:35:25 | 00:00:00 | |
| DM0DOS-11 | 2026-09-04 01:26:31 | 50.86190 | 2.40112 | 93° | 120km/h | 8828m | -5.1m/s | -29.1°C | 26% | 0hPa | 2.6V | 07:58:22 | 02:35:15 | 00:00:00 | |
| AU51GT2 | 2026-09-04 01:26:31 | 50.86179 | 2.40300 | 96° | 113km/h | 8808m | -4.9m/s | -29.0°C | 17.7% | -1.0hPa | 2.6V | 00:00:00 | 00:00:00 | 00:00:00 | |
| WEDDY | 2026-09-04 01:26:29 | 50.86179 | 2.40300 | 98° | 115km/h | 8808m | -4.9m/s | -29.0°C | 17.8% | 0hPa | 2.6V | 07:58:00 | 00:00:00 | 00:00:00 | |
| DM0DOS-11 | 2026-09-04 01:26:21 | 50.86193 | 2.39641 | 89° | 111km/h | 8878m | -5.2m/s | -29.6°C | 33.2% | 0hPa | 2.6V | 07:58:32 | 02:35:05 | 00:00:00 | |
| DB0UT-7 | 2026-09-04 01:26:15 | 50.86192 | 2.39597 | 89° | 111km/h | 8883m | -5.0m/s | -29.6°C | 33.0% | 0hPa | 2.5V | 00:00:00 | 02:35:04 | 00:00:00 | |
| DM0DOS-11 | 2026-09-04 01:26:11 | 50.86200 | 2.39207 | 94° | 113km/h | 8928m | -5.4m/s | -30°C | 34% | 0hPa | 2.5V | 07:58:42 | 02:34:55 | 00:00:00 | |
| WEDDY | 2026-09-04 01:26:08 | 50.86194 | 2.39339 | 94° | 108km/h | 8913m | -5.1m/s | -29.9°C | 29.8% | 0hPa | 2.6V | 07:58:00 | 00:00:00 | 00:00:00 | |
| AU51GT2 | 2026-09-04 01:26:00 | 50.86206 | 2.38877 | 89° | 119km/h | 8965m | -4.7m/s | -30.3°C | 32.5% | -1.0hPa | 2.6V | 00:00:00 | 00:00:00 | 00:00:00 | |
| DM0DOS-11 | 2026-09-04 01:25:59 | 50.86203 | 2.38734 | 86° | 119km/h | 8979m | -4.9m/s | -30.4°C | 39.8% | 0hPa | 2.6V | 07:58:52 | 02:34:45 | 00:00:00 | |
| BIOWL1-15 | 2026-09-04 01:25:54 | 50.86200 | 2.38640 | 86° | 119km/h | 8989m | -5m/s | -30.5°C | 42.1% | 0hPa | 2.5V | 07:58:55 | 02:34:43 | 00:00:00 | |
| BIOWL9-15 | 2026-09-04 01:25:46 | 50.86184 | 2.38241 | 90° | 108km/h | 9034m | -5.0m/s | -30.8°C | 30.8% | -1.0hPa | 2.6V | 00:00:00 | 00:00:00 | 00:00:00 | |
| BIOWL1-15 | 2026-09-04 01:25:43 | 50.86184 | 2.38153 | 92° | 113km/h | 9043m | -5.1m/s | -30.9°C | 35.7% | 0hPa | 2.6V | 08:00:37 | 02:34:32 | 00:00:00 | |
| DM0DOS-11 | 2026-09-04 01:25:39 | 50.86179 | 2.37824 | 85° | 119km/h | 9080m | -5.6m/s | -31.1°C | 42.2% | 0hPa | 2.6V | 07:59:12 | 02:34:25 | 00:00:00 | |
| BIOWL1-15 | 2026-09-04 01:25:31 | 50.86164 | 2.37592 | 83° | 115km/h | 9108m | -5.8m/s | -31.3°C | 44.3% | 0hPa | 2.6V | 08:00:37 | 02:34:20 | 00:00:00 | |
| DM0DOS-11 | 2026-09-04 01:25:30 | 50.86145 | 2.37372 | 82° | 108km/h | 9134m | -5.1m/s | -31.6°C | 41.7% | 0hPa | 2.5V | 07:59:22 | 02:34:15 | 00:00:00 | |
| BIOWL1-15 | 2026-09-04 01:25:20 | 50.86124 | 2.36944 | 88° | 113km/h | 9185m | -5.1m/s | -31.9°C | 36% | 0hPa | 2.6V | 08:00:37 | 02:34:05 | 00:00:00 | |
| DM0DOS-11 | 2026-09-04 01:25:20 | 50.86124 | 2.36944 | 87° | 113km/h | 9185m | -5.1m/s | -31.9°C | 33.8% | 0hPa | 2.6V | 07:59:32 | 02:34:05 | 00:00:00 | |
| BIOWL9-15 | 2026-09-04 01:25:15 | 50.86121 | 2.36852 | 85° | 117km/h | 9196m | -5.5m/s | -32.0°C | 33.0% | -1.0hPa | 2.5V | 00:00:00 | 00:00:00 | 00:00:00 | |
| DM0DOS-11 | 2026-09-04 01:25:10 | 50.86090 | 2.36485 | 80° | 111km/h | 9239m | -5m/s | -32.4°C | 40.3% | 0hPa | 2.5V | 07:59:42 | 02:33:55 | 00:00:00 | |
| BIOWL1-15 | 2026-09-04 01:25:05 | 50.86086 | 2.36442 | 81° | 110km/h | 9245m | -5.4m/s | -32.4°C | 42.1% | 0hPa | 2.5V | 08:00:37 | 02:33:54 | 00:00:00 | |
| DB0UT-7 | 2026-09-04 01:24:59 | 50.86068 | 2.36187 | 86° | 115km/h | 9276m | -5.0m/s | -32.7°C | 40.1% | 0hPa | 2.6V | 00:00:00 | 00:00:00 | 00:00:00 | |
| DM0DOS-11 | 2026-09-04 01:24:58 | 50.86061 | 2.36051 | 84° | 119km/h | 9292m | -5m/s | -32.9°C | 39.1% | 0hPa | 2.6V | 07:59:52 | 02:33:45 | 00:00:00 | |
| BIOWL1-15 | 2026-09-04 01:24:54 | 50.86056 | 2.35957 | 84° | 119km/h | 9302m | -5.9m/s | -33°C | 40.2% | 0hPa | 2.5V | 08:00:37 | 02:33:43 | 00:00:00 | |
| DM0DOS-11 | 2026-09-04 01:24:50 | 50.86023 | 2.35581 | 80° | 117km/h | 9346m | -5.7m/s | -33.3°C | 36.4% | 0hPa | 2.5V | 08:00:02 | 02:33:35 | 00:00:00 | |
| BIOWL1-15 | 2026-09-04 01:24:43 | 50.86007 | 2.35444 | 79° | 113km/h | 9363m | -5.3m/s | -33.5°C | 38.8% | 0hPa | 2.5V | 08:00:37 | 02:33:32 | 00:00:00 | |
| DM0DOS-11 | 2026-09-04 01:24:40 | 50.85976 | 2.35144 | 84° | 111km/h | 9401m | -5.5m/s | -33.8°C | 37.1% | 0hPa | 2.5V | 08:00:12 | 02:33:25 | 00:00:00 | |
| BIOWL1-15 | 2026-09-04 01:24:32 | 50.85941 | 2.34775 | 78° | 113km/h | 9445m | -6.2m/s | -34.1°C | 36.2% | 0hPa | 2.5V | 08:00:37 | 02:33:17 | 00:00:00 | |
| DB0UT-7 | 2026-09-04 01:24:29 | 50.85947 | 2.34820 | 78° | 113km/h | 9440m | -5.4m/s | -34.1°C | 33.6% | 0hPa | 2.5V | 08:00:00 | 02:33:18 | 00:00:00 | |
| DM0DOS-11 | 2026-09-04 01:24:28 | 50.85929 | 2.34688 | 78° | 110km/h | 9456m | -5.4m/s | -34.2°C | 35.7% | 0hPa | 2.6V | 08:00:22 | 02:33:15 | 00:00:00 | |
| WEDDY | 2026-09-04 01:24:26 | 50.85935 | 2.34731 | 79° | 111km/h | 9451m | -5.6m/s | -34.2°C | 31.3% | 0hPa | 2.6V | 08:00:00 | 00:00:00 | 00:00:00 | |
| DM0DOS-11 | 2026-09-04 01:24:20 | 50.85892 | 2.34250 | 82° | 119km/h | 9514m | -5.4m/s | -34.8°C | 45.8% | 0hPa | 2.6V | 08:00:32 | 02:33:05 | 00:00:00 | |
| BIOWL1-15 | 2026-09-04 01:24:19 | 50.85901 | 2.34387 | 84° | 111km/h | 9496m | -6.1m/s | -34.6°C | 43.8% | 0hPa | 2.5V | 08:00:37 | 02:33:08 | 00:00:00 | |
| BIOWL1-15 | 2026-09-04 01:24:11 | 50.85856 | 2.33922 | 78° | 115km/h | 9554m | -6m/s | -35.1°C | 57.9% | 0hPa | 2.5V | 08:01:28 | 02:32:58 | 00:00:00 | |
| DM0DOS-11 | 2026-09-04 01:24:08 | 50.85838 | 2.33790 | 78° | 110km/h | 9572m | -5.8m/s | -35.2°C | 60% | 0hPa | 2.6V | 08:00:42 | 02:32:55 | 00:00:00 | |
| WEDDY | 2026-09-04 01:24:05 | 50.85838 | 2.33790 | 79° | 110km/h | 9572m | -5.8m/s | -35.2°C | 54.7% | 0hPa | 2.6V | 00:00:00 | 00:00:00 | 00:00:00 | |
| DM0DOS-11 | 2026-09-04 01:24:00 | 50.85802 | 2.33363 | 86° | 113km/h | 9631m | -6.2m/s | -35.7°C | 67.5% | 0hPa | 2.6V | 08:00:52 | 02:32:45 | 00:00:00 | |
| BIOWL1-15 | 2026-09-04 01:24:00 | 50.85807 | 2.33451 | 85° | 110km/h | 9620m | -5.7m/s | -35.7°C | 65.9% | 0hPa | 2.5V | 08:01:28 | 02:32:47 | 00:00:00 | |
| AU51GT2 | 2026-09-04 01:23:56 | 50.85801 | 2.33317 | 86° | 113km/h | 9637m | -6.0m/s | -35.8°C | 62.5% | -1.0hPa | 2.6V | 00:00:00 | 00:00:00 | 00:00:00 | |
| DM0DOS-11 | 2026-09-04 01:23:50 | 50.85770 | 2.32906 | 83° | 108km/h | 9690m | -6.5m/s | -36.1°C | 76.9% | 0hPa | 2.6V | 08:01:02 | 02:32:35 | 00:00:00 | |
| BIOWL1-15 | 2026-09-04 01:23:48 | 50.85778 | 2.32993 | 82° | 111km/h | 9678m | -6.1m/s | -36°C | 74.6% | 0hPa | 2.5V | 08:01:28 | 02:32:37 | 00:00:00 | |
| BIOWL1-15 | 2026-09-04 01:23:42 | 50.85758 | 2.32553 | 87° | 119km/h | 9740m | -6.5m/s | -36.6°C | 76.3% | 0hPa | 2.5V | 08:01:28 | 02:32:27 | 00:00:00 | |
| BIOWL9-15 | 2026-09-04 01:23:42 | 50.85761 | 2.32692 | 87° | 111km/h | 9721m | -6.0m/s | -36.4°C | 71.3% | -1.0hPa | 2.6V | 00:00:00 | 00:00:00 | 00:00:00 | |
| DM0DOS-11 | 2026-09-04 01:23:38 | 50.85754 | 2.32458 | 85° | 120km/h | 9752m | -6.2m/s | -36.7°C | 78.6% | 0hPa | 2.6V | 08:01:12 | 02:32:25 | 00:00:00 | |
| DM0DOS-11 | 2026-09-04 01:23:30 | 50.85724 | 2.32007 | 87° | 108km/h | 9812m | -5.9m/s | -37.1°C | 78.6% | 0hPa | 2.6V | 08:01:22 | 02:32:15 | 00:00:00 | |
| BIOWL1-15 | 2026-09-04 01:23:29 | 50.85721 | 2.31874 | 89° | 115km/h | 9830m | -5.8m/s | -37.3°C | 76.2% | 0hPa | 2.5V | 08:01:28 | 02:32:12 | 00:00:00 | |
| WEDDY | 2026-09-04 01:23:25 | 50.85723 | 2.31963 | 89° | 110km/h | 9818m | -6.2m/s | -37.2°C | 72.1% | 0hPa | 2.6V | 00:00:00 | 00:00:00 | 00:00:00 | |
| AU51GT2 | 2026-09-04 01:23:24 | 50.85722 | 2.31919 | 88° | 111km/h | 9824m | -5.9m/s | -37.2°C | 72.1% | -1.0hPa | 2.6V | 00:00:00 | 00:00:00 | 00:00:00 | |
| DB0UT-7 | 2026-09-04 01:23:19 | 50.85713 | 2.31685 | 84° | 110km/h | 9855m | -6.1m/s | -37.4°C | 75.8% | 0hPa | 2.6V | 00:00:00 | 00:00:00 | 00:00:00 | |
| DM0DOS-11 | 2026-09-04 01:23:18 | 50.85702 | 2.31545 | 81° | 115km/h | 9873m | -6.2m/s | -37.5°C | 72.6% | 0hPa | 2.6V | 08:01:32 | 02:32:05 | 00:00:00 | |
| BIOWL1-15 | 2026-09-04 01:23:14 | 50.85688 | 2.31412 | 81° | 110km/h | 9892m | -6.6m/s | -37.7°C | 71.1% | 0hPa | 2.5V | 08:02:19 | 02:32:02 | 00:00:00 | |
| DM0DOS-11 | 2026-09-04 01:23:11 | 50.85665 | 2.31120 | 85° | 102km/h | 9936m | -6.6m/s | -38.1°C | 70.8% | 0hPa | 2.5V | 08:01:42 | 02:31:55 | 00:00:00 | |
| BIOWL1-15 | 2026-09-04 01:23:03 | 50.85658 | 2.30955 | 88° | 104km/h | 9961m | -6.2m/s | -38.3°C | 67.4% | 0hPa | 2.6V | 08:02:19 | 02:31:51 | 00:00:00 | |
| DM0DOS-11 | 2026-09-04 01:22:58 | 50.85648 | 2.30690 | 83° | 115km/h | 9998m | -6.4m/s | -38.5°C | 69.5% | 0hPa | 2.5V | 08:01:52 | 02:31:45 | 00:00:00 | |
| BIOWL1-15 | 2026-09-04 01:22:52 | 50.85633 | 2.30513 | 81° | 108km/h | 10023m | -6.3m/s | -38.7°C | 68.6% | 0hPa | 2.6V | 08:02:19 | 02:31:41 | 00:00:00 | |
| DM0DOS-11 | 2026-09-04 01:22:50 | 50.85612 | 2.30272 | 85° | 99km/h | 10061m | -6.8m/s | -39°C | 69.5% | 0hPa | 2.6V | 08:02:02 | 02:31:35 | 00:00:00 | |
| BIOWL1-15 | 2026-09-04 01:22:44 | 50.85607 | 2.30111 | 89° | 102km/h | 10087m | -6.5m/s | -39.3°C | 66.5% | 0hPa | 2.5V | 08:02:19 | 02:31:31 | 00:00:00 | |
| WEDDY | 2026-09-04 01:22:43 | 50.85609 | 2.30193 | 88° | 100km/h | 10074m | -6.3m/s | -39.1°C | 61.9% | 0hPa | 2.5V | 08:02:00 | 00:00:00 | 00:00:00 | |
| DM0DOS-11 | 2026-09-04 01:22:40 | 50.85600 | 2.29850 | 84° | 111km/h | 10123m | -6.1m/s | -39.6°C | 62.1% | 0hPa | 2.5V | 08:02:12 | 02:31:25 | 00:00:00 | |
| BIOWL1-15 | 2026-09-04 01:22:32 | 50.85587 | 2.29678 | 83° | 104km/h | 10148m | -6.3m/s | -39.8°C | 48.4% | 0hPa | 2.6V | 08:02:19 | 02:31:21 | 00:00:00 | |
| BIOWL1-15 | 2026-09-04 01:22:21 | 50.85575 | 2.29134 | 86° | 111km/h | 10230m | -6.4m/s | -40.3°C | 18.9% | 0hPa | 2.6V | 08:03:10 | 02:31:08 | 00:00:00 | |
| BIOWL1-15 | 2026-09-04 01:22:11 | 50.85556 | 2.28799 | 87° | 99km/h | 10280m | -6.4m/s | -40.8°C | 17.9% | 0hPa | 2.5V | 08:03:10 | 02:31:00 | 00:00:00 | |
| DM0DOS-11 | 2026-09-04 01:22:10 | 50.85557 | 2.28554 | 90° | 110km/h | 10317m | -5.9m/s | -41.1°C | 17% | 0hPa | 2.6V | 08:02:43 | 02:30:54 | 00:00:00 | |
| BIOWL1-15 | 2026-09-04 01:22:00 | 50.85553 | 2.28331 | 86° | 111km/h | 10349m | -6.4m/s | -41.4°C | 18.5% | 0hPa | 2.5V | 08:03:10 | 02:30:49 | 00:00:00 | |
| DM0DOS-11 | 2026-09-04 01:21:55 | 50.85539 | 2.28043 | 88° | 99km/h | 10394m | -6.5m/s | -41.8°C | 17% | 0hPa | 2.5V | 08:02:55 | 02:30:42 | 00:00:00 | |
| BIOWL1-15 | 2026-09-04 01:21:49 | 50.85543 | 2.27800 | 93° | 108km/h | 10432m | -6.5m/s | -42.1°C | 18.2% | 0hPa | 2.5V | 08:03:10 | 02:30:36 | 00:00:00 | |
| DM0DOS-11 | 2026-09-04 01:21:45 | 50.85545 | 2.27622 | 88° | 113km/h | 10458m | -6.5m/s | -42.3°C | 17.4% | 0hPa | 2.5V | 08:03:05 | 02:30:32 | 00:00:00 | |
| WEDDY | 2026-09-04 01:21:41 | 50.85542 | 2.27533 | 87° | 111km/h | 10471m | -6.1m/s | -42.4°C | 14.6% | 0hPa | 2.5V | 08:03:00 | 00:00:00 | 00:00:00 | |
| DM0DOS-11 | 2026-09-04 01:21:38 | 50.85533 | 2.27207 | 91° | 99km/h | 10521m | -6.4m/s | -42.9°C | 18.2% | 0hPa | 2.5V | 08:03:15 | 02:30:22 | 00:00:00 | |
| BIOWL1-15 | 2026-09-04 01:21:37 | 50.85534 | 2.27365 | 87° | 102km/h | 10495m | -6.4m/s | -42.7°C | 19.2% | 0hPa | 2.5V | 08:04:01 | 02:30:26 | 00:00:00 | |
| BIOWL1-15 | 2026-09-04 01:21:27 | 50.85545 | 2.26820 | 90° | 113km/h | 10578m | -6.7m/s | -43.4°C | 19.5% | 0hPa | 2.5V | 08:04:01 | 02:30:13 | 00:00:00 | |
| HTAHTA | 2026-09-04 01:21:24 | 50.85545 | 2.26820 | 89° | 111km/h | 10578m | -6.7m/s | -43.4°C | 14.9% | -1.0hPa | 2.5V | 00:00:00 | 00:00:00 | 00:00:00 | |
| AU51GT2 | 2026-09-04 01:21:20 | 50.85542 | 2.26649 | 88° | 100km/h | 10603m | -6.5m/s | -43.6°C | 15.4% | -1.0hPa | 2.5V | 00:00:00 | 00:00:00 | 00:00:00 | |
| BIOWL1-15 | 2026-09-04 01:21:01 | 50.85562 | 2.25762 | 90° | 100km/h | 10739m | -6.3m/s | -44.7°C | 25.1% | 0hPa | 2.5V | 08:04:01 | 02:29:48 | 00:00:00 | |
| BIOWL1-15 | 2026-09-04 01:20:48 | 50.85584 | 2.25220 | 90° | 106km/h | 10821m | -6.4m/s | -45.4°C | 24.7% | 0hPa | 2.5V | 08:04:52 | 02:29:35 | 00:00:00 | |
| BIOWL1-15 | 2026-09-04 01:20:38 | 50.85592 | 2.24904 | 97° | 99km/h | 10873m | -6.4m/s | -45.9°C | 21.5% | 0hPa | 2.5V | 08:04:52 | 02:29:27 | 00:00:00 | |
| BIOWL9-15 | 2026-09-04 01:20:35 | 50.85636 | 2.24228 | 99° | 97km/h | 10982m | -6.0m/s | -46.8°C | 14.9% | -1.0hPa | 2.6V | 00:00:00 | 00:00:00 | 00:00:00 | |
| WEDDY | 2026-09-04 01:20:19 | 50.85640 | 2.24189 | 102° | 99km/h | 10989m | -6.5m/s | -46.9°C | 15.2% | 0hPa | 2.6V | 08:04:00 | 00:00:00 | 00:00:00 | |
| BIOWL1-15 | 2026-09-04 01:20:11 | 50.85696 | 2.23455 | 100° | 106km/h | 11102m | -6.1m/s | -48°C | 27% | 0hPa | 2.6V | 08:04:52 | 02:28:51 | 00:00:00 | |
| BIOWL1-15 | 2026-09-04 01:19:57 | 50.85718 | 2.23153 | 93° | 104km/h | 11146m | -6.5m/s | -48.4°C | 33.2% | 0hPa | 2.6V | 08:05:43 | 02:28:44 | 00:00:00 | |
| BIOWL1-15 | 2026-09-04 01:19:45 | 50.85752 | 2.22760 | 101° | 106km/h | 11208m | -6.3m/s | -49°C | 37% | 0hPa | 2.6V | 08:05:43 | 02:28:34 | 00:00:00 | |
| BIOWL1-15 | 2026-09-04 01:19:35 | 50.85780 | 2.22333 | 93° | 99km/h | 11269m | -5.7m/s | -49.6°C | 40.3% | 0hPa | 2.5V | 08:05:43 | 02:28:24 | 00:00:00 | |
| BIOWL1-15 | 2026-09-04 01:19:25 | 50.85816 | 2.21939 | 100° | 110km/h | 11330m | -6.2m/s | -50.2°C | 43.7% | 0hPa | 2.5V | 08:05:43 | 02:28:14 | 00:00:00 | |
| BIOWL1-15 | 2026-09-04 01:19:16 | 50.85843 | 2.21465 | 95° | 100km/h | 11399m | -6.8m/s | -50.8°C | 51.1% | 0hPa | 2.5V | 08:05:43 | 02:28:03 | 00:00:00 | |
| BIOWL1-15 | 2026-09-04 01:19:04 | 50.85887 | 2.21061 | 101° | 113km/h | 11463m | -6.5m/s | -51.4°C | 58.8% | 0hPa | 2.6V | 08:06:34 | 02:27:53 | 00:00:00 | |
| BIOWL1-15 | 2026-09-04 01:18:56 | 50.85919 | 2.20622 | 95° | 102km/h | 11525m | -6.5m/s | -52°C | 62.1% | 0hPa | 2.5V | 08:06:34 | 02:27:43 | 00:00:00 | |
| HTAHTA | 2026-09-04 01:18:49 | 50.85936 | 2.20424 | 101° | 100km/h | 11556m | -6.1m/s | -52.3°C | 54.7% | -1.0hPa | 2.5V | 00:00:00 | 00:00:00 | 00:00:00 | |
| AU51GT2 | 2026-09-04 01:18:45 | 50.85959 | 2.20258 | 101° | 110km/h | 11581m | -6.2m/s | -52.6°C | 55.5% | -1.0hPa | 2.5V | 00:00:00 | 00:00:00 | 00:00:00 | |
| BIOWL1-15 | 2026-09-04 01:18:44 | 50.85964 | 2.20215 | 102° | 113km/h | 11588m | -6.6m/s | -52.7°C | 64.6% | 0hPa | 2.5V | 08:06:34 | 02:27:33 | 00:00:00 | |
| BIOWL1-15 | 2026-09-04 01:18:33 | 50.86027 | 2.19575 | 104° | 104km/h | 11683m | -6.4m/s | -53.5°C | 66.3% | 0hPa | 2.6V | 08:06:34 | 02:27:18 | 00:00:00 | |
| BIOWL1-15 | 2026-09-04 01:18:21 | 50.86080 | 2.19225 | 101° | 117km/h | 11736m | -6.8m/s | -54°C | 67% | 0hPa | 2.5V | 08:06:34 | 02:27:10 | 00:00:00 | |
| AU51GT2 | 2026-09-04 01:18:14 | 50.86109 | 2.18912 | 96° | 106km/h | 11783m | -6.3m/s | -54.5°C | 58.6% | -1.0hPa | 2.5V | 00:00:00 | 00:00:00 | 00:00:00 | |
| DM0DOS-11 | 2026-09-04 01:18:12 | 50.86142 | 2.18629 | 104° | 104km/h | 11827m | -6.4m/s | -54.8°C | 69.4% | 0hPa | 2.5V | 08:06:41 | 02:26:56 | 00:00:00 | |
| BIOWL1-15 | 2026-09-04 01:18:10 | 50.86130 | 2.18709 | 102° | 102km/h | 11814m | -6.4m/s | -54.7°C | 67.5% | 0hPa | 2.5V | 08:07:25 | 02:26:58 | 00:00:00 | |
| DM0DOS-11 | 2026-09-04 01:18:02 | 50.86204 | 2.18190 | 98° | 117km/h | 11894m | -7m/s | -55.4°C | 70.7% | 0hPa | 2.5V | 08:06:51 | 02:26:46 | 00:00:00 | |
| BIOWL1-15 | 2026-09-04 01:18:00 | 50.86188 | 2.18328 | 101° | 117km/h | 11874m | -6.7m/s | -55.2°C | 69.1% | 0hPa | 2.6V | 08:07:25 | 02:26:49 | 00:00:00 | |
| WEDDY | 2026-09-04 01:17:54 | 50.86215 | 2.18052 | 97° | 113km/h | 11915m | -6.7m/s | -55.6°C | 60.0% | 0hPa | 2.6V | 08:07:00 | 00:00:00 | 00:00:00 | |
| DM0DOS-11 | 2026-09-04 01:17:52 | 50.86234 | 2.17757 | 98° | 100km/h | 11961m | -6.5m/s | -56°C | 71.3% | 0hPa | 2.6V | 08:07:01 | 02:26:36 | 00:00:00 | |
| BIOWL1-15 | 2026-09-04 01:17:49 | 50.86234 | 2.17757 | 99° | 100km/h | 11961m | -6.5m/s | -56°C | 69.4% | 0hPa | 2.6V | 08:07:25 | 02:26:36 | 00:00:00 | |
| HTAHTA | 2026-09-04 01:17:47 | 50.86243 | 2.17677 | 101° | 102km/h | 11973m | -6.2m/s | -56.1°C | 60.4% | -1.0hPa | 2.6V | 00:00:00 | 00:00:00 | 00:00:00 | |
| BIOWL1-15 | 2026-09-04 01:17:42 | 50.86285 | 2.17324 | 97° | 117km/h | 12026m | -6.7m/s | -56.6°C | 69.5% | 0hPa | 2.6V | 08:07:25 | 02:26:26 | 00:00:00 | |
| DM0DOS-11 | 2026-09-04 01:17:42 | 50.86285 | 2.17324 | 97° | 117km/h | 12026m | -6.7m/s | -56.6°C | 71.6% | 0hPa | 2.6V | 08:07:11 | 02:26:26 | 00:00:00 | |
| DB0UT-7 | 2026-09-04 01:17:41 | 50.86266 | 2.17507 | 102° | 110km/h | 11999m | -6.6m/s | -56.3°C | 72.0% | 0hPa | 2.5V | 00:00:00 | 02:26:30 | 00:00:00 | |
| WEDDY | 2026-09-04 01:17:33 | 50.86294 | 2.17186 | 96° | 113km/h | 12046m | -6.8m/s | -56.8°C | 60.0% | 0hPa | 2.5V | 08:07:00 | 00:00:00 | 00:00:00 | |
| DM0DOS-11 | 2026-09-04 01:17:30 | 50.86305 | 2.16886 | 94° | 102km/h | 12093m | -6.5m/s | -57.2°C | 71.3% | 0hPa | 2.5V | 08:07:21 | 02:26:16 | 00:00:00 | |
| BIOWL1-15 | 2026-09-04 01:17:27 | 50.86305 | 2.16886 | 95° | 102km/h | 12094m | -6.5m/s | -57.2°C | 69.2% | 0hPa | 2.5V | 08:07:25 | 02:26:16 | 00:00:00 | |
| DM0DOS-11 | 2026-09-04 01:17:20 | 50.86349 | 2.16473 | 99° | 115km/h | 12158m | -6.3m/s | -57.9°C | 71.9% | 0hPa | 2.5V | 08:07:31 | 02:26:06 | 00:00:00 | |
| BIOWL1-15 | 2026-09-04 01:17:16 | 50.86359 | 2.16337 | 94° | 113km/h | 12177m | -6.7m/s | -58.1°C | 68.9% | 0hPa | 2.5V | 08:08:16 | 02:26:03 | 00:00:00 | |
| WEDDY | 2026-09-04 01:17:13 | 50.86359 | 2.16337 | 95° | 113km/h | 12177m | -6.7m/s | -58.1°C | 60.0% | 0hPa | 2.6V | 08:08:00 | 00:00:00 | 00:00:00 | |
| AU51GT2 | 2026-09-04 01:17:12 | 50.86363 | 2.16250 | 93° | 106km/h | 12190m | -6.9m/s | -58.2°C | 59.1% | -1.0hPa | 2.6V | 00:00:00 | 00:00:00 | 00:00:00 | |
| DM0DOS-11 | 2026-09-04 01:17:10 | 50.86374 | 2.16048 | 97° | 99km/h | 12224m | -6.6m/s | -58.5°C | 70.3% | 0hPa | 2.6V | 08:07:41 | 02:25:56 | 00:00:00 | |
| BIOWL1-15 | 2026-09-04 01:17:06 | 50.86378 | 2.16009 | 99° | 99km/h | 12230m | -6.5m/s | -58.6°C | 67% | 0hPa | 2.6V | 08:08:16 | 02:25:55 | 00:00:00 | |
| BIOWL1-15 | 2026-09-04 01:16:55 | 50.86424 | 2.15537 | 94° | 111km/h | 12304m | -6.8m/s | -59.2°C | 60.9% | 0hPa | 2.6V | 08:08:16 | 02:25:44 | 00:00:00 | |
| WEDDY | 2026-09-04 01:16:52 | 50.86427 | 2.15450 | 94° | 106km/h | 12317m | -6.6m/s | -59.3°C | 52.2% | 0hPa | 2.6V | 08:08:00 | 00:00:00 | 00:00:00 | |
| DM0DOS-11 | 2026-09-04 01:16:50 | 50.86434 | 2.15289 | 96° | 97km/h | 12342m | -6.4m/s | -59.6°C | 62.1% | 0hPa | 2.6V | 08:07:59 | 02:25:38 | 00:00:00 | |
| BIOWL1-15 | 2026-09-04 01:16:45 | 50.86451 | 2.15135 | 101° | 100km/h | 12368m | -6.6m/s | -59.8°C | 57.8% | 0hPa | 2.5V | 08:08:16 | 02:25:34 | 00:00:00 | |
| BIOWL1-15 | 2026-09-04 01:16:34 | 50.86505 | 2.14617 | 94° | 113km/h | 12449m | -6.7m/s | -60.4°C | 55.8% | 0hPa | 2.5V | 08:08:16 | 02:25:22 | 00:00:00 | |
| BIOWL1-15 | 2026-09-04 01:16:24 | 50.86539 | 2.14241 | 103° | 110km/h | 12510m | -6.9m/s | -60.9°C | 55.6% | 0hPa | 2.5V | 18:12:15 | 02:25:13 | 00:00:00 | |
| DM0DOS-11 | 2026-09-04 01:16:23 | 50.86569 | 2.14018 | 101° | 120km/h | 12544m | -6.8m/s | -61.1°C | 58.2% | 0hPa | 2.6V | 08:08:29 | 02:25:08 | 00:00:00 | |
| BIOWL1-15 | 2026-09-04 01:16:14 | 50.86589 | 2.13777 | 95° | 119km/h | 12578m | -6.6m/s | -61.3°C | 56.8% | 0hPa | 2.6V | 18:12:15 | 02:25:03 | 00:00:00 | |
| DM0DOS-11 | 2026-09-04 01:16:10 | 50.86601 | 2.13552 | 95° | 110km/h | 12611m | -6.8m/s | -61.5°C | 60.8% | 0hPa | 2.5V | 08:08:39 | 02:24:58 | 00:00:00 | |
| BIOWL1-15 | 2026-09-04 01:16:04 | 50.86652 | 2.13112 | 103° | 119km/h | 12681m | -6.7m/s | -62.1°C | 59.9% | 0hPa | 2.5V | 18:12:15 | 02:24:48 | 00:00:00 | |
| DM0DOS-11 | 2026-09-04 01:16:00 | 50.86652 | 2.13112 | 102° | 119km/h | 12681m | -6.7m/s | -62.1°C | 63.4% | 0hPa | 2.5V | 08:08:49 | 02:24:48 | 00:00:00 | |
| BIOWL1-15 | 2026-09-04 01:15:53 | 50.86702 | 2.12718 | 99° | 130km/h | 12737m | -7m/s | -62.6°C | 61.6% | 0hPa | 2.5V | 18:12:15 | 02:24:40 | 00:00:00 | |
| DM0DOS-11 | 2026-09-04 01:15:50 | 50.86711 | 2.12616 | 97° | 130km/h | 12750m | -7m/s | -62.7°C | 66.6% | 0hPa | 2.6V | 08:08:59 | 02:24:38 | 00:00:00 | |
| BIOWL1-15 | 2026-09-04 01:15:42 | 50.86742 | 2.12182 | 100° | 115km/h | 12812m | -6.9m/s | -63.1°C | 63.8% | 0hPa | 2.5V | 18:12:15 | 02:24:29 | 00:00:00 | |
| DM0DOS-11 | 2026-09-04 01:15:40 | 50.86747 | 2.12136 | 101° | 117km/h | 12818m | -6.7m/s | -63.2°C | 69.9% | 0hPa | 2.6V | 08:09:09 | 02:24:28 | 00:00:00 | |
| AU51GT2 | 2026-09-04 01:15:39 | 50.86753 | 2.12090 | 101° | 119km/h | 12825m | -6.5m/s | -63.2°C | 56.5% | -1.0hPa | 2.5V | 00:00:00 | 00:00:00 | 00:00:00 | |
| DM0DOS-11 | 2026-09-04 01:15:30 | 50.86809 | 2.11632 | 97° | 133km/h | 12887m | -7.3m/s | -63.6°C | 69.5% | 0hPa | 2.5V | 08:09:19 | 02:24:18 | 00:00:00 | |
| WEDDY | 2026-09-04 01:15:29 | 50.86804 | 2.11685 | 99° | 135km/h | 12880m | -6.8m/s | -63.5°C | 56.2% | 0hPa | 2.5V | 00:00:00 | 00:00:00 | 00:00:00 | |
| DM0DOS-11 | 2026-09-04 01:15:20 | 50.86835 | 2.11125 | 95° | 117km/h | 12957m | -6.6m/s | -64.2°C | 69.9% | 0hPa | 2.5V | 08:09:29 | 02:24:08 | 00:00:00 | |
| BIOWL1-15 | 2026-09-04 01:15:15 | 50.86851 | 2.10940 | 99° | 117km/h | 12984m | -6.8m/s | -64.4°C | 63.9% | 0hPa | 2.6V | 18:12:15 | 02:24:04 | 00:00:00 | |
| BIOWL1-15 | 2026-09-04 01:15:07 | 50.86911 | 2.10442 | 99° | 135km/h | 13053m | -6.8m/s | -65°C | 62.5% | 0hPa | 2.5V | 18:12:15 | 02:23:54 | 00:00:00 | |
| BIOWL9-15 | 2026-09-04 01:14:54 | 50.86958 | 2.09843 | 102° | 120km/h | 13137m | -7.1m/s | -65.8°C | 52.2% | -1.0hPa | 2.5V | 00:00:00 | 00:00:00 | 00:00:00 | |
| BIOWL1-15 | 2026-09-04 01:14:54 | 50.86952 | 2.09890 | 101° | 119km/h | 13129m | -7.1m/s | 0°C | 0% | 0hPa | 2.5V | 18:12:15 | 02:23:43 | 00:00:00 | |
| BIOWL1-15 | 2026-09-04 01:14:44 | 50.87020 | 2.09379 | 98° | 137km/h | 13199m | -7m/s | 0°C | 0% | 0hPa | 2.5V | 18:12:15 | 02:23:33 | 00:00:00 | |
| BIOWL1-15 | 2026-09-04 01:14:33 | 50.87069 | 2.08835 | 101° | 119km/h | 13278m | -7.1m/s | 0°C | 0% | 0hPa | 2.5V | 18:12:15 | 02:23:22 | 00:00:00 | |
| DM0DOS-11 | 2026-09-04 01:14:30 | 50.87121 | 2.08502 | 105° | 130km/h | 13329m | -7.2m/s | -66.8°C | 56.2% | 0hPa | 2.5V | 08:10:22 | 02:23:15 | 00:00:00 | |
| WEDDY | 2026-09-04 01:14:27 | 50.87112 | 2.08551 | 106° | 128km/h | 13322m | -7.3m/s | -66.8°C | 43.7% | 0hPa | 2.5V | 08:10:00 | 00:00:00 | 00:00:00 | |
| BIOWL9-15 | 2026-09-04 01:14:23 | 50.87147 | 2.08348 | 103° | 135km/h | 13350m | -6.9m/s | -66.9°C | 42.0% | -1.0hPa | 2.5V | 00:00:00 | 00:00:00 | 00:00:00 | |
| DM0DOS-11 | 2026-09-04 01:14:20 | 50.87189 | 2.07988 | 100° | 122km/h | 13400m | -7.5m/s | -66.9°C | 51.1% | 0hPa | 2.5V | 08:10:32 | 02:23:05 | 00:00:00 | |
| DM0DOS-11 | 2026-09-04 01:14:10 | 50.87275 | 2.07515 | 107° | 133km/h | 13476m | -7.4m/s | -67.3°C | 48.1% | 0hPa | 2.6V | 08:10:42 | 02:22:55 | 00:00:00 | |
| HTAHTA | 2026-09-04 01:14:10 | 50.87254 | 2.07615 | 108° | 128km/h | 13461m | -7.4m/s | -67.2°C | 35.8% | -1.0hPa | 2.6V | 00:00:00 | 00:00:00 | 00:00:00 | |
| AU51GT2 | 2026-09-04 01:14:06 | 50.87284 | 2.07464 | 106° | 135km/h | 13483m | -7.5m/s | -67.3°C | 35.4% | -1.0hPa | 2.6V | 00:00:00 | 00:00:00 | 00:00:00 | |
| DM0DOS-11 | 2026-09-04 01:13:55 | 50.87360 | 2.06850 | 98° | 122km/h | 13575m | -8m/s | -67.1°C | 40.6% | 0hPa | 2.6V | 08:10:55 | 02:22:42 | 00:00:00 | |
| WEDDY | 2026-09-04 01:13:46 | 50.87400 | 2.06524 | 105° | 120km/h | 13627m | -7.5m/s | -66.2°C | 25.4% | 0hPa | 2.6V | 08:11:00 | 00:00:00 | 00:00:00 | |
| AU51GT2 | 2026-09-04 01:13:35 | 50.87468 | 2.05912 | 94° | 131km/h | 13721m | -7.6m/s | -65.5°C | 19.2% | -1.0hPa | 2.6V | 00:00:00 | 00:00:00 | 00:00:00 | |
| WEDDY | 2026-09-04 01:13:25 | 50.87490 | 2.05517 | 100° | 120km/h | 13782m | -7.8m/s | -66.0°C | 18.2% | 0hPa | 2.6V | 08:11:00 | 00:00:00 | 00:00:00 | |
| BIOWL1-15 | 2026-09-04 01:13:10 | 50.87595 | 2.04589 | 100° | 122km/h | 13924m | -8.4m/s | -65.4°C | 13.8% | 0hPa | 2.6V | 08:11:40 | 02:21:57 | 00:00:00 | |
| BIOWL1-15 | 2026-09-04 01:12:57 | 50.87682 | 2.03919 | 97° | 131km/h | 14028m | -8.2m/s | -64.6°C | 9.6% | 0hPa | 2.5V | 08:12:31 | 02:21:44 | 00:00:00 | |
| BIOWL1-15 | 2026-09-04 01:12:45 | 50.87703 | 2.03432 | 95° | 113km/h | 14109m | -7.9m/s | -62.5°C | 7.2% | 0hPa | 2.5V | 08:12:31 | 02:21:34 | 00:00:00 | |
| WEDDY | 2026-09-04 01:12:45 | 50.87703 | 2.03432 | 96° | 113km/h | 14109m | -7.9m/s | -62.5°C | 6.0% | 0hPa | 2.6V | 08:12:00 | 00:00:00 | 00:00:00 | |
| DM0DOS-11 | 2026-09-04 01:12:40 | 50.87751 | 2.02963 | 98° | 126km/h | 14188m | -7.6m/s | -62.4°C | 10.8% | 0hPa | 2.6V | 08:12:13 | 02:21:24 | 00:00:00 | |
| BIOWL1-15 | 2026-09-04 01:12:34 | 50.87763 | 2.02768 | 94° | 117km/h | 14221m | -8.7m/s | -62°C | 6.3% | 0hPa | 2.6V | 08:12:31 | 02:21:20 | 00:00:00 | |
| AU51GT2 | 2026-09-04 01:12:33 | 50.87761 | 2.02816 | 94° | 119km/h | 14213m | -8.1m/s | -62.1°C | 5.3% | -1.0hPa | 2.6V | 00:00:00 | 00:00:00 | 00:00:00 | |
| DM0DOS-11 | 2026-09-04 01:12:30 | 50.87775 | 2.02501 | 94° | 106km/h | 14271m | -7.5m/s | -61.6°C | 9.7% | 0hPa | 2.6V | 08:12:23 | 02:21:14 | 00:00:00 | |
| BIOWL1-15 | 2026-09-04 01:12:22 | 50.87784 | 2.02378 | 97° | 100km/h | 14295m | -8.6m/s | -61.1°C | 5.7% | 0hPa | 2.5V | 08:12:31 | 02:21:11 | 00:00:00 | |
| BIOWL7-15 | 2026-09-04 01:12:21 | 50.87783 | 2.02378 | 98° | 100km/h | 14295m | -8.6m/s | 0°C | 0% | 0hPa | 2.5V | 00:00:00 | 00:00:00 | 00:00:00 | |
| DM0DOS-11 | 2026-09-04 01:12:20 | 50.87816 | 2.02105 | 105° | 106km/h | 14351m | -7.9m/s | -61.1°C | 8.9% | 0hPa | 2.5V | 08:12:33 | 02:21:04 | 00:00:00 | |
| BIOWL1-15 | 2026-09-04 01:12:12 | 50.87837 | 2.01978 | 103° | 111km/h | 14374m | -7.7m/s | -61°C | 5.3% | 0hPa | 2.6V | 08:14:13 | 02:21:01 | 00:00:00 | |
| DM0DOS-11 | 2026-09-04 01:12:10 | 50.87862 | 2.01682 | 95° | 99km/h | 14429m | -8.6m/s | -61°C | 8.6% | 0hPa | 2.6V | 08:12:43 | 02:20:54 | 00:00:00 | |
| BIOWL1-15 | 2026-09-04 01:12:01 | 50.87873 | 2.01531 | 98° | 91km/h | 14462m | -7.8m/s | -61.1°C | 4.9% | 0hPa | 2.6V | 08:14:13 | 02:20:50 | 00:00:00 | |
| BIOWL1-15 | 2026-09-04 01:11:50 | 50.87958 | 2.01049 | 106° | 106km/h | 14566m | -8.5m/s | -60.7°C | 4.4% | 0hPa | 2.5V | 08:14:13 | 02:20:37 | 00:00:00 | |
| DM0DOS-11 | 2026-09-04 01:11:50 | 50.87958 | 2.01049 | 106° | 106km/h | 14566m | -8.5m/s | -60.7°C | 7.9% | 0hPa | 2.5V | 08:13:00 | 02:20:37 | 00:00:00 | |
| BIOWL9-15 | 2026-09-04 01:11:48 | 50.87965 | 2.01008 | 103° | 106km/h | 14575m | -8.5m/s | -60.7°C | 3.7% | -1.0hPa | 2.6V | 00:00:00 | 00:00:00 | 00:00:00 | |
| WEDDY | 2026-09-04 01:11:42 | 50.87982 | 2.00846 | 97° | 97km/h | 14607m | -7.6m/s | -61.0°C | 4.0% | 0hPa | 2.6V | 08:13:00 | 00:00:00 | 00:00:00 | |
| DM0DOS-11 | 2026-09-04 01:11:40 | 50.87996 | 2.00661 | 97° | 91km/h | 14649m | -8.7m/s | -61.3°C | 8.4% | 0hPa | 2.6V | 08:13:10 | 02:20:27 | 00:00:00 | |
| BIOWL1-15 | 2026-09-04 01:11:40 | 50.87990 | 2.00733 | 96° | 91km/h | 14632m | -7.9m/s | -61.2°C | 4.4% | 0hPa | 2.5V | 08:14:13 | 02:20:29 | 00:00:00 | |
| HTAHTA | 2026-09-04 01:11:34 | 50.88012 | 2.00522 | 103° | 86km/h | 14682m | -7.6m/s | -61.5°C | 3.8% | -1.0hPa | 2.6V | 00:00:00 | 00:00:00 | 00:00:00 | |
| DM0DOS-11 | 2026-09-04 01:11:30 | 50.88051 | 2.00299 | 102° | 104km/h | 14729m | -8.8m/s | -61.3°C | 8.1% | 0hPa | 2.6V | 08:13:20 | 02:20:17 | 00:00:00 | |
| DB0UT-7 | 2026-09-04 01:11:21 | 50.88075 | 2.00014 | 93° | 95km/h | 14786m | -7.9m/s | -60.0°C | 7.2% | 0hPa | 2.6V | 00:00:00 | 00:00:00 | 00:00:00 | |
| DM0DOS-11 | 2026-09-04 01:11:20 | 50.88078 | 1.99898 | 91° | 93km/h | 14809m | -8.4m/s | -59.8°C | 7% | 0hPa | 2.5V | 08:13:30 | 02:20:07 | 00:00:00 | |
| DM0DOS-11 | 2026-09-04 01:11:10 | 50.88108 | 1.99535 | 101° | 104km/h | 14890m | -8.1m/s | -60.1°C | 7.1% | 0hPa | 2.5V | 08:13:40 | 02:19:57 | 00:00:00 | |
| WEDDY | 2026-09-04 01:11:01 | 50.88124 | 1.99241 | 89° | 100km/h | 14946m | -7.7m/s | -60.2°C | 3.3% | 0hPa | 2.6V | 08:14:00 | 00:00:00 | 00:00:00 | |
| DM0DOS-11 | 2026-09-04 01:11:00 | 50.88124 | 1.99128 | 91° | 91km/h | 14971m | -8.4m/s | -60.1°C | 6.9% | 0hPa | 2.6V | 08:13:50 | 02:19:47 | 00:00:00 | |
| BIOWL1-15 | 2026-09-04 01:10:55 | 50.88128 | 1.99022 | 97° | 88km/h | 14996m | -7.9m/s | -60.2°C | 3.2% | 0hPa | 2.5V | 08:14:13 | 02:19:44 | 00:00:00 | |
| BIOWL9-15 | 2026-09-04 01:10:46 | 50.88178 | 1.98633 | 96° | 106km/h | 15075m | -8.4m/s | -60.0°C | 2.8% | -1.0hPa | 2.5V | 00:00:00 | 00:00:00 | 00:00:00 | |
| BIOWL1-15 | 2026-09-04 01:10:44 | 50.88181 | 1.98591 | 94° | 104km/h | 15083m | -8.2m/s | -60°C | 3% | 0hPa | 2.5V | 08:14:13 | 02:19:33 | 00:00:00 | |
| DM0DOS-11 | 2026-09-04 01:10:40 | 50.88189 | 1.98247 | 93° | 84km/h | 15159m | -8.4m/s | -60.5°C | 6.9% | 0hPa | 2.5V | 08:14:13 | 02:19:24 | 00:00:00 | |
| BIOWL1-15 | 2026-09-04 01:10:33 | 50.88193 | 1.98182 | 97° | 80km/h | 15175m | -7.5m/s | -60.5°C | 3% | 0hPa | 2.6V | 08:15:04 | 02:19:22 | 00:00:00 | |
| DM0DOS-11 | 2026-09-04 01:10:30 | 50.88227 | 1.97916 | 100° | 93km/h | 15240m | -8.1m/s | -60.5°C | 6.7% | 0hPa | 2.6V | 08:14:23 | 02:19:14 | 00:00:00 | |
| BIOWL1-15 | 2026-09-04 01:10:23 | 50.88233 | 1.97665 | 89° | 84km/h | 15299m | -9m/s | -60.3°C | 2.7% | 0hPa | 2.6V | 08:15:04 | 02:19:07 | 00:00:00 | |
| DM0DOS-11 | 2026-09-04 01:10:20 | 50.88231 | 1.97570 | 87° | 75km/h | 15325m | -8.2m/s | -60.4°C | 6.6% | 0hPa | 2.5V | 08:14:33 | 02:19:04 | 00:00:00 | |
| BIOWL1-15 | 2026-09-04 01:10:10 | 50.88249 | 1.97314 | 100° | 80km/h | 15400m | -9.2m/s | -60.4°C | 2.5% | 0hPa | 2.5V | 08:15:04 | 02:18:55 | 00:00:00 | |
| DM0DOS-11 | 2026-09-04 01:10:10 | 50.88252 | 1.97281 | 99° | 84km/h | 15409m | -8.9m/s | -60.4°C | 6.5% | 0hPa | 2.6V | 08:14:43 | 02:18:54 | 00:00:00 | |
| BIOWL1-15 | 2026-09-04 01:09:56 | 50.88239 | 1.96851 | 84° | 69km/h | 15523m | -8.7m/s | -60.2°C | 2.3% | 0hPa | 2.5V | 08:15:04 | 02:18:41 | 00:00:00 | |
| DM0DOS-11 | 2026-09-04 01:09:55 | 50.88237 | 1.96796 | 89° | 68km/h | 15541m | -9.3m/s | -60.2°C | 6.3% | 0hPa | 2.6V | 08:14:58 | 02:18:39 | 00:00:00 | |
| BIOWL1-15 | 2026-09-04 01:09:44 | 50.88246 | 1.96621 | 95° | 82km/h | 15594m | -8.9m/s | -60.1°C | 2.2% | 0hPa | 2.6V | 08:15:04 | 02:18:33 | 00:00:00 | |
| BIOWL1-15 | 2026-09-04 01:09:34 | 50.88242 | 1.96270 | 82° | 84km/h | 15681m | -8.8m/s | -60°C | 2.1% | 0hPa | 2.6V | 08:16:46 | 02:18:23 | 00:00:00 | |
| DM0DOS-11 | 2026-09-04 01:09:30 | 50.88230 | 1.96057 | 92° | 73km/h | 15743m | -9.2m/s | -59.9°C | 6% | 0hPa | 2.5V | 08:15:21 | 02:18:16 | 00:00:00 | |
| BIOWL1-15 | 2026-09-04 01:09:24 | 50.88235 | 1.95965 | 96° | 84km/h | 15769m | -8.7m/s | -60°C | 2% | 0hPa | 2.5V | 08:16:46 | 02:18:13 | 00:00:00 | |
| BIOWL1-15 | 2026-09-04 01:09:13 | 50.88234 | 1.95309 | 86° | 78km/h | 15933m | -8.6m/s | -59.7°C | 1.7% | 0hPa | 2.5V | 08:16:46 | 02:17:55 | 00:00:00 | |
| BIOWL1-15 | 2026-09-04 01:09:03 | 50.88235 | 1.95186 | 96° | 78km/h | 15969m | -9.5m/s | -59.7°C | 1.7% | 0hPa | 2.6V | 08:16:46 | 02:17:51 | 00:00:00 | |
| DJ2DS-15 | 2026-09-04 01:09:01 | 50.88238 | 1.95155 | 98° | 77km/h | 15978m | -9.6m/s | -59.7°C | 2.0% | -1.0hPa | 2.6V | 00:00:00 | 00:00:00 | 00:00:00 | |
| AU51GT2 | 2026-09-04 01:08:55 | 50.88265 | 1.94955 | 100° | 93km/h | 16033m | -9.1m/s | -59.4°C | 1.9% | -1.0hPa | 2.6V | 00:00:00 | 00:00:00 | 00:00:00 | |
| DM0DOS-11 | 2026-09-04 01:08:44 | 50.88280 | 1.94535 | 101° | 69km/h | 16152m | -9.4m/s | -58.5°C | 5.3% | 0hPa | 2.6V | 08:16:06 | 02:17:31 | 00:00:00 | |
| DO1YAY-16 | 2026-09-04 01:08:36 | 50.88317 | 1.94324 | 103° | 88km/h | 16216m | -9.5m/s | -58.2°C | 1.6% | -1.0hPa | 2.5V | 00:00:00 | 00:00:00 | 00:00:00 | |
| DM0DOS-11 | 2026-09-04 01:08:34 | 50.88329 | 1.94218 | 94° | 89km/h | 16244m | -9.7m/s | -58.4°C | 5.2% | 0hPa | 2.5V | 08:16:16 | 02:17:21 | 00:00:00 | |
| BIOWL1-15 | 2026-09-04 01:08:29 | 50.88331 | 1.93908 | 94° | 66km/h | 16339m | -8.6m/s | -58.3°C | 1.1% | 0hPa | 2.6V | 08:16:46 | 02:17:11 | 00:00:00 | |
| BIOWL1-15 | 2026-09-04 01:08:14 | 50.88377 | 1.93610 | 107° | 80km/h | 16442m | -9.8m/s | -58°C | 0.9% | 0hPa | 2.6V | 08:16:46 | 02:17:00 | 00:00:00 | |
| BIOWL1-15 | 2026-09-04 01:08:02 | 50.88415 | 1.93308 | 96° | 82km/h | 16527m | -9.9m/s | 0°C | 0% | 0hPa | 2.5V | 08:16:46 | 02:16:51 | 00:00:00 | |
| HTAHTA | 2026-09-04 01:07:57 | 50.88421 | 1.93128 | 89° | 71km/h | 16584m | -9.9m/s | -57.5°C | 1.3% | -1.0hPa | 2.5V | 00:00:00 | 00:00:00 | 00:00:00 | |
| DM0DOS-11 | 2026-09-04 01:07:56 | 50.88420 | 1.93074 | 89° | 66km/h | 16605m | -10m/s | -57.5°C | 4.8% | 0hPa | 2.5V | 08:16:54 | 02:16:43 | 00:00:00 | |
| BIOWL1-15 | 2026-09-04 01:07:51 | 50.88419 | 1.93000 | 90° | 57km/h | 16634m | -9.2m/s | 0°C | 0% | 0hPa | 2.5V | 18:12:15 | 02:16:40 | 00:00:00 | |
| DM0DOS-11 | 2026-09-04 01:07:46 | 50.88437 | 1.92839 | 103° | 68km/h | 16701m | -10.1m/s | -56.5°C | 4.5% | 0hPa | 2.6V | 08:17:04 | 02:16:33 | 00:00:00 | |
| BIOWL1-15 | 2026-09-04 01:07:41 | 50.88448 | 1.92757 | 98° | 73km/h | 16730m | -9.6m/s | 0°C | 0% | 0hPa | 2.5V | 18:12:15 | 02:16:30 | 00:00:00 | |
| BIOWL9-15 | 2026-09-04 01:07:39 | 50.88451 | 1.92700 | 93° | 71km/h | 16751m | -10.0m/s | -56.1°C | 1.1% | -1.0hPa | 2.5V | 00:00:00 | 00:00:00 | 00:00:00 | |
| BIOWL7-15 | 2026-09-04 01:07:38 | 50.88451 | 1.92699 | 94° | 73km/h | 16751m | -10.0m/s | 0°C | 0% | 0hPa | 2.5V | 00:00:00 | 00:00:00 | 00:00:00 | |
| DM0DOS-11 | 2026-09-04 01:07:36 | 50.88443 | 1.92559 | 79° | 66km/h | 16798m | -9.9m/s | -56.4°C | 4.4% | 0hPa | 2.5V | 08:17:14 | 02:16:23 | 00:00:00 | |
| DO1YAY-16 | 2026-09-04 01:07:34 | 50.88443 | 1.92559 | 79° | 64km/h | 16798m | -9.9m/s | -56.4°C | 1.2% | -1.0hPa | 2.6V | 00:00:00 | 00:00:00 | 00:00:00 | |
| DB0UT-7 | 2026-09-04 01:07:26 | 50.88431 | 1.92382 | 101° | 42km/h | 16877m | -9.6m/s | -56.1°C | 4.3% | 0hPa | 2.6V | 00:00:00 | 02:16:15 | 00:00:00 | |
| AU51GT2 | 2026-09-04 01:07:22 | 50.88446 | 1.92301 | 108° | 57km/h | 16916m | -9.8m/s | -56.0°C | 1.1% | -1.0hPa | 2.6V | 00:00:00 | 00:00:00 | 00:00:00 | |
| DM0DOS-11 | 2026-09-04 01:07:11 | 50.88480 | 1.91967 | 87° | 49km/h | 17056m | -9.8m/s | -55.5°C | 4.1% | 0hPa | 2.6V | 08:17:40 | 02:15:57 | 00:00:00 | |
| DM0DOS-11 | 2026-09-04 01:06:56 | 50.88505 | 1.91764 | 108° | 47km/h | 17196m | -10.1m/s | -55.5°C | 4.1% | 0hPa | 2.5V | 08:17:54 | 02:15:43 | 00:00:00 | |
| AU51GT2 | 2026-09-04 01:06:51 | 50.88514 | 1.91707 | 101° | 49km/h | 17227m | -10.5m/s | -55.4°C | 1.0% | -1.0hPa | 2.5V | 00:00:00 | 00:00:00 | 00:00:00 | |
| DJ2DS-15 | 2026-09-04 01:06:37 | 50.88487 | 1.91465 | 59° | 27km/h | 17371m | -10.6m/s | -55.9°C | 1.1% | -1.0hPa | 2.5V | 00:00:00 | 00:00:00 | 00:00:00 | |
| BIOWL1-15 | 2026-09-04 01:06:12 | 50.88423 | 1.91160 | 45° | 29km/h | 17633m | -10.5m/s | -56.3°C | 0.3% | 0hPa | 2.5V | 08:20:10 | 02:15:01 | 00:00:00 | |
| BIOWL1-15 | 2026-09-04 01:06:02 | 50.88402 | 1.91050 | 85° | 47km/h | 17740m | -10.5m/s | -56.8°C | 0.3% | 0hPa | 2.6V | 08:20:10 | 02:14:51 | 00:00:00 | |
| BIOWL1-15 | 2026-09-04 01:05:51 | 50.88356 | 1.90810 | 64° | 55km/h | 17857m | -10.7m/s | -57.2°C | 0.4% | 0hPa | 2.6V | 08:20:10 | 02:14:40 | 00:00:00 | |
| AU51GT2 | 2026-09-04 01:05:49 | 50.88345 | 1.90774 | 67° | 46km/h | 17878m | -10.2m/s | -57.2°C | 1.1% | -1.0hPa | 2.6V | 00:00:00 | 00:00:00 | 00:00:00 | |
| DB0UT-7 | 2026-09-04 01:05:43 | 50.88338 | 1.90666 | 99° | 47km/h | 17943m | -11.4m/s | -56.8°C | 4.4% | 0hPa | 2.6V | 00:00:00 | 02:14:32 | 00:00:00 | |
| DM0DOS-11 | 2026-09-04 01:05:29 | 50.88371 | 1.90300 | 88° | 55km/h | 18102m | -10.7m/s | -56.8°C | 4.3% | 0hPa | 2.6V | 08:19:20 | 02:14:17 | 00:00:00 | |
| DJ2DS-15 | 2026-09-04 01:05:25 | 50.88368 | 1.90221 | 83° | 44km/h | 18147m | -10.9m/s | -56.7°C | 1.0% | -1.0hPa | 2.5V | 00:00:00 | 00:00:00 | 00:00:00 | |
| BIOWL1-15 | 2026-09-04 01:05:24 | 50.88387 | 1.89816 | 83° | 55km/h | 18389m | -11.2m/s | -56.4°C | 0.4% | 0hPa | 2.5V | 08:20:10 | 02:13:51 | 00:00:00 | |
| DM0DOS-11 | 2026-09-04 01:05:19 | 50.88366 | 1.90134 | 99° | 33km/h | 18212m | -11.1m/s | -56.8°C | 4.4% | 0hPa | 2.6V | 08:19:30 | 02:14:07 | 00:00:00 | |
| AU51GT2 | 2026-09-04 01:05:18 | 50.88366 | 1.90134 | 99° | 31km/h | 18213m | -11.1m/s | -56.8°C | 1.0% | -1.0hPa | 2.5V | 00:00:00 | 00:00:00 | 00:00:00 | |
| BIOWL1-15 | 2026-09-04 01:05:11 | 50.88382 | 1.89757 | 83° | 44km/h | 18424m | -11.2m/s | -56.1°C | 0.2% | 0hPa | 2.5V | 08:20:10 | 02:13:48 | 00:00:00 | |
| BIOWL1-15 | 2026-09-04 01:04:55 | 50.88381 | 1.89693 | 98° | 38km/h | 18468m | -11.3m/s | -56.1°C | 0.3% | 0hPa | 2.6V | 08:20:10 | 02:13:44 | 00:00:00 | |
| DM0DOS-11 | 2026-09-04 01:04:52 | 50.88393 | 1.89634 | 112° | 40km/h | 18513m | -11.1m/s | -55.7°C | 4.1% | 0hPa | 2.6V | 08:19:57 | 02:13:40 | 00:00:00 | |
| HTAHTA | 2026-09-04 01:04:50 | 50.88397 | 1.89619 | 112° | 44km/h | 18524m | -11.1m/s | -55.7°C | 1.0% | -1.0hPa | 2.5V | 00:00:00 | 00:00:00 | 00:00:00 | |
| DJ2DS-15 | 2026-09-04 01:04:49 | 50.88405 | 1.89584 | 106° | 47km/h | 18546m | -11.3m/s | -55.8°C | 1.0% | -1.0hPa | 2.5V | 00:00:00 | 00:00:00 | 00:00:00 | |
| AU51GT2 | 2026-09-04 01:04:47 | 50.88409 | 1.89564 | 105° | 51km/h | 18557m | -11.4m/s | -55.9°C | 0.9% | -1.0hPa | 2.5V | 00:00:00 | 00:00:00 | 00:00:00 | |
| BIOWL1-15 | 2026-09-04 01:04:44 | 50.88414 | 1.89500 | 92° | 55km/h | 18591m | -11.6m/s | -56°C | 0.3% | 0hPa | 2.5V | 08:20:10 | 02:13:33 | 00:00:00 | |
| DM0DOS-11 | 2026-09-04 01:04:42 | 50.88409 | 1.89413 | 77° | 55km/h | 18637m | -11.5m/s | -55.6°C | 4.1% | 0hPa | 2.6V | 08:20:08 | 02:13:29 | 00:00:00 | |
| BIOWL1-15 | 2026-09-04 01:04:33 | 50.88384 | 1.89294 | 77° | 33km/h | 18717m | -12.1m/s | -55.4°C | 0.2% | 0hPa | 2.6V | 08:21:01 | 02:13:22 | 00:00:00 | |
| BIOWL9-15 | 2026-09-04 01:04:33 | 50.88382 | 1.89281 | 81° | 29km/h | 18729m | -11.0m/s | -55.2°C | 0.9% | -1.0hPa | 2.6V | 00:00:00 | 00:00:00 | 00:00:00 | |
| BIOWL1-15 | 2026-09-04 01:04:22 | 50.88435 | 1.89007 | 75° | 38km/h | 18947m | -12.5m/s | -55.1°C | 0.2% | 0hPa | 2.6V | 08:21:01 | 02:13:02 | 00:00:00 | |
| AU51GT2 | 2026-09-04 01:04:16 | 50.88438 | 1.89039 | 88° | 40km/h | 18924m | -11.7m/s | -55.2°C | 0.9% | -1.0hPa | 2.6V | 00:00:00 | 00:00:00 | 00:00:00 | |
| DJ2DS-15 | 2026-09-04 01:04:13 | 50.88432 | 1.88993 | 71° | 35km/h | 18959m | -11.5m/s | -55.1°C | 0.9% | -1.0hPa | 2.6V | 00:00:00 | 00:00:00 | 00:00:00 | |
| DM0DOS-11 | 2026-09-04 01:04:09 | 50.88412 | 1.88935 | 50° | 29km/h | 19016m | -11.3m/s | -55.1°C | 3.9% | 0hPa | 2.6V | 08:20:41 | 02:12:56 | 00:00:00 | |
| BIOWL1-15 | 2026-09-04 01:04:05 | 50.88377 | 1.88875 | 74° | 18km/h | 19120m | -11.7m/s | -55.8°C | 0.3% | 0hPa | 2.6V | 08:21:01 | 02:12:47 | 00:00:00 | |
| BIOWL9-15 | 2026-09-04 01:04:02 | 50.88384 | 1.88892 | 46° | 20km/h | 19086m | -11.6m/s | -55.6°C | 0.9% | -1.0hPa | 2.6V | 00:00:00 | 00:00:00 | 00:00:00 | |
| DO1YAY-16 | 2026-09-04 01:03:57 | 50.88376 | 1.88809 | 85° | 37km/h | 19191m | -12.1m/s | -55.8°C | 0.9% | -1.0hPa | 2.6V | 00:00:00 | 00:00:00 | 00:00:00 | |
| DM0DOS-11 | 2026-09-04 01:03:52 | 50.88371 | 1.88739 | 79° | 49km/h | 19240m | -11.7m/s | -55.6°C | 4% | 0hPa | 2.6V | 08:21:00 | 02:12:37 | 00:00:00 | |
| BIOWL1-15 | 2026-09-04 01:03:48 | 50.88334 | 1.88601 | 59° | 40km/h | 19333m | -12m/s | -56°C | 0.1% | 0hPa | 2.5V | 08:21:52 | 02:12:29 | 00:00:00 | |
| AU51GT2 | 2026-09-04 01:03:45 | 50.88356 | 1.88663 | 67° | 47km/h | 19287m | -12.0m/s | -55.7°C | 0.9% | -1.0hPa | 2.6V | 00:00:00 | 00:00:00 | 00:00:00 | |
| DM0DOS-11 | 2026-09-04 01:03:42 | 50.88325 | 1.88576 | 64° | 31km/h | 19357m | -12.4m/s | -56.2°C | 4.1% | 0hPa | 2.6V | 08:30:00 | 02:12:27 | 00:00:00 | |
| BIOWL1-15 | 2026-09-04 01:03:35 | 50.88319 | 1.88543 | 88° | 27km/h | 19393m | -12.5m/s | -56.5°C | 0.3% | 0hPa | 2.5V | 08:21:52 | 02:12:24 | 00:00:00 | |
| DM0DOS-11 | 2026-09-04 01:03:32 | 50.88331 | 1.88450 | 107° | 44km/h | 19480m | -12.2m/s | -57°C | 4.5% | 0hPa | 2.6V | 08:30:00 | 02:12:17 | 00:00:00 | |
| BIOWL1-15 | 2026-09-04 01:03:24 | 50.88357 | 1.88311 | 99° | 53km/h | 19564m | -12.5m/s | -56.6°C | 0.4% | 0hPa | 2.5V | 08:21:52 | 02:12:10 | 00:00:00 | |
| BIOWL1-15 | 2026-09-04 01:03:10 | 50.88350 | 1.88160 | 87° | 18km/h | 19701m | -12.8m/s | -56.1°C | 0.3% | 0hPa | 2.5V | 08:21:52 | 02:11:59 | 00:00:00 | |
| BIOWL1-15 | 2026-09-04 01:03:00 | 50.88380 | 1.88030 | 98° | 49km/h | 19850m | -12.3m/s | -55.9°C | 0.2% | 0hPa | 2.6V | 08:21:52 | 02:11:47 | 00:00:00 | |
| BIOWL1-15 | 2026-09-04 01:02:49 | 50.88349 | 1.87797 | 68° | 53km/h | 19986m | -12.1m/s | -56.8°C | 0.4% | 0hPa | 2.6V | 08:22:43 | 02:11:36 | 00:00:00 | |
| DM0DOS-11 | 2026-09-04 01:02:49 | 50.88343 | 1.87778 | 66° | 49km/h | 19999m | -11.6m/s | -56.9°C | 4.6% | 0hPa | 2.5V | 08:30:00 | 02:11:35 | 00:00:00 | |
| DB0UT-7 | 2026-09-04 01:02:48 | 50.88354 | 1.87817 | 68° | 38km/h | 19974m | -12.2m/s | -56.7°C | 4.5% | 0hPa | 2.5V | 00:00:00 | 00:00:00 | 00:00:00 | |
| AU51GT2 | 2026-09-04 01:02:43 | 50.88326 | 1.87706 | 73° | 42km/h | 20048m | -12.9m/s | -57.1°C | 1.1% | -1.0hPa | 2.5V | 00:00:00 | 00:00:00 | 00:00:00 | |
| DM0DOS-11 | 2026-09-04 01:02:39 | 50.88314 | 1.87610 | 88° | 33km/h | 20123m | -12.5m/s | -55.9°C | 4.3% | 0hPa | 2.5V | 08:30:00 | 02:11:25 | 00:00:00 | |
| BIOWL1-15 | 2026-09-04 01:02:36 | 50.88314 | 1.87610 | 88° | 33km/h | 20124m | -12.5m/s | -55.9°C | 0.4% | 0hPa | 2.5V | 08:22:43 | 02:11:25 | 00:00:00 | |
| DB0ND-19 | 2026-09-04 01:02:32 | 50.88319 | 1.87564 | 115° | 26km/h | 20173m | -13.3m/s | 0°C | -1.0% | -1.0hPa | 2.5V | 00:00:00 | 00:00:00 | 00:00:00 | |
| DM0DOS-11 | 2026-09-04 01:02:28 | 50.88349 | 1.87509 | 136° | 37km/h | 20252m | -12.3m/s | -55.1°C | 4% | 0hPa | 2.5V | 08:30:00 | 02:11:15 | 00:00:00 | |
| BIOWL1-15 | 2026-09-04 01:02:26 | 50.88374 | 1.87455 | 119° | 42km/h | 20302m | -12.8m/s | -55°C | 0.2% | 0hPa | 2.6V | 08:22:43 | 02:11:11 | 00:00:00 | |
| BIOWL1-15 | 2026-09-04 01:02:16 | 50.88381 | 1.87330 | 69° | 27km/h | 20418m | -13m/s | -55.1°C | 0.2% | 0hPa | 2.6V | 08:22:43 | 02:11:02 | 00:00:00 | |
| BIOWL1-15 | 2026-09-04 01:02:04 | 50.88381 | 1.87274 | 145° | 16km/h | 20535m | -13.5m/s | -55.2°C | 0.3% | 0hPa | 2.5V | 08:23:34 | 02:10:53 | 00:00:00 | |
| BIOWL1-15 | 2026-09-04 01:01:54 | 50.88430 | 1.87205 | 114° | 31km/h | 20668m | -13.5m/s | -55.3°C | 0.2% | 0hPa | 2.5V | 08:23:34 | 02:10:43 | 00:00:00 | |
| DO1YAY-16 | 2026-09-04 01:01:52 | 50.88433 | 1.87182 | 91° | 27km/h | 20695m | -13.1m/s | -55.3°C | 0.9% | -1.0hPa | 2.6V | 00:00:00 | 00:00:00 | 00:00:00 | |
| DM0DOS-11 | 2026-09-04 01:01:48 | 50.88423 | 1.87137 | 54° | 16km/h | 20761m | -13.2m/s | -55.2°C | 4.1% | 0hPa | 2.6V | 08:30:00 | 02:10:36 | 00:00:00 | |
| BIOWL1-15 | 2026-09-04 01:01:37 | 50.88440 | 1.87110 | 154° | 22km/h | 20896m | -13.3m/s | -54.5°C | 0.1% | 0hPa | 2.5V | 08:23:34 | 02:10:26 | 00:00:00 | |
| BIOWL1-15 | 2026-09-04 01:01:27 | 50.88501 | 1.87011 | 113° | 31km/h | 21060m | -13.8m/s | -54.8°C | 0.3% | 0hPa | 2.6V | 08:23:34 | 02:10:14 | 00:00:00 | |
| BIOWL9-15 | 2026-09-04 01:01:26 | 50.88498 | 1.87023 | 117° | 31km/h | 21047m | -13.5m/s | -54.9°C | 0.8% | -1.0hPa | 2.5V | 00:00:00 | 00:00:00 | 00:00:00 | |
| BIOWL1-15 | 2026-09-04 01:01:06 | 50.88454 | 1.86849 | 99° | 9km/h | 21338m | -13.3m/s | -54.1°C | 0.1% | 0hPa | 2.5V | 08:25:16 | 02:09:54 | 00:00:00 | |
| DB0UT-7 | 2026-09-04 01:01:05 | 50.88454 | 1.86849 | 100° | 24km/h | 21338m | -13.3m/s | -54.1°C | 3.8% | 0hPa | 2.5V | 08:23:00 | 00:00:00 | 00:00:00 | |
| DO1YAY-16 | 2026-09-04 01:00:50 | 50.88494 | 1.86715 | 86° | 38km/h | 21548m | -14.7m/s | -54.3°C | 0.8% | -1.0hPa | 2.6V | 00:00:00 | 00:00:00 | 00:00:00 | |
| BIOWL1-15 | 2026-09-04 01:00:23 | 50.88509 | 1.86545 | 98° | 31km/h | 21956m | -15.2m/s | -54.2°C | 0.2% | 0hPa | 2.6V | 08:25:16 | 02:09:11 | 00:00:00 | |
| BIOWL1-15 | 2026-09-04 01:00:13 | 50.88476 | 1.86451 | 29° | 33km/h | 22090m | -14.8m/s | -53.1°C | 0.1% | 0hPa | 2.5V | 08:25:16 | 02:09:02 | 00:00:00 | |
| BIOWL1-15 | 2026-09-04 01:00:00 | 50.88419 | 1.86401 | 125° | 22km/h | 22329m | -14.8m/s | -52.6°C | 0.1% | 0hPa | 2.5V | 08:25:16 | 02:08:46 | 00:00:00 | |
| BIOWL1-15 | 2026-09-04 00:59:48 | 50.88478 | 1.86280 | 120° | 47km/h | 22481m | -15.9m/s | -52.1°C | 0% | 0hPa | 2.5V | 08:25:16 | 02:08:36 | 00:00:00 | |
| DO1YAY-16 | 2026-09-04 00:59:48 | 50.88472 | 1.86296 | 120° | 47km/h | 22466m | -15.7m/s | -52.2°C | 0.7% | -1.0hPa | 2.6V | 00:00:00 | 00:00:00 | 00:00:00 | |
| BIOWL1-15 | 2026-09-04 00:59:38 | 50.88515 | 1.86162 | 125° | 11km/h | 22633m | -15.1m/s | -51.7°C | 0% | 0hPa | 2.6V | 08:25:16 | 02:08:26 | 00:00:00 | |
| BIOWL1-15 | 2026-09-04 00:59:28 | 50.88522 | 1.86178 | 253° | 18km/h | 22772m | -15.7m/s | -51.8°C | 0% | 0hPa | 2.5V | 08:26:58 | 02:08:17 | 00:00:00 | |
| DJ2DS-15 | 2026-09-04 00:59:25 | 50.88535 | 1.86206 | 215° | 24km/h | 22834m | -16.2m/s | -52.0°C | 0.7% | -1.0hPa | 2.5V | 00:00:00 | 00:00:00 | 00:00:00 | |
| DB0UT-7 | 2026-09-04 00:59:23 | 50.88540 | 1.86210 | 203° | 20km/h | 22851m | -15.8m/s | -51.9°C | 3.4% | 0hPa | 2.5V | 00:00:00 | 00:00:00 | 00:00:00 | |
| BIOWL9-15 | 2026-09-04 00:59:22 | 50.88551 | 1.86213 | 172° | 22km/h | 22881m | -15.5m/s | -52.0°C | 0.7% | -1.0hPa | 2.5V | 00:00:00 | 00:00:00 | 00:00:00 | |
| BIOWL1-15 | 2026-09-04 00:59:02 | 50.88573 | 1.86062 | 29° | 16km/h | 23185m | -16.6m/s | -52.5°C | 0% | 0hPa | 2.5V | 08:26:58 | 02:07:51 | 00:00:00 | |
| BIOWL1-15 | 2026-09-04 00:58:45 | 50.88592 | 1.86075 | 126° | 18km/h | 23465m | -17.3m/s | -52.8°C | 0.1% | 0hPa | 2.5V | 08:26:58 | 02:07:34 | 00:00:00 | |
| AU51GT2 | 2026-09-04 00:58:34 | 50.88591 | 1.85958 | 61° | 29km/h | 23648m | -17.0m/s | -53.3°C | 0.7% | -1.0hPa | 2.5V | 00:00:00 | 00:00:00 | 00:00:00 | |
| BIOWL1-15 | 2026-09-04 00:58:16 | 50.88547 | 1.85874 | 122° | 33km/h | 23994m | -17.5m/s | -52.3°C | 0% | 0hPa | 2.5V | 08:26:58 | 02:07:03 | 00:00:00 | |
| BIOWL1-15 | 2026-09-04 00:58:05 | 50.88566 | 1.85721 | 89° | 27km/h | 24185m | -17.8m/s | -53.1°C | 0.2% | 0hPa | 2.5V | 08:26:58 | 02:06:52 | 00:00:00 | |
| BIOWL1-15 | 2026-09-04 00:57:53 | 50.88545 | 1.85661 | 6° | 16km/h | 24364m | -18.4m/s | -52.5°C | 0.1% | 0hPa | 2.6V | 08:26:58 | 02:06:42 | 00:00:00 | |
| BIOWL9-15 | 2026-09-04 00:57:49 | 50.88531 | 1.85667 | 333° | 11km/h | 24437m | -18.7m/s | -52.4°C | 0.7% | -1.0hPa | 2.6V | 00:00:00 | 00:00:00 | 00:00:00 | |
| BIOWL1-15 | 2026-09-04 00:57:42 | 50.88583 | 1.85660 | 142° | 35km/h | 24676m | -18.1m/s | -51.2°C | 0% | 0hPa | 2.6V | 08:28:40 | 02:06:25 | 00:00:00 | |
| BIOWL1-15 | 2026-09-04 00:57:28 | 50.88600 | 1.85603 | 30° | 7km/h | 24840m | -19.2m/s | -51.7°C | 0.1% | 0hPa | 2.5V | 08:28:40 | 02:06:16 | 00:00:00 | |
| BIOWL1-15 | 2026-09-04 00:57:18 | 50.88631 | 1.85654 | 188° | 33km/h | 25085m | -19.3m/s | -50.5°C | 0% | 0hPa | 2.6V | 08:28:40 | 02:06:03 | 00:00:00 | |
| BIOWL9-15 | 2026-09-04 00:57:18 | 50.88605 | 1.85637 | 219° | 22km/h | 25010m | -18.9m/s | -51.0°C | 0.7% | -1.0hPa | 2.5V | 00:00:00 | 00:00:00 | 00:00:00 | |
| DO1YAY-16 | 2026-09-04 00:57:13 | 50.88640 | 1.85656 | 186° | 35km/h | 25104m | -20.7m/s | -50.4°C | 0.6% | -1.0hPa | 2.5V | 00:00:00 | 00:00:00 | 00:00:00 | |
| DB0UT-7 | 2026-09-04 00:57:11 | 50.88660 | 1.85656 | 174° | 33km/h | 25144m | -19.0m/s | -50.3°C | 3.3% | 0hPa | 2.5V | 00:00:00 | 02:06:00 | 00:00:00 | |
| HTAHTA | 2026-09-04 00:57:05 | 50.88719 | 1.85606 | 128° | 29km/h | 25277m | -19.5m/s | -50.2°C | 0.6% | -1.0hPa | 2.5V | 00:00:00 | 00:00:00 | 00:00:00 | |
| AU51GT2 | 2026-09-04 00:57:01 | 50.88730 | 1.85586 | 125° | 13km/h | 25334m | -19.6m/s | -50.2°C | 0.6% | -1.0hPa | 2.5V | 00:00:00 | 00:00:00 | 00:00:00 | |
| DJ2DS-15 | 2026-09-04 00:57:00 | 50.88733 | 1.85581 | 175° | 4km/h | 25373m | -19.0m/s | -50.4°C | 0.6% | -1.0hPa | 2.5V | 00:00:00 | 00:00:00 | 00:00:00 | |
| DB0DAN | 2026-09-04 00:56:55 | 50.88732 | 1.85588 | 315° | 9km/h | 25449m | -19.8m/s | 0°C | 0% | 0hPa | 2.5V | 00:00:00 | 00:00:00 | 00:00:00 | |
| BIOWL1-15 | 2026-09-04 00:56:53 | 50.88727 | 1.85596 | 301° | 16km/h | 25488m | -19.7m/s | -50.2°C | 0% | 0hPa | 2.5V | 08:28:40 | 02:05:42 | 00:00:00 | |
| DB0ND-19 | 2026-09-04 00:56:51 | 50.88723 | 1.85608 | 299° | 18km/h | 25527m | -20.5m/s | 0°C | -1.0% | -1.0hPa | 2.6V | 00:00:00 | 00:00:00 | 00:00:00 | |
| BIOWL9-15 | 2026-09-04 00:56:47 | 50.88720 | 1.85646 | 254° | 31km/h | 25604m | -19.7m/s | -49.9°C | 0.6% | -1.0hPa | 2.6V | 00:00:00 | 00:00:00 | 00:00:00 | |
| BIOWL1-15 | 2026-09-04 00:56:42 | 50.88749 | 1.85728 | 237° | 29km/h | 25750m | -19.6m/s | -49.6°C | 0% | 0hPa | 2.6V | 08:28:40 | 02:05:29 | 00:00:00 | |
| DL1XH-west | 2026-09-04 00:56:42 | 50.88741 | 1.85706 | 237° | 33km/h | 25710m | -20.6m/s | -49.6°C | 0% | 0hPa | 2.5V | 08:29:31 | 02:05:31 | 00:00:00 | |
| BIOWL1-15 | 2026-09-04 00:56:32 | 50.88764 | 1.85750 | 199° | 24km/h | 25998m | -20.9m/s | -49.3°C | 0% | 0hPa | 2.6V | 08:28:40 | 02:05:17 | 00:00:00 | |
| DL1XH-west | 2026-09-04 00:56:32 | 50.88749 | 1.85750 | 113° | 5km/h | 25913m | -21.2m/s | -49.4°C | 0% | 0hPa | 2.5V | 08:29:31 | 02:05:21 | 00:00:00 | |
| DL1XH-west | 2026-09-04 00:56:21 | 50.88787 | 1.85832 | 285° | 40km/h | 26145m | -21.3m/s | -49.4°C | 0% | 0hPa | 2.6V | 08:29:31 | 02:05:10 | 00:00:00 | |
| BIOWL1-15 | 2026-09-04 00:56:19 | 50.88750 | 1.85865 | 63° | 18km/h | 26307m | -20.4m/s | -49.7°C | 0% | 0hPa | 2.5V | 08:28:40 | 02:05:02 | 00:00:00 | |
| BIOWL9-15 | 2026-09-04 00:56:16 | 50.88762 | 1.85875 | 2° | 22km/h | 26247m | -19.5m/s | -49.6°C | 0.6% | -1.0hPa | 2.5V | 00:00:00 | 00:00:00 | 00:00:00 | |
| BIOWL1-15 | 2026-09-04 00:56:03 | 50.88800 | 1.85950 | 304° | 38km/h | 26646m | -19.5m/s | -49.4°C | 0% | 0hPa | 2.5V | 18:12:15 | 02:04:45 | 00:00:00 | |
| BIOWL1-15 | 2026-09-04 00:55:52 | 50.88778 | 1.85980 | 348° | 18km/h | 26723m | -19.3m/s | -49.3°C | 0% | 0hPa | 2.6V | 18:12:15 | 02:04:41 | 00:00:00 | |
| DJ2DS-15 | 2026-09-04 00:55:48 | 50.88776 | 1.85976 | 169° | 15km/h | 26821m | -20.6m/s | -49.2°C | 0.6% | -1.0hPa | 2.6V | 00:00:00 | 00:00:00 | 00:00:00 | |
| BIOWL9-15 | 2026-09-04 00:55:45 | 50.88786 | 1.85979 | 196° | 26km/h | 26862m | -19.9m/s | -49.2°C | 0.6% | -1.0hPa | 2.6V | 00:00:00 | 00:00:00 | 00:00:00 | |
| BIOWL1-15 | 2026-09-04 00:55:44 | 50.88806 | 1.85997 | 227° | 37km/h | 26921m | -19.6m/s | -49.3°C | 0% | 0hPa | 2.6V | 18:12:15 | 02:04:31 | 00:00:00 | |
| BIOWL1-15 | 2026-09-04 00:55:24 | 50.88734 | 1.86109 | 96° | 24km/h | 27282m | -19.7m/s | -49.6°C | 0% | 0hPa | 2.5V | 18:12:15 | 02:04:13 | 00:00:00 | |
| DL1XH-west | 2026-09-04 00:55:16 | 50.88779 | 1.86098 | 235° | 29km/h | 27460m | -20.4m/s | -49.4°C | 0% | 0hPa | 2.5V | 18:12:15 | 02:04:04 | 00:00:00 | |
| BIOWL1-15 | 2026-09-04 00:55:08 | 50.88764 | 1.86181 | 345° | 26km/h | 27645m | -20.8m/s | -49.1°C | 0% | 0hPa | 2.5V | 18:12:15 | 02:03:55 | 00:00:00 | |
| DL1XH-west | 2026-09-04 00:55:05 | 50.88758 | 1.86182 | 2° | 26km/h | 27666m | -20.6m/s | -49.1°C | 0% | 0hPa | 2.5V | 18:12:15 | 02:03:54 | 00:00:00 | |
| BIOWL1-15 | 2026-09-04 00:54:56 | 50.88735 | 1.86115 | 126° | 27km/h | 27850m | -20.6m/s | -47.9°C | 0% | 0hPa | 2.6V | 18:12:15 | 02:03:45 | 00:00:00 | |
| BIOWL1-15 | 2026-09-04 00:54:46 | 50.88796 | 1.86134 | 241° | 20km/h | 28095m | -21.8m/s | -47.1°C | 0% | 0hPa | 2.5V | 18:12:15 | 02:03:33 | 00:00:00 | |
| DL1XH-west | 2026-09-04 00:54:42 | 50.88800 | 1.86146 | 249° | 11km/h | 28138m | -22.4m/s | -46.8°C | 0% | 0hPa | 2.5V | 18:12:15 | 02:03:31 | 00:00:00 | |
| BIOWL1-15 | 2026-09-04 00:54:32 | 50.88808 | 1.86172 | 254° | 9km/h | 28740m | -50.3m/s | -44.5°C | 0% | 0hPa | 2.6V | 18:12:15 | 02:03:18 | 00:00:00 | |
| DL1XH-west | 2026-09-04 00:54:32 | 50.88806 | 1.86163 | 234° | 9km/h | 28581m | -54.8m/s | -44.5°C | 0% | 0hPa | 2.5V | 18:12:15 | 02:03:21 | 00:00:00 | |
| DL1XH-west | 2026-09-04 00:54:21 | 50.88805 | 1.86213 | 279° | 22km/h | 29059m | -24m/s | -44.4°C | 0% | 0hPa | 2.5V | 18:12:15 | 02:03:10 | 00:00:00 | |
| BIOWL1-15 | 2026-09-04 00:54:20 | 50.88804 | 1.86231 | 277° | 22km/h | 29092m | -8.3m/s | -44.5°C | 0% | 0hPa | 2.6V | 18:12:15 | 02:03:08 | 00:00:00 | |
| BIOWL1-15 | 2026-09-04 00:54:12 | 50.88795 | 1.86295 | 299° | 18km/h | 29054m | 5m/s | -44.4°C | 0% | 0hPa | 2.6V | 18:12:15 | 02:02:59 | 00:00:00 | |
| DL1XH-west | 2026-09-04 00:54:11 | 50.88797 | 1.86289 | 291° | 20km/h | 29059m | 4.5m/s | -44.4°C | 0% | 0hPa | 2.5V | 18:12:15 | 02:03:00 | 00:00:00 | |
| DL1XH-west | 2026-09-04 00:54:01 | 50.88781 | 1.86349 | 277° | 22km/h | 29004m | 5.7m/s | -44.3°C | 0% | 0hPa | 2.5V | 18:12:15 | 02:02:50 | 00:00:00 | |
| BIOWL1-15 | 2026-09-04 00:53:59 | 50.88779 | 1.86366 | 278° | 22km/h | 28993m | 4.2m/s | -44.3°C | 0% | 0hPa | 2.5V | 18:12:15 | 02:02:48 | 00:00:00 | |
| DL1XH-west | 2026-09-04 00:53:50 | 50.88773 | 1.86432 | 268° | 15km/h | 28944m | 6.5m/s | -44.5°C | 0% | 0hPa | 2.5V | 18:12:15 | 02:02:39 | 00:00:00 | |
| DL1XH1-15 | 2026-09-04 00:53:49 | 50.88784 | 1.86475 | 260° | 13km/h | 28912m | 5.6m/s | -44.8°C | 0% | 0hPa | 2.5V | 08:30:00 | 02:02:33 | 00:00:00 | |
| DB0UT-7 | 2026-09-04 00:53:45 | 50.88783 | 1.86469 | 246° | 9km/h | 28918m | 5.6m/s | -44.7°C | 2.4% | 0hPa | 2.5V | 00:00:00 | 02:02:34 | 08:30:00 | |
| BIOWL9-15 | 2026-09-04 00:53:41 | 50.88776 | 1.86514 | 293° | 15km/h | 28879m | 6.1m/s | -45.1°C | 0.4% | -1.0hPa | 2.5V | 00:00:00 | 00:00:00 | 00:00:00 | |
| DL1XH1-15 | 2026-09-04 00:53:39 | 50.88778 | 1.86524 | 221° | 9km/h | 28857m | 5.9m/s | 0°C | 0% | 0hPa | 2.5V | 00:00:00 | 02:02:23 | 00:00:00 | |
| DL1XH-west | 2026-09-04 00:53:39 | 50.88778 | 1.86507 | 291° | 20km/h | 28884m | 4.6m/s | -45°C | 0% | 0hPa | 2.5V | 18:12:15 | 02:02:28 | 00:00:00 | |
| BIOWL1-15 | 2026-09-04 00:53:33 | 50.88779 | 1.86527 | 233° | 13km/h | 28851m | 5.3m/s | -45.2°C | 0% | 0hPa | 2.6V | 18:12:15 | 02:02:22 | 00:00:00 | |
| DL1XH1-15 | 2026-09-04 00:53:29 | 50.88774 | 1.86562 | 306° | 7km/h | 28800m | 6.2m/s | 0°C | 0% | 0hPa | 2.5V | 00:00:00 | 02:02:13 | 00:00:00 | |
| DL1XH-west | 2026-09-04 00:53:28 | 50.88781 | 1.86548 | 307° | 9km/h | 28823m | 5.4m/s | -45.5°C | 0% | 0hPa | 2.6V | 18:12:15 | 02:02:17 | 00:00:00 | |
| BIOWL1-15 | 2026-09-04 00:53:28 | 50.88774 | 1.86564 | 188° | 2km/h | 28789m | 4.6m/s | -45.8°C | 0% | 0hPa | 2.6V | 18:12:15 | 02:02:11 | 00:00:00 | |
| AU51GT2 | 2026-09-04 00:53:24 | 50.88774 | 1.86564 | 313° | 2km/h | 28794m | 5.7m/s | -45.7°C | 0.5% | -1.0hPa | 2.5V | 00:00:00 | 00:00:00 | 00:00:00 | |
| DJ2DS-15 | 2026-09-04 00:53:23 | 50.88774 | 1.86564 | 313° | 2km/h | 28794m | 5.7m/s | -45.7°C | 0.5% | -1.0hPa | 2.5V | 00:00:00 | 00:00:00 | 00:00:00 | |
| DL1XH1-15 | 2026-09-04 00:53:19 | 50.88786 | 1.86590 | 264° | 11km/h | 28743m | 5.3m/s | 0°C | 0% | 0hPa | 2.5V | 00:00:00 | 02:02:03 | 00:00:00 | |
| DL1XH-west | 2026-09-04 00:53:18 | 50.88781 | 1.86574 | 229° | 16km/h | 28766m | 5m/s | -45.8°C | 0% | 0hPa | 2.6V | 18:12:15 | 02:02:07 | 00:00:00 | |
| DL1XH-west | 2026-09-04 00:53:07 | 50.88786 | 1.86621 | 252° | 7km/h | 28703m | 5m/s | -45.9°C | 0% | 0hPa | 2.5V | 18:12:15 | 02:01:56 | 00:00:00 | |
| DL1XH-west | 2026-09-04 00:52:57 | 50.88803 | 1.86648 | 223° | 5km/h | 28648m | 5.5m/s | -45.8°C | 0% | 0hPa | 2.5V | 18:12:15 | 02:01:46 | 00:00:00 | |
| BIOWL1-15 | 2026-09-04 00:52:52 | 50.88822 | 1.86659 | 226° | 16km/h | 28603m | 5.1m/s | -45.7°C | 0% | 0hPa | 2.5V | 18:12:15 | 02:01:38 | 00:00:00 | |
| DL1XH-west | 2026-09-04 00:52:47 | 50.88826 | 1.86667 | 234° | 9km/h | 28592m | 6.7m/s | 0°C | 0% | 0hPa | 2.5V | 18:12:15 | 02:01:36 | 00:00:00 | |
| BIOWL1-15 | 2026-09-04 00:52:38 | 50.88843 | 1.86687 | 264° | 5km/h | 28505m | 6.5m/s | -45.6°C | 0% | 0hPa | 2.5V | 18:12:15 | 02:01:21 | 00:00:00 | |
| DL1XH-west | 2026-09-04 00:52:37 | 50.88839 | 1.86678 | 178° | 7km/h | 28527m | 6.7m/s | 0°C | 0% | 0hPa | 2.6V | 18:12:15 | 02:01:25 | 00:00:00 | |
| BIOWL1-15 | 2026-09-04 00:52:27 | 50.88845 | 1.86699 | 244° | 11km/h | 28475m | 5.3m/s | -45.6°C | 0% | 0hPa | 2.5V | 18:12:15 | 02:01:16 | 00:00:00 | |
| DL1XH-west | 2026-09-04 00:52:26 | 50.88846 | 1.86703 | 239° | 11km/h | 28470m | 4.7m/s | 0°C | 0% | 0hPa | 2.6V | 18:12:15 | 02:01:15 | 00:00:00 | |
| BIOWL1-15 | 2026-09-04 00:52:16 | 50.88845 | 1.86716 | 228° | 7km/h | 28387m | 4.8m/s | -45.9°C | 0% | 0hPa | 2.5V | 18:12:15 | 02:01:01 | 00:00:00 | |
| BIOWL1-15 | 2026-09-04 00:52:01 | 50.88853 | 1.86696 | 261° | 4km/h | 28310m | 6.5m/s | -46.4°C | 0% | 0hPa | 2.5V | 18:12:15 | 02:00:48 | 00:00:00 | |
| BIOWL1-15 | 2026-09-04 00:51:48 | 50.88862 | 1.86678 | 75° | 5km/h | 28234m | 6.2m/s | -46.8°C | 0% | 0hPa | 2.6V | 18:12:15 | 02:00:35 | 00:00:00 | |
| DB0ND-19 | 2026-09-04 00:51:41 | 50.88857 | 1.86686 | 1° | 2km/h | 28199m | 5.0m/s | -47.0°C | 0.5% | -1.0hPa | 2.5V | 00:00:00 | 00:00:00 | 00:00:00 | |
| DO1YAY-16 | 2026-09-04 00:51:31 | 50.88877 | 1.86671 | 138° | 5km/h | 28147m | 6.0m/s | -47.3°C | 0.5% | -1.0hPa | 2.5V | 00:00:00 | 00:00:00 | 00:00:00 | |
| BIOWL1-15 | 2026-09-04 00:51:09 | 50.88891 | 1.86665 | 346° | 4km/h | 28004m | 4.7m/s | -47.7°C | 0% | 0hPa | 2.5V | 18:12:15 | 01:59:56 | 00:00:00 | |
| BIOWL1-15 | 2026-09-04 00:50:57 | 50.88870 | 1.86654 | 19° | 9km/h | 27945m | 5.6m/s | -47.7°C | 0% | 0hPa | 2.5V | 18:12:15 | 01:59:46 | 00:00:00 | |
| HTAHTA | 2026-09-04 00:50:52 | 50.88860 | 1.86656 | 358° | 9km/h | 27915m | 6.1m/s | -47.8°C | 0.5% | -1.0hPa | 2.6V | 00:00:00 | 00:00:00 | 00:00:00 | |
| AU51GT2 | 2026-09-04 00:50:49 | 50.88846 | 1.86651 | 12° | 11km/h | 27891m | 6.8m/s | -47.9°C | 0.5% | -1.0hPa | 2.6V | 00:00:00 | 00:00:00 | 00:00:00 | |
| BIOWL1-15 | 2026-09-04 00:50:46 | 50.88837 | 1.86656 | 266° | 5km/h | 27843m | 6.4m/s | -48.2°C | 0% | 0hPa | 2.6V | 18:12:15 | 01:59:29 | 00:00:00 | |
| BIOWL1-15 | 2026-09-04 00:50:30 | 50.88832 | 1.86669 | 229° | 4km/h | 27784m | 5.9m/s | -48.5°C | 0% | 0hPa | 2.6V | 18:12:15 | 01:59:19 | 00:00:00 | |
| BIOWL1-15 | 2026-09-04 00:50:22 | 50.88841 | 1.86690 | 297° | 11km/h | 27726m | 6.3m/s | -49°C | 0% | 0hPa | 2.6V | 18:12:15 | 01:59:09 | 00:00:00 | |
| BIOWL1-15 | 2026-09-04 00:50:08 | 50.88849 | 1.86721 | 224° | 7km/h | 27635m | 4.6m/s | -49.2°C | 0% | 0hPa | 2.5V | 18:12:15 | 01:58:53 | 00:00:00 | |
| BIOWL1-15 | 2026-09-04 00:49:52 | 50.88852 | 1.86731 | 194° | 5km/h | 27566m | 6.6m/s | -49.2°C | 0% | 0hPa | 2.5V | 18:12:15 | 01:58:41 | 00:00:00 | |
| DL1XH-west | 2026-09-04 00:49:50 | 50.88856 | 1.86731 | 167° | 9km/h | 27555m | 4.7m/s | -49.3°C | 0% | 0hPa | 2.6V | 18:12:15 | 01:58:39 | 00:00:00 | |
| AU51GT2 | 2026-09-04 00:49:47 | 50.88858 | 1.86724 | 51° | 4km/h | 27531m | 5.6m/s | -49.4°C | 0.6% | -1.0hPa | 2.6V | 00:00:00 | 00:00:00 | 00:00:00 | |
| BIOWL1-15 | 2026-09-04 00:49:41 | 50.88852 | 1.86727 | 344° | 11km/h | 27502m | 5.3m/s | -49.4°C | 0% | 0hPa | 2.6V | 18:12:15 | 01:58:30 | 00:00:00 | |
| DL1XH-west | 2026-09-04 00:49:36 | 50.88848 | 1.86732 | 173° | 5km/h | 27474m | 5.4m/s | -49.4°C | 0% | 0hPa | 2.6V | 18:12:15 | 01:58:25 | 00:00:00 | |
| BIOWL1-15 | 2026-09-04 00:49:31 | 50.88850 | 1.86726 | 172° | 2km/h | 27444m | 6.6m/s | -49.5°C | 0% | 0hPa | 2.6V | 18:12:15 | 01:58:20 | 00:00:00 | |
| DO1YAY-16 | 2026-09-04 00:49:27 | 50.88851 | 1.86729 | 356° | 4km/h | 27422m | 6.6m/s | -49.6°C | 0.6% | -1.0hPa | 2.6V | 00:00:00 | 00:00:00 | 00:00:00 | |
| DL1XH1-15 | 2026-09-04 00:49:26 | 50.88842 | 1.86721 | 35° | 9km/h | 27387m | 6.4m/s | 0°C | 0% | 0hPa | 2.6V | 00:00:00 | 01:58:10 | 00:00:00 | |
| DL1XH-west | 2026-09-04 00:49:23 | 50.88844 | 1.86724 | 47° | 7km/h | 27398m | 5.3m/s | -49.6°C | 0% | 0hPa | 2.5V | 18:12:15 | 01:58:12 | 00:00:00 | |
| BIOWL1-15 | 2026-09-04 00:49:23 | 50.88842 | 1.86721 | 35° | 9km/h | 27387m | 6.4m/s | -49.6°C | 0% | 0hPa | 2.6V | 18:12:15 | 01:58:10 | 00:00:00 | |
| DL1XH-west | 2026-09-04 00:49:13 | 50.88821 | 1.86732 | 332° | 16km/h | 27342m | 5.7m/s | -49.6°C | 0% | 0hPa | 2.5V | 18:12:15 | 01:58:02 | 00:00:00 | |
| BIOWL1-15 | 2026-09-04 00:49:12 | 50.88812 | 1.86737 | 355° | 7km/h | 27325m | 6.7m/s | -49.6°C | 0% | 0hPa | 2.6V | 18:12:15 | 01:57:59 | 00:00:00 | |
| DL1XH1-15 | 2026-09-04 00:49:11 | 50.88811 | 1.86736 | 58° | 2km/h | 27319m | 6m/s | 0°C | 0% | 0hPa | 2.5V | 00:00:00 | 01:57:58 | 00:00:00 | |
| DL1XH-west | 2026-09-04 00:49:03 | 50.88806 | 1.86736 | 305° | 13km/h | 27286m | 6.3m/s | -49.6°C | 0% | 0hPa | 2.5V | 18:12:15 | 01:57:52 | 00:00:00 | |
| DL1XH1-15 | 2026-09-04 00:49:01 | 50.88799 | 1.86759 | 311° | 16km/h | 27262m | 5.6m/s | 0°C | 0% | 0hPa | 2.5V | 00:00:00 | 01:57:48 | 00:00:00 | |
| BIOWL1-15 | 2026-09-04 00:48:57 | 50.88794 | 1.86767 | 313° | 13km/h | 27252m | 5.7m/s | -49.6°C | 0% | 0hPa | 2.5V | 18:12:15 | 01:57:46 | 00:00:00 | |
| DL1XH-west | 2026-09-04 00:48:52 | 50.88788 | 1.86776 | 6° | 9km/h | 27224m | 6.5m/s | -49.7°C | 0% | 0hPa | 2.5V | 18:12:15 | 01:57:41 | 00:00:00 | |
| BIOWL1-15 | 2026-09-04 00:48:47 | 50.88770 | 1.86786 | 317° | 20km/h | 27195m | 5.2m/s | -49.7°C | 0% | 0hPa | 2.5V | 18:12:15 | 01:57:36 | 00:00:00 | |
| DL1XH-west | 2026-09-04 00:48:42 | 50.88751 | 1.86810 | 310° | 15km/h | 27167m | 6.4m/s | -49.8°C | 0% | 0hPa | 2.5V | 18:12:15 | 01:57:31 | 00:00:00 | |
| BIOWL1-15 | 2026-09-04 00:48:37 | 50.88743 | 1.86820 | 338° | 9km/h | 27138m | 5m/s | -49.8°C | 0% | 0hPa | 2.5V | 18:12:15 | 01:57:26 | 00:00:00 | |
| DL1XH-west | 2026-09-04 00:48:32 | 50.88730 | 1.86845 | 316° | 24km/h | 27111m | 6.4m/s | 0°C | 0% | 0hPa | 2.5V | 18:12:15 | 01:57:21 | 00:00:00 | |
| BIOWL1-15 | 2026-09-04 00:48:26 | 50.88693 | 1.86900 | 285° | 18km/h | 27061m | 6.7m/s | -49.8°C | 0% | 0hPa | 2.5V | 18:12:15 | 01:57:12 | 00:00:00 | |
| DL1XH-west | 2026-09-04 00:48:22 | 50.88690 | 1.86911 | 301° | 15km/h | 27049m | 4.4m/s | 0°C | 0% | 0hPa | 2.6V | 18:12:15 | 01:57:10 | 00:00:00 | |
| DL1XH-west | 2026-09-04 00:48:10 | 50.88665 | 1.86996 | 282° | 24km/h | 26982m | 4.9m/s | 0°C | 0% | 0hPa | 2.5V | 18:12:15 | 01:56:58 | 00:00:00 | |
| BIOWL1-15 | 2026-09-04 00:48:03 | 50.88663 | 1.87037 | 259° | 18km/h | 26947m | 6.2m/s | -49.3°C | 0% | 0hPa | 2.5V | 18:12:15 | 01:56:52 | 00:00:00 | |
| DL1XH-west | 2026-09-04 00:47:59 | 50.88666 | 1.87069 | 273° | 18km/h | 26925m | 5.6m/s | 0°C | 0% | 0hPa | 2.5V | 18:12:15 | 01:56:48 | 00:00:00 | |
| BIOWL1-15 | 2026-09-04 00:47:51 | 50.88658 | 1.87160 | 251° | 22km/h | 26869m | 6m/s | -49.3°C | 0% | 0hPa | 2.5V | 18:12:15 | 01:56:38 | 00:00:00 | |
| BIOWL1-15 | 2026-09-04 00:47:38 | 50.88665 | 1.87262 | 270° | 18km/h | 26807m | 4.7m/s | -49.3°C | 0% | 0hPa | 2.5V | 18:12:15 | 01:56:27 | 00:00:00 | |
| BIOWL1-15 | 2026-09-04 00:47:27 | 50.88668 | 1.87379 | 264° | 27km/h | 26744m | 4.7m/s | -49.3°C | 0% | 0hPa | 2.5V | 18:12:15 | 01:56:16 | 00:00:00 | |
| BIOWL1-15 | 2026-09-04 00:47:19 | 50.88679 | 1.87471 | 264° | 22km/h | 26688m | 4.1m/s | -49.5°C | 0% | 0hPa | 2.5V | 18:12:15 | 01:56:06 | 00:00:00 | |
| BIOWL1-15 | 2026-09-04 00:47:07 | 50.88684 | 1.87547 | 283° | 22km/h | 26633m | 5.7m/s | -49.4°C | 0% | 0hPa | 2.5V | 18:12:15 | 01:55:56 | 00:00:00 | |
| BIOWL1-15 | 2026-09-04 00:46:57 | 50.88699 | 1.87611 | 238° | 13km/h | 26578m | 6.5m/s | -49.6°C | 0% | 0hPa | 2.5V | 18:12:15 | 01:55:46 | 00:00:00 | |
| BIOWL1-15 | 2026-09-04 00:46:46 | 50.88716 | 1.87659 | 240° | 11km/h | 26515m | 5.3m/s | -49.6°C | 0% | 0hPa | 2.6V | 18:12:15 | 01:55:35 | 00:00:00 | |
| BIOWL1-15 | 2026-09-04 00:46:38 | 50.88739 | 1.87676 | 207° | 7km/h | 26459m | 6m/s | -49.8°C | 0% | 0hPa | 2.6V | 18:12:15 | 01:55:25 | 00:00:00 | |
| BIOWL1-15 | 2026-09-04 00:46:27 | 50.88734 | 1.87682 | 312° | 4km/h | 26397m | 5.6m/s | -49.8°C | 0% | 0hPa | 2.6V | 18:12:15 | 01:55:14 | 00:00:00 | |
| BIOWL9-15 | 2026-09-04 00:46:26 | 50.88735 | 1.87681 | 352° | 0km/h | 26403m | 6.3m/s | -49.8°C | 0.6% | -1.0hPa | 2.5V | 00:00:00 | 00:00:00 | 00:00:00 | |
| BIOWL1-15 | 2026-09-04 00:46:15 | 50.88706 | 1.87718 | 302° | 13km/h | 26297m | 5.9m/s | -49.8°C | 0% | 0hPa | 2.5V | 18:12:15 | 01:54:56 | 00:00:00 | |
| BIOWL1-15 | 2026-09-04 00:46:03 | 50.88704 | 1.87752 | 254° | 11km/h | 26262m | 5.3m/s | -49.8°C | 0% | 0hPa | 2.6V | 18:12:15 | 01:54:50 | 00:00:00 | |
| BIOWL1-15 | 2026-09-04 00:45:50 | 50.88697 | 1.87793 | 260° | 18km/h | 26199m | 4.9m/s | -49.7°C | 0% | 0hPa | 2.6V | 18:12:15 | 01:54:39 | 00:00:00 | |
| BIOWL1-15 | 2026-09-04 00:45:41 | 50.88695 | 1.87852 | 289° | 18km/h | 26139m | 4.5m/s | -49.6°C | 0% | 0hPa | 2.5V | 18:12:15 | 01:54:28 | 00:00:00 | |
| AU51GT2 | 2026-09-04 00:45:38 | 50.88694 | 1.87860 | 277° | 20km/h | 26134m | 4.4m/s | -49.6°C | 0.6% | -1.0hPa | 2.6V | 00:00:00 | 00:00:00 | 00:00:00 | |
| DM0DOS-11 | 2026-09-04 00:45:29 | 50.88716 | 1.87945 | 264° | 16km/h | 26066m | 5.6m/s | -49.6°C | 3.2% | 0hPa | 2.6V | 08:30:00 | 01:54:15 | 00:00:00 | |
| BIOWL1-15 | 2026-09-04 00:45:28 | 50.88714 | 1.87934 | 243° | 13km/h | 26078m | 4.4m/s | -49.6°C | 0% | 0hPa | 2.5V | 18:12:15 | 01:54:17 | 00:00:00 | |
| BIOWL1-15 | 2026-09-04 00:45:19 | 50.88735 | 1.87988 | 212° | 13km/h | 26016m | 5.9m/s | -49.8°C | 0% | 0hPa | 2.5V | 18:12:15 | 01:54:06 | 00:00:00 | |
| DO1YAY-16 | 2026-09-04 00:45:19 | 50.88732 | 1.87985 | 221° | 13km/h | 26022m | 5.5m/s | -49.8°C | 0.7% | -1.0hPa | 2.6V | 00:00:00 | 00:00:00 | 00:00:00 | |
| BIOWL1-15 | 2026-09-04 00:45:00 | 50.88760 | 1.88049 | 199° | 15km/h | 25900m | 5m/s | -49.8°C | 0% | 0hPa | 2.6V | 18:12:15 | 01:53:45 | 00:00:00 | |
| DJ2DS-15 | 2026-09-04 00:44:58 | 50.88753 | 1.88041 | 237° | 15km/h | 25911m | 5.8m/s | -49.7°C | 0.6% | -1.0hPa | 2.6V | 00:00:00 | 00:00:00 | 00:00:00 | |
| DB0ND-19 | 2026-09-04 00:44:57 | 50.88767 | 1.88053 | 328° | 2km/h | 25874m | 4.6m/s | -49.8°C | -1.0% | -1.0hPa | 2.6V | 00:00:00 | 00:00:00 | 00:00:00 | |
| BIOWL9-15 | 2026-09-04 00:44:53 | 50.88769 | 1.88054 | 201° | 5km/h | 25857m | 4.4m/s | -49.8°C | 0.6% | -1.0hPa | 2.6V | 00:00:00 | 00:00:00 | 00:00:00 | |
| DM0DOS-11 | 2026-09-04 00:44:49 | 50.88772 | 1.88064 | 262° | 13km/h | 25841m | 6m/s | -50°C | 3.2% | 0hPa | 2.6V | 08:30:00 | 01:53:34 | 00:00:00 | |
| DO1YAY-16 | 2026-09-04 00:44:48 | 50.88770 | 1.88056 | 226° | 7km/h | 25853m | 4.8m/s | -49.9°C | 0.7% | -1.0hPa | 2.5V | 00:00:00 | 00:00:00 | 00:00:00 | |
| BIOWL1-15 | 2026-09-04 00:44:38 | 50.88785 | 1.88103 | 245° | 13km/h | 25803m | 5.8m/s | -50.1°C | 0% | 0hPa | 2.5V | 18:12:15 | 01:53:27 | 00:00:00 | |
| AU51GT2 | 2026-09-04 00:44:36 | 50.88785 | 1.88112 | 297° | 11km/h | 25792m | 5.6m/s | -50.2°C | 0.7% | -1.0hPa | 2.6V | 00:00:00 | 00:00:00 | 00:00:00 | |
| DM0DOS-11 | 2026-09-04 00:44:31 | 50.88775 | 1.88143 | 289° | 22km/h | 25757m | 4.5m/s | -50.1°C | 3.2% | 0hPa | 2.6V | 08:30:00 | 01:53:19 | 00:00:00 | |
| BIOWL1-15 | 2026-09-04 00:44:27 | 50.88773 | 1.88167 | 258° | 18km/h | 25740m | 5.7m/s | -50.2°C | 0% | 0hPa | 2.5V | 18:12:15 | 01:53:16 | 00:00:00 | |
| BIOWL1-15 | 2026-09-04 00:44:16 | 50.88777 | 1.88270 | 244° | 22km/h | 25666m | 4.6m/s | -50.6°C | 0% | 0hPa | 2.5V | 18:12:15 | 01:53:03 | 00:00:00 | |
| DM0DOS-11 | 2026-09-04 00:44:12 | 50.88786 | 1.88298 | 245° | 20km/h | 25643m | 5.4m/s | -50.6°C | 3.4% | 0hPa | 2.5V | 08:30:00 | 01:52:59 | 00:00:00 | |
| BIOWL1-15 | 2026-09-04 00:44:03 | 50.88810 | 1.88359 | 237° | 29km/h | 25603m | 6.2m/s | -50.8°C | 0% | 0hPa | 2.6V | 18:12:15 | 01:52:52 | 00:00:00 | |
| BIOWL1-15 | 2026-09-04 00:43:52 | 50.88871 | 1.88449 | 203° | 27km/h | 25521m | 5.8m/s | -50.4°C | 0% | 0hPa | 2.6V | 18:12:15 | 01:52:38 | 00:00:00 | |
| BIOWL9-15 | 2026-09-04 00:43:51 | 50.88866 | 1.88445 | 212° | 22km/h | 25528m | 6.8m/s | -50.4°C | 0.7% | -1.0hPa | 2.6V | 00:00:00 | 00:00:00 | 00:00:00 | |
| DJ2DS-15 | 2026-09-04 00:43:46 | 50.88890 | 1.88462 | 208° | 24km/h | 25505m | 6.3m/s | -50.3°C | 0.7% | -1.0hPa | 2.6V | 00:00:00 | 00:00:00 | 00:00:00 | |
| BIOWL1-15 | 2026-09-04 00:43:38 | 50.88963 | 1.88522 | 209° | 26km/h | 25425m | 5.6m/s | -50.7°C | 0% | 0hPa | 2.6V | 18:12:15 | 01:52:21 | 00:00:00 | |
| BIOWL1-15 | 2026-09-04 00:43:23 | 50.89034 | 1.88506 | 179° | 27km/h | 25357m | 5.1m/s | 0°C | 0% | 0hPa | 2.5V | 18:12:15 | 01:52:09 | 00:00:00 | |
| BIOWL1-15 | 2026-09-04 00:43:12 | 50.89107 | 1.88481 | 147° | 27km/h | 25290m | 7.1m/s | 0°C | 0% | 0hPa | 2.6V | 18:12:15 | 01:51:57 | 00:00:00 | |
| BIOWL1-15 | 2026-09-04 00:42:59 | 50.89164 | 1.88436 | 146° | 29km/h | 25233m | 5.1m/s | 0°C | 0% | 0hPa | 2.6V | 18:12:15 | 01:51:47 | 00:00:00 | |
| BIOWL1-15 | 2026-09-04 00:42:49 | 50.89210 | 1.88383 | 145° | 20km/h | 25181m | 5.6m/s | 0°C | 0% | 0hPa | 2.5V | 18:12:15 | 01:51:38 | 00:00:00 | |
| BIOWL9-15 | 2026-09-04 00:42:49 | 50.89214 | 1.88379 | 151° | 18km/h | 25175m | 5.1m/s | -50.4°C | 0.7% | -1.0hPa | 2.6V | 00:00:00 | 00:00:00 | 00:00:00 | |
| BIOWL1-15 | 2026-09-04 00:42:41 | 50.89254 | 1.88347 | 151° | 22km/h | 25122m | 5.3m/s | 0°C | 0% | 0hPa | 2.6V | 18:12:15 | 01:51:28 | 00:00:00 | |
| BIOWL1-15 | 2026-09-04 00:42:28 | 50.89287 | 1.88304 | 149° | 11km/h | 25057m | 5.2m/s | 0°C | 0% | 0hPa | 2.5V | 18:12:15 | 01:51:17 | 00:00:00 | |
| DB0UT-7 | 2026-09-04 00:42:17 | 50.89311 | 1.88267 | 104° | 13km/h | 24992m | 4.8m/s | -50.9°C | 3.4% | 0hPa | 2.6V | 00:00:00 | 01:51:06 | 00:00:00 | |
| DB0DAN | 2026-09-04 00:42:10 | 50.89330 | 1.88230 | 151° | 7km/h | 24953m | 5.5m/s | 0°C | 0% | 0hPa | 2.6V | 00:00:00 | 00:00:00 | 00:00:00 | |
| AU51GT2 | 2026-09-04 00:42:01 | 50.89348 | 1.88213 | 155° | 15km/h | 24902m | 5.2m/s | -51.1°C | 0.7% | -1.0hPa | 2.6V | 00:00:00 | 00:00:00 | 00:00:00 | |
| DB0DAN | 2026-09-04 00:41:55 | 50.89368 | 1.88203 | 164° | 13km/h | 24868m | 7.1m/s | 0°C | 0% | 0hPa | 2.6V | 00:00:00 | 00:00:00 | 00:00:00 | |
| BIOWL1-15 | 2026-09-04 00:41:49 | 50.89406 | 1.88196 | 174° | 22km/h | 24807m | 6.2m/s | 0°C | 0% | 0hPa | 2.5V | 18:12:15 | 01:50:33 | 00:00:00 | |
| BIOWL9-15 | 2026-09-04 00:41:47 | 50.89396 | 1.88196 | 188° | 20km/h | 24818m | 4.4m/s | -51.5°C | 0.8% | -1.0hPa | 2.5V | 00:00:00 | 00:00:00 | 00:00:00 | |
| BIOWL1-15 | 2026-09-04 00:41:34 | 50.89449 | 1.88184 | 175° | 22km/h | 24748m | 5.1m/s | 0°C | 0% | 0hPa | 2.5V | 18:12:15 | 01:50:23 | 00:00:00 | |
| BIOWL1-15 | 2026-09-04 00:41:21 | 50.89532 | 1.88128 | 147° | 20km/h | 24629m | 6.4m/s | 0°C | 0% | 0hPa | 2.5V | 18:12:15 | 01:50:02 | 00:00:00 | |
| BIOWL1-15 | 2026-09-04 00:41:15 | 50.89538 | 1.88119 | 127° | 15km/h | 24617m | 5.6m/s | 0°C | 0% | 0hPa | 2.7V | 18:12:15 | 01:50:00 | 00:00:00 | |
| DO1YAY-16 | 2026-09-04 00:41:10 | 50.89542 | 1.88111 | 114° | 7km/h | 24605m | 5.3m/s | -50.8°C | 0.7% | -1.0hPa | 2.5V | 00:00:00 | 00:00:00 | 00:00:00 | |
| AU51GT2 | 2026-09-04 00:40:59 | 50.89551 | 1.88079 | 118° | 13km/h | 24544m | 5.4m/s | -51.1°C | 0.7% | -1.0hPa | 2.5V | 00:00:00 | 00:00:00 | 00:00:00 | |
| BIOWL9-15 | 2026-09-04 00:40:45 | 50.89548 | 1.88008 | 104° | 13km/h | 24468m | 5.4m/s | -51.9°C | 0.7% | -1.0hPa | 2.5V | 00:00:00 | 00:00:00 | 00:00:00 | |
| DO1YAY-16 | 2026-09-04 00:40:39 | 50.89542 | 1.87982 | 48° | 18km/h | 24440m | 5.4m/s | -52.1°C | 0.7% | -1.0hPa | 2.5V | 00:00:00 | 00:00:00 | 00:00:00 | |
| DB0UT-7 | 2026-09-04 00:40:34 | 50.89520 | 1.87961 | 43° | 9km/h | 24413m | 5.8m/s | -52.1°C | 3.6% | 0hPa | 2.5V | 00:00:00 | 01:49:23 | 00:00:00 | |
| AU51GT2 | 2026-09-04 00:40:28 | 50.89515 | 1.87920 | 91° | 11km/h | 24372m | 4.8m/s | -52.1°C | 0.7% | -1.0hPa | 2.5V | 00:00:00 | 00:00:00 | 00:00:00 | |
| BIOWL9-15 | 2026-09-04 00:40:14 | 50.89507 | 1.87886 | 156° | 5km/h | 24296m | 6.3m/s | -52.2°C | 0.7% | -1.0hPa | 2.5V | 00:00:00 | 00:00:00 | 00:00:00 | |
| DO1YAY-16 | 2026-09-04 00:40:08 | 50.89512 | 1.87886 | 136° | 7km/h | 24268m | 5.6m/s | -52.2°C | 0.8% | -1.0hPa | 2.5V | 00:00:00 | 00:00:00 | 00:00:00 | |
| DB0UT-7 | 2026-09-04 00:40:04 | 50.89519 | 1.87876 | 134° | 22km/h | 24247m | 5.5m/s | -52.2°C | 3.6% | 0hPa | 2.5V | 00:00:00 | 00:00:00 | 00:00:00 | |
| AU51GT2 | 2026-09-04 00:39:57 | 50.89543 | 1.87843 | 141° | 15km/h | 24202m | 5.1m/s | -52.6°C | 0.8% | -1.0hPa | 2.5V | 00:00:00 | 00:00:00 | 00:00:00 | |
| BIOWL1-15 | 2026-09-04 00:39:48 | 50.89574 | 1.87758 | 85° | 16km/h | 24114m | 5.2m/s | 0°C | 0% | 0hPa | 2.5V | 18:12:15 | 01:48:29 | 00:00:00 | |
| BIOWL1-15 | 2026-09-04 00:39:40 | 50.89574 | 1.87744 | 98° | 18km/h | 24102m | 5.5m/s | 0°C | 0% | 0hPa | 2.7V | 18:12:15 | 01:48:27 | 00:00:00 | |
| DO1YAY-16 | 2026-09-04 00:39:37 | 50.89575 | 1.87737 | 101° | 18km/h | 24097m | 4.5m/s | -52.4°C | 0.8% | -1.0hPa | 2.5V | 00:00:00 | 00:00:00 | 00:00:00 | |
| DJ2DS-15 | 2026-09-04 00:39:33 | 50.89576 | 1.87708 | 95° | 18km/h | 24075m | 6.5m/s | -52.3°C | 0.8% | -1.0hPa | 2.5V | 00:00:00 | 00:00:00 | 00:00:00 | |
| AU51GT2 | 2026-09-04 00:39:26 | 50.89570 | 1.87642 | 81° | 18km/h | 24031m | 5.3m/s | -52.1°C | 0.8% | -1.0hPa | 2.5V | 00:00:00 | 00:00:00 | 00:00:00 | |
| DO1YAY-16 | 2026-09-04 00:39:06 | 50.89539 | 1.87484 | 47° | 18km/h | 23922m | 6.6m/s | -51.4°C | 0.7% | -1.0hPa | 2.5V | 00:00:00 | 00:00:00 | 00:00:00 | |
| DJ2DS-15 | 2026-09-04 00:38:58 | 50.89509 | 1.87430 | 60° | 29km/h | 23878m | 5.5m/s | -51.9°C | 0.8% | -1.0hPa | 2.5V | 00:00:00 | 00:00:00 | 00:00:00 | |
| AU51GT2 | 2026-09-04 00:38:55 | 50.89499 | 1.87399 | 66° | 24km/h | 23861m | 5.2m/s | -52.2°C | 0.7% | -1.0hPa | 2.5V | 00:00:00 | 00:00:00 | 00:00:00 | |
| DB0UT-7 | 2026-09-04 00:38:52 | 50.89493 | 1.87383 | 52° | 24km/h | 23850m | 6.1m/s | -52.1°C | 3.6% | 0hPa | 2.5V | 00:00:00 | 01:47:41 | 08:30:00 | |
| DO1YAY-16 | 2026-09-04 00:38:35 | 50.89401 | 1.87252 | 27° | 18km/h | 23748m | 5.7m/s | -52.0°C | 0.8% | -1.0hPa | 2.5V | 00:00:00 | 00:00:00 | 00:00:00 | |
| HTAHTA | 2026-09-04 00:38:27 | 50.89374 | 1.87213 | 36° | 20km/h | 23704m | 4.6m/s | -52.0°C | 0.8% | -1.0hPa | 2.5V | 00:00:00 | 00:00:00 | 00:00:00 | |
| AU51GT2 | 2026-09-04 00:38:24 | 50.89364 | 1.87201 | 36° | 13km/h | 23686m | 6.2m/s | -52.0°C | 0.7% | -1.0hPa | 2.5V | 00:00:00 | 00:00:00 | 00:00:00 | |
| DB0UT-7 | 2026-09-04 00:38:22 | 50.89361 | 1.87197 | 40° | 5km/h | 23680m | 5.2m/s | -52.0°C | 3.5% | 0hPa | 2.5V | 00:00:00 | 00:00:00 | 00:00:00 | |
| DO1YAY-16 | 2026-09-04 00:38:04 | 50.89361 | 1.87078 | 91° | 26km/h | 23575m | 4.7m/s | 0°C | -1.0% | -1.0hPa | 2.5V | 00:00:00 | 00:00:00 | 00:00:00 | |
| AU51GT2 | 2026-09-04 00:37:53 | 50.89354 | 1.87011 | 92° | 7km/h | 23516m | 5.8m/s | -52.3°C | 0.8% | -1.0hPa | 2.5V | 00:00:00 | 00:00:00 | 00:00:00 | |
| BIOWL1-15 | 2026-09-04 00:37:26 | 50.89355 | 1.86903 | 51° | 4km/h | 23380m | 5.7m/s | -52°C | 0.2% | 0hPa | 2.5V | 18:12:15 | 01:46:15 | 00:00:00 | |
| BIOWL1-15 | 2026-09-04 00:37:15 | 50.89352 | 1.86893 | 177° | 7km/h | 23293m | 4m/s | -52.1°C | 0.1% | 0hPa | 2.6V | 18:12:15 | 01:45:59 | 00:00:00 | |
| BIOWL1-15 | 2026-09-04 00:37:02 | 50.89375 | 1.86875 | 171° | 18km/h | 23226m | 4.3m/s | -52.3°C | 0.2% | 0hPa | 2.6V | 18:12:15 | 01:45:46 | 00:00:00 | |
| HTAHTA | 2026-09-04 00:36:54 | 50.89391 | 1.86861 | 145° | 13km/h | 23192m | 4.4m/s | -52.3°C | 0.8% | -1.0hPa | 2.6V | 00:00:00 | 00:00:00 | 00:00:00 | |
| BIOWL1-15 | 2026-09-04 00:36:52 | 50.89440 | 1.86793 | 140° | 15km/h | 23110m | 5.6m/s | -52.2°C | 0.1% | 0hPa | 2.6V | 18:12:15 | 01:45:23 | 00:00:00 | |
| AU51GT2 | 2026-09-04 00:36:50 | 50.89391 | 1.86861 | 145° | 13km/h | 23192m | 4.4m/s | -52.3°C | 0.8% | -1.0hPa | 2.7V | 00:00:00 | 00:00:00 | 00:00:00 | |
| BIOWL1-15 | 2026-09-04 00:36:40 | 50.89446 | 1.86789 | 175° | 11km/h | 23100m | 3.8m/s | -52.3°C | 0.1% | 0hPa | 2.7V | 18:12:15 | 01:45:21 | 00:00:00 | |
| DB0UT-7 | 2026-09-04 00:36:39 | 50.89429 | 1.86820 | 131° | 18km/h | 23135m | 4.9m/s | -52.1°C | 3.6% | 0hPa | 2.6V | 00:00:00 | 00:00:00 | 00:00:00 | |
| BIOWL9-15 | 2026-09-04 00:36:36 | 50.89435 | 1.86804 | 117° | 16km/h | 23119m | 4.7m/s | -52.1°C | 0.8% | -1.0hPa | 2.7V | 00:00:00 | 00:00:00 | 00:00:00 | |
| DJ2DS-15 | 2026-09-04 00:36:33 | 50.89443 | 1.86790 | 159° | 13km/h | 23104m | 5.3m/s | -52.2°C | 0.8% | -1.0hPa | 2.7V | 00:00:00 | 00:00:00 | 00:00:00 | |
| AU51GT2 | 2026-09-04 00:36:19 | 50.89466 | 1.86728 | 106° | 13km/h | 23033m | 4.3m/s | -52.4°C | 0.8% | -1.0hPa | 2.7V | 00:00:00 | 00:00:00 | 00:00:00 | |
| DO9LL-15 | 2026-09-04 00:36:16 | 50.89468 | 1.86712 | 104° | 13km/h | 23018m | 4.4m/s | -52.3°C | 3.6% | 0hPa | 2.7V | 00:00:00 | 01:45:05 | 00:00:00 | |
| DB0ND-19 | 2026-09-04 00:36:10 | 50.89486 | 1.86672 | 136° | 18km/h | 22950m | 6.3m/s | -52.5°C | 0.8% | -1.0hPa | 2.7V | 00:00:00 | 00:00:00 | 00:00:00 | |
| BIOWL9-15 | 2026-09-04 00:36:05 | 50.89532 | 1.86632 | 162° | 16km/h | 22877m | 5.2m/s | -52.4°C | 0.8% | -1.0hPa | 2.7V | 00:00:00 | 00:00:00 | 00:00:00 | |
| AU51GT2 | 2026-09-04 00:35:48 | 50.89537 | 1.86631 | 171° | 18km/h | 22872m | 4.7m/s | -52.5°C | 0.8% | -1.0hPa | 2.7V | 00:00:00 | 00:00:00 | 00:00:00 | |
| BIOWL1-15 | 2026-09-04 00:35:38 | 50.89584 | 1.86618 | 174° | 20km/h | 22809m | 4.5m/s | -52.6°C | 0.2% | 0hPa | 2.7V | 18:12:15 | 01:44:25 | 00:00:00 | |
| BIOWL1-15 | 2026-09-04 00:35:28 | 50.89626 | 1.86599 | 167° | 20km/h | 22766m | 6.2m/s | -52.6°C | 0.1% | 0hPa | 2.6V | 18:12:15 | 01:44:17 | 00:00:00 | |
| BIOWL1-15 | 2026-09-04 00:35:18 | 50.89719 | 1.86523 | 149° | 29km/h | 22687m | 5.9m/s | -53.2°C | 0.2% | 0hPa | 2.7V | 18:12:15 | 01:44:02 | 00:00:00 | |
| AU51GT2 | 2026-09-04 00:35:17 | 50.89691 | 1.86552 | 148° | 38km/h | 22708m | 4.9m/s | -52.9°C | 0.8% | -1.0hPa | 2.7V | 00:00:00 | 00:00:00 | 00:00:00 | |
| BIOWL1-15 | 2026-09-04 00:35:06 | 50.89798 | 1.86385 | 124° | 29km/h | 22611m | 6.3m/s | -53.6°C | 0.2% | 0hPa | 2.7V | 18:12:15 | 01:43:48 | 00:00:00 | |
| BIOWL1-15 | 2026-09-04 00:34:48 | 50.89837 | 1.86264 | 117° | 27km/h | 22552m | 6.5m/s | -54°C | 0.3% | 0hPa | 2.6V | 18:12:15 | 01:43:37 | 00:00:00 | |
| AU51GT2 | 2026-09-04 00:34:46 | 50.89843 | 1.86247 | 122° | 24km/h | 22541m | 6.0m/s | -54.0°C | 0.9% | -1.0hPa | 2.6V | 00:00:00 | 00:00:00 | 00:00:00 | |
| BIOWL1-15 | 2026-09-04 00:34:38 | 50.89857 | 1.86149 | 90° | 29km/h | 22492m | 5.9m/s | -53.8°C | 0.2% | 0hPa | 2.6V | 18:12:15 | 01:43:26 | 00:00:00 | |
| BIOWL1-15 | 2026-09-04 00:34:28 | 50.89857 | 1.86064 | 76° | 18km/h | 22438m | 5.6m/s | -54.5°C | 0.4% | 0hPa | 2.6V | 18:12:15 | 01:43:16 | 00:00:00 | |
| BIOWL1-15 | 2026-09-04 00:34:17 | 50.89839 | 1.85958 | 58° | 15km/h | 22373m | 6.1m/s | -54.6°C | 0.4% | 0hPa | 2.6V | 18:12:15 | 01:43:04 | 00:00:00 | |
| BIOWL1-15 | 2026-09-04 00:34:06 | 50.89801 | 1.85895 | 55° | 26km/h | 22324m | 5.5m/s | -54.6°C | 0.3% | 0hPa | 2.5V | 18:12:15 | 01:42:55 | 00:00:00 | |
| BIOWL1-15 | 2026-09-04 00:33:55 | 50.89757 | 1.85846 | 37° | 18km/h | 22266m | 5.4m/s | -54.4°C | 0.4% | 0hPa | 2.5V | 18:12:15 | 01:42:44 | 00:00:00 | |
| BIOWL1-15 | 2026-09-04 00:33:45 | 50.89727 | 1.85804 | 359° | 13km/h | 22212m | 5m/s | -54.4°C | 0.3% | 0hPa | 2.7V | 18:12:15 | 01:42:34 | 00:00:00 | |
| BIOWL1-15 | 2026-09-04 00:33:34 | 50.89716 | 1.85747 | 115° | 7km/h | 22140m | 5.5m/s | -54.8°C | 0.4% | 0hPa | 2.5V | 18:12:15 | 01:42:21 | 00:00:00 | |
| BIOWL1-15 | 2026-09-04 00:33:22 | 50.89717 | 1.85703 | 84° | 18km/h | 22086m | 5.2m/s | -55.2°C | 0.5% | 0hPa | 2.5V | 18:12:15 | 01:42:11 | 00:00:00 | |
| BIOWL1-15 | 2026-09-04 00:33:12 | 50.89722 | 1.85602 | 99° | 22km/h | 22026m | 4.9m/s | -55.1°C | 0.5% | 0hPa | 2.7V | 18:12:15 | 01:42:00 | 00:00:00 | |
| BIOWL1-15 | 2026-09-04 00:33:01 | 50.89725 | 1.85453 | 98° | 26km/h | 21927m | 5.6m/s | -54.8°C | 0.4% | 0hPa | 2.6V | 18:12:15 | 01:41:42 | 00:00:00 | |
| BIOWL1-15 | 2026-09-04 00:32:43 | 50.89718 | 1.85393 | 88° | 15km/h | 21859m | 5.1m/s | -54.4°C | 0.4% | 0hPa | 2.7V | 18:12:15 | 01:41:29 | 00:00:00 | |
| BIOWL1-15 | 2026-09-04 00:32:32 | 50.89724 | 1.85346 | 109° | 7km/h | 21817m | 5.9m/s | -54.2°C | 0.4% | 0hPa | 2.5V | 18:12:15 | 01:41:21 | 00:00:00 | |
| BIOWL1-15 | 2026-09-04 00:32:22 | 50.89731 | 1.85284 | 110° | 16km/h | 21751m | 6.4m/s | -54°C | 0.3% | 0hPa | 2.6V | 18:12:15 | 01:41:09 | 00:00:00 | |
| BIOWL1-15 | 2026-09-04 00:32:12 | 50.89738 | 1.85205 | 92° | 31km/h | 21691m | 5.3m/s | -54°C | 0.4% | 0hPa | 2.6V | 18:12:15 | 01:40:58 | 00:00:00 | |
| BIOWL1-15 | 2026-09-04 00:32:01 | 50.89742 | 1.85128 | 105° | 22km/h | 21646m | 4.5m/s | -54°C | 0.4% | 0hPa | 2.7V | 18:12:15 | 01:40:50 | 00:00:00 | |
| BIOWL1-15 | 2026-09-04 00:31:51 | 50.89747 | 1.85012 | 83° | 24km/h | 21592m | 5m/s | -53.7°C | 0.3% | 0hPa | 2.7V | 18:12:15 | 01:40:40 | 00:00:00 | |
| BIOWL1-15 | 2026-09-04 00:31:41 | 50.89750 | 1.84913 | 107° | 29km/h | 21539m | 4.6m/s | -53.9°C | 0.3% | 0hPa | 2.7V | 18:12:15 | 01:40:30 | 00:00:00 | |
| BIOWL1-15 | 2026-09-04 00:31:33 | 50.89743 | 1.84790 | 70° | 26km/h | 21486m | 5.7m/s | -53.7°C | 0.3% | 0hPa | 2.5V | 18:12:15 | 01:40:20 | 00:00:00 | |
| DB0UT-7 | 2026-09-04 00:31:31 | 50.89743 | 1.84790 | 70° | 20km/h | 21486m | 5.6m/s | -53.7°C | 3.9% | 0hPa | 2.5V | 00:00:00 | 00:00:00 | 08:30:00 | |
| BIOWL1-15 | 2026-09-04 00:31:21 | 50.89715 | 1.84608 | 57° | 15km/h | 21366m | 6m/s | -53.6°C | 0.2% | 0hPa | 2.6V | 18:12:15 | 01:39:58 | 00:00:00 | |
| HTAHTA | 2026-09-04 00:31:12 | 50.89717 | 1.84613 | 63° | 16km/h | 21372m | 5.2m/s | -53.6°C | 0.9% | -1.0hPa | 2.6V | 00:00:00 | 00:00:00 | 00:00:00 | |
| AU51GT2 | 2026-09-04 00:31:09 | 50.89715 | 1.84608 | 56° | 15km/h | 21366m | 6.0m/s | -53.6°C | 0.9% | -1.0hPa | 2.6V | 00:00:00 | 00:00:00 | 00:00:00 | |
| BIOWL1-15 | 2026-09-04 00:30:58 | 50.89701 | 1.84481 | 58° | 16km/h | 21274m | 5.5m/s | -54.7°C | 0.4% | 0hPa | 2.6V | 18:12:15 | 01:39:40 | 00:00:00 | |
| BIOWL1-15 | 2026-09-04 00:30:46 | 50.89690 | 1.84440 | 79° | 26km/h | 21249m | 5.6m/s | -54.6°C | 0.4% | 0hPa | 2.6V | 18:12:15 | 01:39:35 | 00:00:00 | |
| BIOWL1-15 | 2026-09-04 00:30:36 | 50.89688 | 1.84371 | 83° | 20km/h | 21196m | 5m/s | -54.8°C | 0.4% | 0hPa | 2.6V | 18:12:15 | 01:39:25 | 00:00:00 | |
| BIOWL1-15 | 2026-09-04 00:30:26 | 50.89686 | 1.84215 | 84° | 27km/h | 21097m | 6m/s | -54.5°C | 0.4% | 0hPa | 2.7V | 18:12:15 | 01:39:06 | 00:00:00 | |
| BIOWL1-15 | 2026-09-04 00:30:14 | 50.89683 | 1.84185 | 87° | 26km/h | 21082m | 6.2m/s | -54.6°C | 0.4% | 0hPa | 2.6V | 18:12:15 | 01:39:03 | 00:00:00 | |
| BIOWL1-15 | 2026-09-04 00:30:04 | 50.89692 | 1.84094 | 77° | 27km/h | 21031m | 4.2m/s | -54.8°C | 0.4% | 0hPa | 2.6V | 18:12:15 | 01:38:53 | 00:00:00 | |
| BIOWL1-15 | 2026-09-04 00:29:53 | 50.89702 | 1.83973 | 105° | 24km/h | 20961m | 4.3m/s | -54.6°C | 0.4% | 0hPa | 2.6V | 18:12:15 | 01:38:40 | 00:00:00 | |
| BIOWL9-15 | 2026-09-04 00:29:52 | 50.89700 | 1.83981 | 117° | 24km/h | 20967m | 5.7m/s | -54.7°C | 1.0% | -1.0hPa | 2.6V | 00:00:00 | 00:00:00 | 00:00:00 | |
| BIOWL1-15 | 2026-09-04 00:29:43 | 50.89704 | 1.83883 | 118° | 22km/h | 20910m | 5.2m/s | -54.5°C | 0.3% | 0hPa | 2.6V | 18:12:15 | 01:38:30 | 00:00:00 | |
| BIOWL1-15 | 2026-09-04 00:29:33 | 50.89720 | 1.83813 | 108° | 26km/h | 20867m | 6.5m/s | -54.9°C | 0.4% | 0hPa | 2.7V | 18:12:15 | 01:38:22 | 00:00:00 | |
| BIOWL1-15 | 2026-09-04 00:29:23 | 50.89739 | 1.83709 | 93° | 29km/h | 20814m | 4m/s | -54.8°C | 0.4% | 0hPa | 2.7V | 18:12:15 | 01:38:12 | 00:00:00 | |
| BIOWL1-15 | 2026-09-04 00:29:14 | 50.89753 | 1.83615 | 104° | 18km/h | 20757m | 4.3m/s | -55°C | 0.4% | 0hPa | 2.6V | 18:12:15 | 01:38:01 | 00:00:00 | |
| BIOWL1-15 | 2026-09-04 00:29:02 | 50.89744 | 1.83539 | 81° | 16km/h | 20701m | 5.7m/s | -54.9°C | 0.4% | 0hPa | 2.7V | 18:12:15 | 01:37:50 | 00:00:00 | |
| BIOWL1-15 | 2026-09-04 00:28:50 | 50.89754 | 1.83480 | 100° | 15km/h | 20644m | 5.2m/s | -54.9°C | 0.4% | 0hPa | 2.7V | 18:12:15 | 01:37:39 | 00:00:00 | |
| BIOWL1-15 | 2026-09-04 00:28:32 | 50.89763 | 1.83358 | 112° | 22km/h | 20552m | 4.5m/s | -54.6°C | 0.4% | 0hPa | 2.7V | 18:12:15 | 01:37:21 | 00:00:00 | |
| BIOWL1-15 | 2026-09-04 00:28:22 | 50.89785 | 1.83234 | 102° | 27km/h | 20485m | 4.3m/s | -54.6°C | 0.4% | 0hPa | 2.6V | 18:12:15 | 01:37:08 | 00:00:00 | |
| BIOWL1-15 | 2026-09-04 00:28:09 | 50.89795 | 1.83051 | 93° | 27km/h | 20407m | 4.5m/s | -54.5°C | 0.5% | 0hPa | 2.6V | 18:12:15 | 01:36:53 | 00:00:00 | |
| DJ2DS-15 | 2026-09-04 00:28:08 | 50.89796 | 1.83097 | 83° | 31km/h | 20427m | 4.9m/s | -54.6°C | 1.0% | -1.0hPa | 2.7V | 00:00:00 | 00:00:00 | 00:00:00 | |
| DB0UT-7 | 2026-09-04 00:28:06 | 50.89795 | 1.83073 | 87° | 35km/h | 20417m | 5.8m/s | -54.5°C | 4.1% | 0hPa | 2.7V | 00:00:00 | 00:00:00 | 00:00:00 | |
| AU51GT2 | 2026-09-04 00:28:03 | 50.89795 | 1.83031 | 87° | 22km/h | 20396m | 5.4m/s | -54.5°C | 1.0% | -1.0hPa | 2.7V | 00:00:00 | 00:00:00 | 00:00:00 | |
| DO9LL-15 | 2026-09-04 00:28:00 | 50.89795 | 1.83013 | 93° | 27km/h | 20386m | 5.9m/s | -54.4°C | 4.0% | 0hPa | 2.7V | 00:00:00 | 01:36:49 | 08:30:00 | |
| DM0DOS-11 | 2026-09-04 00:27:49 | 50.89792 | 1.82844 | 93° | 18km/h | 20302m | 5m/s | -54.2°C | 3.9% | 0hPa | 2.6V | 08:30:00 | 01:36:32 | 00:00:00 | |
| AU51GT2 | 2026-09-04 00:27:32 | 50.89808 | 1.82735 | 101° | 15km/h | 20244m | 5.3m/s | -54.2°C | 1.0% | -1.0hPa | 2.7V | 00:00:00 | 00:00:00 | 00:00:00 | |
| DM0DOS-11 | 2026-09-04 00:27:21 | 50.89837 | 1.82606 | 101° | 27km/h | 20169m | 5.9m/s | -54.2°C | 4% | 0hPa | 2.7V | 08:30:00 | 01:36:05 | 00:00:00 | |
| BIOWL1-15 | 2026-09-04 00:27:17 | 50.89835 | 1.82616 | 104° | 26km/h | 20174m | 5.4m/s | -54.3°C | 0.3% | 0hPa | 2.7V | 18:12:15 | 01:36:06 | 00:00:00 | |
| BIOWL9-15 | 2026-09-04 00:27:17 | 50.89835 | 1.82616 | 103° | 26km/h | 20174m | 5.4m/s | -54.3°C | 0.9% | -1.0hPa | 2.7V | 00:00:00 | 00:00:00 | 00:00:00 | |
| DM0DOS-11 | 2026-09-04 00:27:10 | 50.89860 | 1.82464 | 104° | 37km/h | 20118m | 4.9m/s | -54.2°C | 3.8% | 0hPa | 2.7V | 08:30:00 | 01:35:55 | 00:00:00 | |
| BIOWL1-15 | 2026-09-04 00:27:06 | 50.89866 | 1.82425 | 99° | 31km/h | 20104m | 5.2m/s | -54.2°C | 0.2% | 0hPa | 2.6V | 18:12:15 | 01:35:52 | 00:00:00 | |
| BIOWL1-15 | 2026-09-04 00:26:52 | 50.89880 | 1.82267 | 88° | 38km/h | 20050m | 4.2m/s | -55°C | 0.3% | 0hPa | 2.6V | 18:12:15 | 01:35:41 | 00:00:00 | |
| DM0DOS-11 | 2026-09-04 00:26:50 | 50.89882 | 1.82205 | 98° | 42km/h | 20031m | 4.5m/s | -55.4°C | 4.1% | 0hPa | 2.6V | 08:30:00 | 01:35:37 | 00:00:00 | |
| BIOWL9-15 | 2026-09-04 00:26:46 | 50.89884 | 1.82170 | 89° | 46km/h | 20020m | 5.0m/s | -55.7°C | 1.0% | -1.0hPa | 2.6V | 00:00:00 | 00:00:00 | 00:00:00 | |
| BIOWL1-15 | 2026-09-04 00:26:42 | 50.89868 | 1.81985 | 78° | 51km/h | 19975m | 4.4m/s | -55.9°C | 0.5% | 0hPa | 2.6V | 18:12:15 | 01:35:26 | 00:00:00 | |
| DM0DOS-11 | 2026-09-04 00:26:37 | 50.89862 | 1.81945 | 74° | 53km/h | 19964m | 5m/s | -55.9°C | 4.3% | 0hPa | 2.6V | 08:30:00 | 01:35:24 | 00:00:00 | |
| BIOWL1-15 | 2026-09-04 00:26:33 | 50.89815 | 1.81674 | 73° | 47km/h | 19897m | 5.9m/s | -55.7°C | 0.5% | 0hPa | 2.6V | 18:12:15 | 01:35:11 | 00:00:00 | |
| BIOWL1-15 | 2026-09-04 00:26:22 | 50.89808 | 1.81637 | 73° | 49km/h | 19888m | 4.7m/s | -55.6°C | 0.5% | 0hPa | 2.6V | 18:12:15 | 01:35:09 | 00:00:00 | |
| DM0DOS-11 | 2026-09-04 00:26:17 | 50.89790 | 1.81543 | 80° | 49km/h | 19863m | 4.7m/s | -55.5°C | 4.2% | 0hPa | 2.6V | 08:30:00 | 01:35:04 | 00:00:00 | |
| BIOWL1-15 | 2026-09-04 00:26:10 | 50.89777 | 1.81447 | 76° | 46km/h | 19839m | 5.7m/s | -55.4°C | 0.5% | 0hPa | 2.6V | 18:12:15 | 01:34:59 | 00:00:00 | |
| BIOWL1-15 | 2026-09-04 00:26:00 | 50.89741 | 1.81243 | 82° | 38km/h | 19773m | 4.8m/s | -55.1°C | 0.4% | 0hPa | 2.6V | 18:12:15 | 01:34:46 | 00:00:00 | |
| AU51GT2 | 2026-09-04 00:25:59 | 50.89743 | 1.81258 | 78° | 38km/h | 19778m | 6.1m/s | -55.1°C | 1.0% | -1.0hPa | 2.7V | 00:00:00 | 00:00:00 | 00:00:00 | |
| DM0DOS-11 | 2026-09-04 00:25:57 | 50.89738 | 1.81214 | 78° | 33km/h | 19763m | 5.1m/s | -55°C | 4.1% | 0hPa | 2.7V | 08:30:00 | 01:34:44 | 00:00:00 | |
| BIOWL1-15 | 2026-09-04 00:25:50 | 50.89733 | 1.81149 | 84° | 33km/h | 19738m | 5.4m/s | -54.9°C | 0.4% | 0hPa | 2.7V | 18:12:15 | 01:34:39 | 00:00:00 | |
| DM0DOS-11 | 2026-09-04 00:25:50 | 50.89726 | 1.81088 | 83° | 29km/h | 19712m | 4.4m/s | -55°C | 4% | 0hPa | 2.7V | 08:30:00 | 01:34:34 | 00:00:00 | |
| BIOWL1-15 | 2026-09-04 00:25:40 | 50.89732 | 1.80994 | 98° | 29km/h | 19670m | 5.4m/s | -55.5°C | 0.4% | 0hPa | 2.6V | 18:12:15 | 01:34:26 | 00:00:00 | |
| DM0DOS-11 | 2026-09-04 00:25:37 | 50.89733 | 1.80972 | 90° | 29km/h | 19661m | 4.4m/s | -55.6°C | 4.2% | 0hPa | 2.7V | 08:30:00 | 01:34:24 | 00:00:00 | |
| DM0DOS-11 | 2026-09-04 00:25:30 | 50.89760 | 1.80865 | 122° | 37km/h | 19610m | 5.3m/s | -55.8°C | 4.2% | 0hPa | 2.6V | 08:30:00 | 01:34:14 | 00:00:00 | |
| BIOWL1-15 | 2026-09-04 00:25:27 | 50.89760 | 1.80865 | 123° | 37km/h | 19610m | 5.4m/s | -55.8°C | 0.4% | 0hPa | 2.6V | 18:12:15 | 01:34:14 | 00:00:00 | |
| BIOWL1-15 | 2026-09-04 00:25:18 | 50.89801 | 1.80708 | 100° | 33km/h | 19543m | 4.6m/s | -56.1°C | 0.5% | 0hPa | 2.7V | 18:12:15 | 01:34:01 | 00:00:00 | |
| DM0DOS-11 | 2026-09-04 00:25:17 | 50.89796 | 1.80746 | 108° | 33km/h | 19558m | 4.6m/s | -56°C | 4.2% | 0hPa | 2.6V | 08:30:00 | 01:34:04 | 00:00:00 | |
| DO9LL-15 | 2026-09-04 00:25:17 | 50.89790 | 1.80769 | 111° | 42km/h | 19569m | 4.5m/s | -55.9°C | 4.2% | 0hPa | 2.6V | 00:00:00 | 01:34:06 | 00:00:00 | |
| BIOWL9-15 | 2026-09-04 00:25:13 | 50.89801 | 1.80708 | 99° | 31km/h | 19543m | 4.6m/s | -56.1°C | 1.0% | -1.0hPa | 2.6V | 00:00:00 | 00:00:00 | 00:00:00 | |
| DB0UT-7 | 2026-09-04 00:25:11 | 50.89803 | 1.80695 | 103° | 40km/h | 19538m | 5.7m/s | -56.1°C | 4.3% | 0hPa | 2.6V | 00:00:00 | 01:34:00 | 00:00:00 | |
| DM0DOS-11 | 2026-09-04 00:25:10 | 50.89815 | 1.80619 | 104° | 37km/h | 19506m | 4.7m/s | -56.6°C | 4.5% | 0hPa | 2.6V | 08:30:00 | 01:33:54 | 00:00:00 | |
| BIOWL1-15 | 2026-09-04 00:25:04 | 50.89819 | 1.80589 | 99° | 38km/h | 19496m | 6m/s | -56.7°C | 0.6% | 0hPa | 2.7V | 18:12:15 | 01:33:52 | 00:00:00 | |
| HTAHTA | 2026-09-04 00:24:59 | 50.89823 | 1.80520 | 90° | 46km/h | 19475m | 5.0m/s | -56.6°C | 1.1% | -1.0hPa | 2.6V | 00:00:00 | 00:00:00 | 00:00:00 | |
| DM0DOS-11 | 2026-09-04 00:24:57 | 50.89820 | 1.80443 | 88° | 49km/h | 19453m | 4.8m/s | -56.5°C | 4.5% | 0hPa | 2.6V | 08:30:00 | 01:33:44 | 00:00:00 | |
| BIOWL1-15 | 2026-09-04 00:24:53 | 50.89819 | 1.80368 | 88° | 44km/h | 19432m | 4.6m/s | -56.4°C | 0.6% | 0hPa | 2.7V | 18:12:15 | 01:33:40 | 00:00:00 | |
| DM0DOS-11 | 2026-09-04 00:24:52 | 50.89819 | 1.80271 | 84° | 38km/h | 19401m | 4.6m/s | -56.1°C | 4.3% | 0hPa | 2.7V | 08:30:00 | 01:33:34 | 00:00:00 | |
| BIOWL1-15 | 2026-09-04 00:24:41 | 50.89808 | 1.80117 | 79° | 31km/h | 19349m | 5.9m/s | 0°C | 0% | 0hPa | 2.7V | 18:12:15 | 01:33:24 | 00:00:00 | |
| DM0DOS-11 | 2026-09-04 00:24:37 | 50.89808 | 1.80117 | 78° | 31km/h | 19349m | 5.9m/s | -55.7°C | 4.3% | 0hPa | 2.7V | 08:30:00 | 01:33:24 | 00:00:00 | |
| DM0DOS-11 | 2026-09-04 00:24:30 | 50.89794 | 1.79973 | 91° | 37km/h | 19299m | 4.3m/s | -55.9°C | 4.2% | 0hPa | 2.7V | 08:30:00 | 01:33:14 | 00:00:00 | |
| BIOWL1-15 | 2026-09-04 00:24:27 | 50.89794 | 1.79973 | 92° | 37km/h | 19299m | 4.3m/s | 0°C | 0% | 0hPa | 2.7V | 18:12:15 | 01:33:14 | 00:00:00 | |
| BIOWL1-15 | 2026-09-04 00:24:16 | 50.89773 | 1.79879 | 53° | 31km/h | 19251m | 4.7m/s | 0°C | 0% | 0hPa | 2.6V | 18:12:15 | 01:33:05 | 00:00:00 | |
| DO9LL-15 | 2026-09-04 00:24:15 | 50.89769 | 1.79868 | 61° | 27km/h | 19246m | 5.9m/s | 0°C | 0% | 0hPa | 2.7V | 00:00:00 | 01:33:04 | 00:00:00 | |
| DM0DOS-11 | 2026-09-04 00:24:11 | 50.89742 | 1.79757 | 55° | 27km/h | 19196m | 5.7m/s | -56°C | 4.4% | 0hPa | 2.7V | 08:30:00 | 01:32:54 | 00:00:00 | |
| BIOWL1-15 | 2026-09-04 00:24:07 | 50.89724 | 1.79710 | 68° | 29km/h | 19170m | 5.8m/s | 0°C | 0% | 0hPa | 2.6V | 18:12:15 | 01:32:49 | 00:00:00 | |
| BIOWL1-15 | 2026-09-04 00:24:00 | 50.89714 | 1.79665 | 65° | 26km/h | 19149m | 4.8m/s | 0°C | 0% | 0hPa | 2.6V | 18:12:15 | 01:32:45 | 00:00:00 | |
| DM0DOS-11 | 2026-09-04 00:23:57 | 50.89711 | 1.79656 | 60° | 27km/h | 19144m | 4.5m/s | -55.9°C | 4.3% | 0hPa | 2.6V | 08:30:00 | 01:32:44 | 00:00:00 | |
| AU51GT2 | 2026-09-04 00:23:55 | 50.89708 | 1.79646 | 59° | 29km/h | 19139m | 6.4m/s | -55.9°C | 1.1% | -1.0hPa | 2.6V | 00:00:00 | 00:00:00 | 00:00:00 | |
| DM0DOS-11 | 2026-09-04 00:23:50 | 50.89687 | 1.79573 | 67° | 20km/h | 19094m | 5.1m/s | -55.6°C | 4.3% | 0hPa | 2.6V | 08:30:00 | 01:32:34 | 00:00:00 | |
| DO9LL-15 | 2026-09-04 00:23:45 | 50.89687 | 1.79573 | 68° | 24km/h | 19094m | 5.1m/s | 0°C | 0% | 0hPa | 2.6V | 00:00:00 | 01:32:34 | 00:00:00 | |
| DM0DOS-11 | 2026-09-04 00:23:37 | 50.89677 | 1.79499 | 103° | 24km/h | 19047m | 4.4m/s | -55.4°C | 4.2% | 0hPa | 2.6V | 08:30:00 | 01:32:24 | 00:00:00 | |
| DB0UT-7 | 2026-09-04 00:23:37 | 50.89675 | 1.79513 | 103° | 26km/h | 19057m | 4.4m/s | -55.4°C | 4.3% | 0hPa | 2.7V | 00:00:00 | 01:32:26 | 08:30:00 | |
| DM0DOS-11 | 2026-09-04 00:23:31 | 50.89679 | 1.79405 | 99° | 22km/h | 18999m | 5.6m/s | -55.1°C | 4.2% | 0hPa | 2.6V | 08:30:00 | 01:32:14 | 00:00:00 | |
| AU51GT2 | 2026-09-04 00:23:23 | 50.89683 | 1.79387 | 112° | 26km/h | 18990m | 4.5m/s | -55.1°C | 1.0% | -1.0hPa | 2.6V | 00:00:00 | 00:00:00 | 00:00:00 | |
| DM0DOS-11 | 2026-09-04 00:23:17 | 50.89696 | 1.79302 | 101° | 27km/h | 18950m | 4.2m/s | -55°C | 4% | 0hPa | 2.6V | 08:30:00 | 01:32:04 | 00:00:00 | |
| DO9LL-15 | 2026-09-04 00:23:15 | 50.89696 | 1.79302 | 102° | 33km/h | 18950m | 4.1m/s | 0°C | 0% | 0hPa | 2.6V | 00:00:00 | 01:32:04 | 00:00:00 | |
| DM0DOS-11 | 2026-09-04 00:23:11 | 50.89726 | 1.79209 | 107° | 29km/h | 18902m | 5m/s | -55°C | 4.1% | 0hPa | 2.6V | 08:30:00 | 01:31:54 | 00:00:00 | |
| DB0UT-7 | 2026-09-04 00:23:07 | 50.89720 | 1.79230 | 119° | 44km/h | 18913m | 3.9m/s | -54.9°C | 4.0% | 0hPa | 2.6V | 00:00:00 | 00:00:00 | 00:00:00 | |
| DM0DOS-11 | 2026-09-04 00:22:57 | 50.89757 | 1.79099 | 122° | 33km/h | 18855m | 5.1m/s | -55.4°C | 4.1% | 0hPa | 2.6V | 08:30:00 | 01:31:44 | 00:00:00 | |
| AU51GT2 | 2026-09-04 00:22:53 | 50.89769 | 1.79056 | 109° | 46km/h | 18840m | 4.6m/s | -55.4°C | 1.1% | -1.0hPa | 2.6V | 00:00:00 | 00:00:00 | 00:00:00 | |
| DM0DOS-11 | 2026-09-04 00:22:50 | 50.89795 | 1.78933 | 106° | 42km/h | 18806m | 5.3m/s | -55.3°C | 4.1% | 0hPa | 2.6V | 08:30:00 | 01:31:34 | 00:00:00 | |
| DM0DOS-11 | 2026-09-04 00:22:36 | 50.89824 | 1.78769 | 101° | 40km/h | 18760m | 4.2m/s | -56°C | 4.2% | 0hPa | 2.6V | 08:30:00 | 01:31:24 | 00:00:00 | |
| BIOWL1-15 | 2026-09-04 00:22:32 | 50.89833 | 1.78682 | 83° | 37km/h | 18731m | 4.4m/s | -56.3°C | 0.5% | 0hPa | 2.7V | 18:12:15 | 01:31:18 | 00:00:00 | |
| DM0DOS-11 | 2026-09-04 00:22:31 | 50.89830 | 1.78624 | 86° | 38km/h | 18713m | 5.2m/s | -56.4°C | 4.4% | 0hPa | 2.6V | 08:30:00 | 01:31:14 | 00:00:00 | |
| BIOWL1-15 | 2026-09-04 00:22:20 | 50.89830 | 1.78531 | 91° | 40km/h | 18684m | 5.2m/s | -56.7°C | 0.6% | 0hPa | 2.7V | 18:12:15 | 01:31:08 | 00:00:00 | |
| DM0DOS-11 | 2026-09-04 00:22:17 | 50.89833 | 1.78471 | 102° | 37km/h | 18665m | 4.4m/s | -56.7°C | 4.5% | 0hPa | 2.6V | 08:30:00 | 01:31:04 | 00:00:00 | |
| DO9LL-15 | 2026-09-04 00:22:14 | 50.89835 | 1.78456 | 101° | 37km/h | 18661m | 5.1m/s | 0°C | 0% | 0hPa | 2.6V | 00:00:00 | 01:31:03 | 00:00:00 | |
| DM0DOS-11 | 2026-09-04 00:22:10 | 50.89849 | 1.78334 | 101° | 44km/h | 18618m | 5.3m/s | -56.5°C | 4.4% | 0hPa | 2.6V | 08:30:00 | 01:30:54 | 00:00:00 | |
| BIOWL1-15 | 2026-09-04 00:22:09 | 50.89851 | 1.78316 | 104° | 47km/h | 18614m | 4.2m/s | -56.6°C | 0.6% | 0hPa | 2.7V | 18:12:15 | 01:30:53 | 00:00:00 | |
| BIOWL1-15 | 2026-09-04 00:21:59 | 50.89867 | 1.78224 | 110° | 42km/h | 18589m | 3.6m/s | -57°C | 0.7% | 0hPa | 2.7V | 18:12:15 | 01:30:48 | 00:00:00 | |
| DM0DOS-11 | 2026-09-04 00:21:58 | 50.89878 | 1.78162 | 103° | 42km/h | 18572m | 4.2m/s | -57.1°C | 4.6% | 0hPa | 2.6V | 08:30:00 | 01:30:44 | 00:00:00 | |
| HTAHTA | 2026-09-04 00:21:53 | 50.89888 | 1.78108 | 105° | 53km/h | 18558m | 4.6m/s | -57.1°C | 1.2% | -1.0hPa | 2.6V | 00:00:00 | 00:00:00 | 00:00:00 | |
| DM0DOS-11 | 2026-09-04 00:21:51 | 50.89908 | 1.77951 | 101° | 53km/h | 18525m | 4.2m/s | -57.3°C | 4.6% | 0hPa | 2.6V | 08:30:00 | 01:30:34 | 00:00:00 | |
| BIOWL1-15 | 2026-09-04 00:21:49 | 50.89900 | 1.78016 | 100° | 58km/h | 18539m | 4.7m/s | -57.2°C | 0.7% | 0hPa | 2.7V | 18:12:15 | 01:30:37 | 00:00:00 | |
| BIOWL1-15 | 2026-09-04 00:21:40 | 50.89924 | 1.77821 | 101° | 51km/h | 18494m | 5.7m/s | -57.4°C | 0.7% | 0hPa | 2.7V | 18:12:15 | 01:30:27 | 00:00:00 | |
| DM0DOS-11 | 2026-09-04 00:21:37 | 50.89928 | 1.77760 | 95° | 49km/h | 18479m | 5m/s | -57.4°C | 4.6% | 0hPa | 2.6V | 08:30:00 | 01:30:24 | 00:00:00 | |
| DM0DOS-11 | 2026-09-04 00:21:30 | 50.89945 | 1.77596 | 99° | 42km/h | 18428m | 4.9m/s | -57.6°C | 4.7% | 0hPa | 2.6V | 08:30:00 | 01:30:14 | 00:00:00 | |
| HTAHTA | 2026-09-04 00:21:22 | 50.89947 | 1.77513 | 83° | 37km/h | 18404m | 4.2m/s | -57.7°C | 1.3% | -1.0hPa | 2.6V | 00:00:00 | 00:00:00 | 00:00:00 | |
| AU51GT2 | 2026-09-04 00:21:20 | 50.89946 | 1.77499 | 86° | 33km/h | 18400m | 5.4m/s | -57.8°C | 1.3% | -1.0hPa | 2.6V | 00:00:00 | 00:00:00 | 00:00:00 | |
| DM0DOS-11 | 2026-09-04 00:21:17 | 50.89947 | 1.77449 | 91° | 33km/h | 18380m | 4.9m/s | -57.8°C | 4.8% | 0hPa | 2.6V | 08:30:00 | 01:30:04 | 00:00:00 | |
| DB0UT-7 | 2026-09-04 00:21:17 | 50.89947 | 1.77473 | 95° | 49km/h | 18391m | 4.5m/s | -57.8°C | 4.8% | 0hPa | 2.6V | 00:00:00 | 00:00:00 | 00:00:00 | |
| DM0DOS-11 | 2026-09-04 00:21:10 | 50.89952 | 1.77301 | 91° | 42km/h | 18330m | 5m/s | -57.7°C | 4.8% | 0hPa | 2.6V | 08:30:00 | 01:29:54 | 00:00:00 | |
| BIOWL9-15 | 2026-09-04 00:21:04 | 50.89952 | 1.77232 | 88° | 44km/h | 18311m | 4.1m/s | -57.6°C | 1.3% | -1.0hPa | 2.6V | 00:00:00 | 00:00:00 | 00:00:00 | |
| DM0DOS-11 | 2026-09-04 00:20:58 | 50.89955 | 1.77126 | 94° | 44km/h | 18282m | 4.7m/s | -57.5°C | 4.8% | 0hPa | 2.6V | 08:30:00 | 01:29:44 | 00:00:00 | |
| BIOWL1-15 | 2026-09-04 00:20:52 | 50.89986 | 1.76815 | 101° | 49km/h | 18200m | 4m/s | -57.3°C | 0.8% | 0hPa | 2.7V | 18:12:15 | 01:29:27 | 00:00:00 | |
| DM0DOS-11 | 2026-09-04 00:20:50 | 50.89968 | 1.76944 | 98° | 47km/h | 18233m | 4.3m/s | -57.4°C | 4.7% | 0hPa | 2.6V | 08:30:00 | 01:29:34 | 00:00:00 | |
| AU51GT2 | 2026-09-04 00:20:49 | 50.89964 | 1.77000 | 97° | 47km/h | 18247m | 4.9m/s | -57.4°C | 1.3% | -1.0hPa | 2.6V | 00:00:00 | 00:00:00 | 00:00:00 | |
| BIOWL1-15 | 2026-09-04 00:20:39 | 50.89988 | 1.76795 | 98° | 51km/h | 18195m | 4.7m/s | -57.3°C | 0.8% | 0hPa | 2.6V | 18:12:15 | 01:29:26 | 00:00:00 | |
| DM0DOS-11 | 2026-09-04 00:20:37 | 50.89990 | 1.76751 | 92° | 58km/h | 18186m | 4.2m/s | -57.3°C | 4.7% | 0hPa | 2.6V | 08:30:00 | 01:29:24 | 00:00:00 | |
| BIOWL9-15 | 2026-09-04 00:20:33 | 50.89992 | 1.76705 | 96° | 58km/h | 18176m | 4.4m/s | -57.3°C | 1.3% | -1.0hPa | 2.6V | 00:00:00 | 00:00:00 | 00:00:00 | |
| DM0DOS-11 | 2026-09-04 00:20:31 | 50.90015 | 1.76532 | 100° | 53km/h | 18139m | 4.1m/s | -57.4°C | 4.6% | 0hPa | 2.6V | 08:30:00 | 01:29:14 | 00:00:00 | |
| BIOWL1-15 | 2026-09-04 00:20:29 | 50.90020 | 1.76489 | 101° | 57km/h | 18130m | 5m/s | -57.3°C | 0.8% | 0hPa | 2.7V | 18:12:15 | 01:29:12 | 00:00:00 | |
| HTAHTA | 2026-09-04 00:20:20 | 50.90030 | 1.76400 | 95° | 53km/h | 18110m | 4.6m/s | -57.2°C | 1.3% | -1.0hPa | 2.6V | 00:00:00 | 00:00:00 | 00:00:00 | |
| DJ2DS-15 | 2026-09-04 00:20:19 | 50.90030 | 1.76400 | 95° | 53km/h | 18110m | 4.6m/s | -57.2°C | 1.3% | -1.0hPa | 2.6V | 00:00:00 | 00:00:00 | 00:00:00 | |
| DM0DOS-11 | 2026-09-04 00:20:18 | 50.90032 | 1.76314 | 88° | 51km/h | 18091m | 4.5m/s | -57.6°C | 4.7% | 0hPa | 2.6V | 08:30:00 | 01:29:04 | 00:00:00 | |
| BIOWL1-15 | 2026-09-04 00:20:17 | 50.90033 | 1.76252 | 94° | 55km/h | 18077m | 4.7m/s | -57.9°C | 0.9% | 0hPa | 2.6V | 18:12:15 | 01:29:01 | 00:00:00 | |
| DM0DOS-11 | 2026-09-04 00:20:10 | 50.90033 | 1.76092 | 83° | 57km/h | 18043m | 5.6m/s | -58.1°C | 4.9% | 0hPa | 2.6V | 08:30:00 | 01:28:54 | 00:00:00 | |
| BIOWL1-15 | 2026-09-04 00:20:01 | 50.90019 | 1.75964 | 77° | 53km/h | 18014m | 5m/s | -58°C | 0.9% | 0hPa | 2.7V | 18:12:15 | 01:28:48 | 00:00:00 | |
| DM0DOS-11 | 2026-09-04 00:19:58 | 50.90009 | 1.75883 | 78° | 49km/h | 17995m | 4.8m/s | -57.9°C | 4.8% | 0hPa | 2.6V | 08:30:00 | 01:28:44 | 00:00:00 | |
| DM0DOS-11 | 2026-09-04 00:19:51 | 50.89981 | 1.75695 | 70° | 57km/h | 17950m | 5.6m/s | -57.9°C | 4.9% | 0hPa | 2.6V | 08:30:00 | 01:28:34 | 00:00:00 | |
| BIOWL1-15 | 2026-09-04 00:19:49 | 50.89996 | 1.75775 | 75° | 46km/h | 17968m | 4.2m/s | -57.9°C | 0.9% | 0hPa | 2.7V | 18:12:15 | 01:28:38 | 00:00:00 | |
| HTAHTA | 2026-09-04 00:19:49 | 50.89993 | 1.75757 | 74° | 47km/h | 17964m | 5.1m/s | -58.0°C | 1.4% | -1.0hPa | 2.6V | 00:00:00 | 00:00:00 | 00:00:00 | |
| AU51GT2 | 2026-09-04 00:19:46 | 50.89986 | 1.75716 | 72° | 55km/h | 17955m | 4.2m/s | -58.0°C | 1.3% | -1.0hPa | 2.6V | 00:00:00 | 00:00:00 | 00:00:00 | |
| BIOWL1-15 | 2026-09-04 00:19:39 | 50.89934 | 1.75506 | 67° | 46km/h | 17904m | 5.4m/s | 0°C | 0% | 0hPa | 2.6V | 18:12:15 | 01:28:24 | 00:00:00 | |
| DM0DOS-11 | 2026-09-04 00:19:38 | 50.89935 | 1.75506 | 66° | 46km/h | 17904m | 5.4m/s | -57.6°C | 4.8% | 0hPa | 2.6V | 08:30:00 | 01:28:24 | 00:00:00 | |
| DB0UT-7 | 2026-09-04 00:19:34 | 50.89930 | 1.75489 | 65° | 33km/h | 17899m | 4.6m/s | -57.6°C | 4.8% | 0hPa | 2.6V | 00:00:00 | 00:00:00 | 00:00:00 | |
| DM0DOS-11 | 2026-09-04 00:19:30 | 50.89889 | 1.75335 | 68° | 46km/h | 17857m | 4.6m/s | -57.4°C | 4.7% | 0hPa | 2.6V | 08:30:00 | 01:28:14 | 00:00:00 | |
| BIOWL1-15 | 2026-09-04 00:19:25 | 50.89854 | 1.75213 | 68° | 35km/h | 17818m | 5m/s | 0°C | 0% | 0hPa | 2.6V | 18:12:15 | 01:28:06 | 00:00:00 | |
| BIOWL1-15 | 2026-09-04 00:19:11 | 50.89835 | 1.75129 | 71° | 40km/h | 17790m | 4.5m/s | 0°C | 0% | 0hPa | 2.6V | 18:12:15 | 01:28:00 | 00:00:00 | |
| BIOWL1-15 | 2026-09-04 00:19:00 | 50.89792 | 1.74991 | 65° | 35km/h | 17740m | 5.6m/s | 0°C | 0% | 0hPa | 2.6V | 18:12:15 | 01:27:49 | 00:00:00 | |
| DM0DOS-11 | 2026-09-04 00:18:57 | 50.89768 | 1.74897 | 71° | 27km/h | 17700m | 4.2m/s | -56.9°C | 4.7% | 0hPa | 2.6V | 08:30:00 | 01:27:41 | 00:00:00 | |
| BIOWL1-15 | 2026-09-04 00:18:52 | 50.89763 | 1.74877 | 61° | 27km/h | 17692m | 5.5m/s | 0°C | 0% | 0hPa | 2.6V | 18:12:15 | 01:27:39 | 00:00:00 | |
| HTAHTA | 2026-09-04 00:18:47 | 50.89747 | 1.74837 | 63° | 27km/h | 17674m | 4.9m/s | -56.8°C | 1.3% | -1.0hPa | 2.6V | 00:00:00 | 00:00:00 | 00:00:00 | |
| AU51GT2 | 2026-09-04 00:18:44 | 50.89741 | 1.74816 | 63° | 29km/h | 17664m | 5.7m/s | -56.7°C | 1.3% | -1.0hPa | 2.6V | 00:00:00 | 00:00:00 | 00:00:00 | |
| DM0DOS-11 | 2026-09-04 00:18:37 | 50.89717 | 1.74739 | 68° | 22km/h | 17621m | 4.1m/s | -56.5°C | 4.6% | 0hPa | 2.6V | 08:30:00 | 01:27:24 | 00:00:00 | |
| DM0DOS-11 | 2026-09-04 00:18:30 | 50.89700 | 1.74639 | 91° | 24km/h | 17573m | 4.5m/s | -56.6°C | 4.6% | 0hPa | 2.6V | 08:30:00 | 01:27:14 | 00:00:00 | |
| BIOWL9-15 | 2026-09-04 00:18:29 | 50.89703 | 1.74679 | 79° | 27km/h | 17593m | 4.3m/s | -56.4°C | 1.2% | -1.0hPa | 2.7V | 00:00:00 | 00:00:00 | 00:00:00 | |
| DB0UT-7 | 2026-09-04 00:18:28 | 50.89702 | 1.74669 | 78° | 27km/h | 17588m | 5.3m/s | -56.4°C | 4.5% | 0hPa | 2.7V | 00:00:00 | 01:27:17 | 00:00:00 | |
| DM0DOS-11 | 2026-09-04 00:18:17 | 50.89691 | 1.74540 | 82° | 27km/h | 17527m | 4.5m/s | -56.5°C | 4.6% | 0hPa | 2.6V | 08:30:00 | 01:27:04 | 00:00:00 | |
| HTAHTA | 2026-09-04 00:18:15 | 50.89691 | 1.74540 | 82° | 26km/h | 17527m | 4.5m/s | -56.5°C | 1.3% | -1.0hPa | 2.6V | 00:00:00 | 00:00:00 | 00:00:00 | |
| AU51GT2 | 2026-09-04 00:18:13 | 50.89691 | 1.74518 | 94° | 27km/h | 17517m | 4.1m/s | -56.5°C | 1.3% | -1.0hPa | 2.6V | 00:00:00 | 00:00:00 | 00:00:00 | |
| DM0DOS-11 | 2026-09-04 00:18:10 | 50.89691 | 1.74424 | 83° | 29km/h | 17481m | 4.6m/s | -56.4°C | 4.6% | 0hPa | 2.6V | 08:30:00 | 01:26:54 | 00:00:00 | |
| DM0DOS-11 | 2026-09-04 00:17:57 | 50.89686 | 1.74312 | 91° | 22km/h | 17433m | 3.7m/s | -56.2°C | 4.6% | 0hPa | 2.6V | 08:30:00 | 01:26:44 | 00:00:00 | |
| DB0UT-7 | 2026-09-04 00:17:53 | 50.89687 | 1.74293 | 94° | 38km/h | 17424m | 3.9m/s | -56.1°C | 4.5% | 0hPa | 2.6V | 00:00:00 | 00:00:00 | 00:00:00 | |
| DM0DOS-11 | 2026-09-04 00:17:50 | 50.89684 | 1.74192 | 92° | 33km/h | 17385m | 5.5m/s | -56°C | 4.5% | 0hPa | 2.6V | 08:30:00 | 01:26:34 | 00:00:00 | |
| AU51GT2 | 2026-09-04 00:17:42 | 50.89687 | 1.74156 | 97° | 27km/h | 17372m | 4.6m/s | -56.0°C | 1.2% | -1.0hPa | 2.6V | 00:00:00 | 00:00:00 | 00:00:00 | |
| DM0DOS-11 | 2026-09-04 00:17:37 | 50.89688 | 1.74065 | 92° | 33km/h | 17340m | 4.7m/s | -55.8°C | 4.4% | 0hPa | 2.6V | 08:30:00 | 01:26:24 | 00:00:00 | |
| DM0DOS-11 | 2026-09-04 00:17:31 | 50.89695 | 1.73929 | 82° | 38km/h | 17293m | 4.8m/s | -55.7°C | 4.4% | 0hPa | 2.6V | 08:30:00 | 01:26:14 | 00:00:00 | |
| BIOWL9-15 | 2026-09-04 00:17:27 | 50.89694 | 1.73849 | 92° | 38km/h | 17271m | 3.7m/s | -55.5°C | 1.2% | -1.0hPa | 2.6V | 00:00:00 | 00:00:00 | 00:00:00 | |
| DJ2DS-15 | 2026-09-04 00:17:19 | 50.89695 | 1.73817 | 97° | 42km/h | 17262m | 4.9m/s | -55.5°C | 1.2% | -1.0hPa | 2.6V | 00:00:00 | 00:00:00 | 00:00:00 | |
| DM0DOS-11 | 2026-09-04 00:17:17 | 50.89698 | 1.73765 | 89° | 44km/h | 17248m | 4.8m/s | -55.4°C | 4.3% | 0hPa | 2.6V | 08:30:00 | 01:26:04 | 00:00:00 | |
| AU51GT2 | 2026-09-04 00:17:11 | 50.89697 | 1.73696 | 87° | 37km/h | 17229m | 4.7m/s | -55.3°C | 1.2% | -1.0hPa | 2.6V | 00:00:00 | 00:00:00 | 00:00:00 | |
| DM0DOS-11 | 2026-09-04 00:17:10 | 50.89704 | 1.73611 | 96° | 37km/h | 17203m | 5.1m/s | -55.2°C | 4.3% | 0hPa | 2.6V | 08:30:00 | 01:25:54 | 00:00:00 | |
| BIOWL1-15 | 2026-09-04 00:17:08 | 50.89701 | 1.73640 | 103° | 37km/h | 17212m | 3.4m/s | -55.2°C | 0.6% | 0hPa | 2.6V | 18:12:15 | 01:25:56 | 00:00:00 | |
| BIOWL1-15 | 2026-09-04 00:16:58 | 50.89723 | 1.73428 | 100° | 38km/h | 17147m | 4.9m/s | -55.2°C | 0.6% | 0hPa | 2.7V | 18:12:15 | 01:25:42 | 00:00:00 | |
| DM0DOS-11 | 2026-09-04 00:16:58 | 50.89719 | 1.73459 | 103° | 40km/h | 17156m | 3.2m/s | -55.1°C | 4.3% | 0hPa | 2.6V | 08:30:00 | 01:25:44 | 00:00:00 | |
| BIOWL9-15 | 2026-09-04 00:16:56 | 50.89717 | 1.73474 | 102° | 38km/h | 17160m | 4.7m/s | -55.1°C | 1.2% | -1.0hPa | 2.6V | 00:00:00 | 00:00:00 | 00:00:00 | |
| DM0DOS-11 | 2026-09-04 00:16:49 | 50.89743 | 1.73309 | 111° | 42km/h | 17111m | 4.2m/s | -55.2°C | 4.3% | 0hPa | 2.6V | 08:30:00 | 01:25:34 | 00:00:00 | |
| BIOWL1-15 | 2026-09-04 00:16:46 | 50.89739 | 1.73325 | 109° | 42km/h | 17116m | 5.6m/s | -55.2°C | 0.6% | 0hPa | 2.6V | 18:12:15 | 01:25:35 | 00:00:00 | |
| HTAHTA | 2026-09-04 00:16:42 | 50.89756 | 1.73244 | 102° | 42km/h | 17093m | 3.2m/s | -55.1°C | -1.0% | -1.0hPa | 2.6V | 00:00:00 | 00:00:00 | 00:00:00 | |
| AU51GT2 | 2026-09-04 00:16:40 | 50.89758 | 1.73227 | 105° | 44km/h | 17089m | 5.1m/s | -55.1°C | 1.2% | -1.0hPa | 2.6V | 00:00:00 | 00:00:00 | 00:00:00 | |
| DB0UT-7 | 2026-09-04 00:16:38 | 50.89767 | 1.73191 | 113° | 51km/h | 17080m | 4.3m/s | -55.1°C | 4.3% | 0hPa | 2.6V | 00:00:00 | 01:25:27 | 00:00:00 | |
| DM0DOS-11 | 2026-09-04 00:16:37 | 50.89780 | 1.73135 | 111° | 49km/h | 17065m | 4.2m/s | -55.2°C | 4.3% | 0hPa | 2.6V | 08:30:00 | 01:25:24 | 00:00:00 | |
| BIOWL1-15 | 2026-09-04 00:16:36 | 50.89776 | 1.73153 | 111° | 49km/h | 17070m | 4.9m/s | -55.2°C | 0.7% | 0hPa | 2.6V | 18:12:15 | 01:25:25 | 00:00:00 | |
| DO9LL-15 | 2026-09-04 00:16:31 | 50.89799 | 1.73067 | 111° | 46km/h | 17047m | 4.0m/s | 0°C | 0% | 0hPa | 2.6V | 00:00:00 | 01:25:20 | 00:00:00 | |
| DM0DOS-11 | 2026-09-04 00:16:27 | 50.89820 | 1.72956 | 103° | 55km/h | 17019m | 5.5m/s | -55.4°C | 4.3% | 0hPa | 2.6V | 08:30:00 | 01:25:14 | 00:00:00 | |
| BIOWL1-15 | 2026-09-04 00:16:25 | 50.89821 | 1.72956 | 104° | 55km/h | 17019m | 5.5m/s | -55.4°C | 0.7% | 0hPa | 2.6V | 18:12:15 | 01:25:14 | 00:00:00 | |
| BIOWL9-15 | 2026-09-04 00:16:25 | 50.89824 | 1.72935 | 105° | 53km/h | 17015m | 4.4m/s | -55.4°C | 1.3% | -1.0hPa | 2.6V | 00:00:00 | 00:00:00 | 00:00:00 | |
| DM0DOS-11 | 2026-09-04 00:16:19 | 50.89853 | 1.72762 | 103° | 51km/h | 16973m | 4.5m/s | -55.9°C | 4.6% | 0hPa | 2.6V | 08:30:00 | 01:25:04 | 00:00:00 | |
| BIOWL1-15 | 2026-09-04 00:16:15 | 50.89852 | 1.72762 | 103° | 51km/h | 16973m | 4.5m/s | 0°C | 0% | 0hPa | 2.6V | 18:12:15 | 01:25:04 | 00:00:00 | |
| BIOWL1-15 | 2026-09-04 00:16:04 | 50.89887 | 1.72523 | 100° | 55km/h | 16921m | 5.4m/s | 0°C | 0% | 0hPa | 2.7V | 18:12:15 | 01:24:53 | 00:00:00 | |
| DM0DOS-11 | 2026-09-04 00:15:42 | 50.89915 | 1.71895 | 86° | 62km/h | 16802m | 3.5m/s | -56.2°C | 4.7% | 0hPa | 2.7V | 08:30:00 | 01:24:27 | 00:00:00 | |
| HTAHTA | 2026-09-04 00:15:41 | 50.89916 | 1.71921 | 87° | 64km/h | 16807m | 4.7m/s | -56.1°C | -1.0% | -1.0hPa | 2.7V | 00:00:00 | 00:00:00 | 00:00:00 | |
| AU51GT2 | 2026-09-04 00:15:38 | 50.89914 | 1.71871 | 87° | 62km/h | 16798m | 4.4m/s | -56.2°C | 1.5% | -1.0hPa | 2.7V | 00:00:00 | 00:00:00 | 00:00:00 | |
| DM0DOS-11 | 2026-09-04 00:15:29 | 50.89899 | 1.71618 | 82° | 69km/h | 16758m | 5.2m/s | -56.4°C | 4.8% | 0hPa | 2.7V | 08:30:00 | 01:24:17 | 00:00:00 | |
| DM0DOS-11 | 2026-09-04 00:15:22 | 50.89887 | 1.71363 | 93° | 68km/h | 16712m | 4m/s | -57°C | 5% | 0hPa | 2.7V | 08:30:00 | 01:24:07 | 00:00:00 | |
| DM0DOS-11 | 2026-09-04 00:15:11 | 50.89901 | 1.71102 | 93° | 64km/h | 16666m | 4.4m/s | -57.1°C | 5.1% | 0hPa | 2.7V | 08:30:00 | 01:23:57 | 00:00:00 | |
| HTAHTA | 2026-09-04 00:15:10 | 50.89900 | 1.71127 | 94° | 64km/h | 16671m | 5.4m/s | -57.1°C | -1.0% | -1.0hPa | 2.7V | 00:00:00 | 00:00:00 | 00:00:00 | |
| AU51GT2 | 2026-09-04 00:15:07 | 50.89902 | 1.71050 | 90° | 64km/h | 16655m | 4.7m/s | -57.1°C | 1.7% | -1.0hPa | 2.7V | 00:00:00 | 00:00:00 | 00:00:00 | |
| BIOWL1-15 | 2026-09-04 00:14:43 | 50.89932 | 1.70427 | 93° | 73km/h | 16553m | 3.6m/s | -57.9°C | 1.7% | 0hPa | 2.7V | 18:12:15 | 01:23:32 | 00:00:00 | |
| BIOWL1-15 | 2026-09-04 00:14:28 | 50.89988 | 1.69972 | 101° | 78km/h | 16485m | 3.4m/s | -58°C | 1.6% | 0hPa | 2.7V | 18:12:15 | 01:23:17 | 00:00:00 | |
| BIOWL1-15 | 2026-09-04 00:14:18 | 50.90012 | 1.69674 | 91° | 73km/h | 16440m | 4.6m/s | -57.7°C | 1.6% | 0hPa | 2.7V | 18:12:15 | 01:23:07 | 00:00:00 | |
| BIOWL1-15 | 2026-09-04 00:14:10 | 50.90021 | 1.69372 | 89° | 77km/h | 16394m | 4.3m/s | -58°C | 1.7% | 0hPa | 2.7V | 18:12:15 | 01:22:57 | 00:00:00 | |
| BIOWL1-15 | 2026-09-04 00:13:57 | 50.90022 | 1.69038 | 94° | 80km/h | 16345m | 5.4m/s | -58.1°C | 1.7% | 0hPa | 2.6V | 18:12:15 | 01:22:46 | 00:00:00 | |
| BIOWL7-15 | 2026-09-04 00:13:54 | 50.90025 | 1.68974 | 96° | 80km/h | 16336m | 4.4m/s | 0°C | 0% | 0hPa | 2.7V | 00:00:00 | 00:00:00 | 00:00:00 | |
| DM0DOS-11 | 2026-09-04 00:13:53 | 50.90032 | 1.68759 | 90° | 75km/h | 16303m | 4.9m/s | -58.1°C | 5.6% | 0hPa | 2.7V | 08:30:00 | 01:22:37 | 00:00:00 | |
| BIOWL1-15 | 2026-09-04 00:13:46 | 50.90033 | 1.68699 | 93° | 75km/h | 16294m | 3.9m/s | -58.2°C | 1.8% | 0hPa | 2.6V | 18:12:15 | 01:22:35 | 00:00:00 | |
| DM0DOS-11 | 2026-09-04 00:13:39 | 50.90045 | 1.68427 | 95° | 68km/h | 16252m | 3.6m/s | -58.1°C | 5.7% | 0hPa | 2.6V | 08:30:00 | 01:22:26 | 00:00:00 | |
| BIOWL1-15 | 2026-09-04 00:13:35 | 50.90048 | 1.68372 | 95° | 69km/h | 16244m | 4.8m/s | -58°C | 2% | 0hPa | 2.6V | 18:12:15 | 01:22:24 | 00:00:00 | |
| AU51GT2 | 2026-09-04 00:13:35 | 50.90051 | 1.68315 | 94° | 73km/h | 16236m | 3.9m/s | -58.0°C | 2.1% | -1.0hPa | 2.6V | 00:00:00 | 00:00:00 | 00:00:00 | |
| DM0DOS-11 | 2026-09-04 00:13:28 | 50.90057 | 1.68134 | 91° | 78km/h | 16210m | 4.2m/s | -57.8°C | 5.6% | 0hPa | 2.6V | 08:30:00 | 01:22:16 | 00:00:00 | |
| BIOWL1-15 | 2026-09-04 00:13:24 | 50.90059 | 1.68043 | 92° | 75km/h | 16197m | 4.1m/s | -57.8°C | 1.9% | 0hPa | 2.7V | 18:12:15 | 01:22:13 | 00:00:00 | |
| DM0DOS-11 | 2026-09-04 00:13:18 | 50.90066 | 1.67834 | 96° | 73km/h | 16165m | 4.4m/s | -57.8°C | 5.5% | 0hPa | 2.6V | 08:30:00 | 01:22:06 | 00:00:00 | |
| DB0UT-7 | 2026-09-04 00:13:13 | 50.90076 | 1.67722 | 99° | 73km/h | 16148m | 4.9m/s | -57.9°C | 5.6% | 0hPa | 2.7V | 00:00:00 | 01:22:02 | 00:00:00 | |
| DM0DOS-11 | 2026-09-04 00:13:08 | 50.90086 | 1.67553 | 95° | 73km/h | 16122m | 5m/s | -58°C | 5.8% | 0hPa | 2.6V | 08:30:00 | 01:21:56 | 00:00:00 | |
| AU51GT2 | 2026-09-04 00:13:03 | 50.90099 | 1.67405 | 97° | 75km/h | 16101m | 5.0m/s | -58.2°C | 2.2% | -1.0hPa | 2.6V | 00:00:00 | 00:00:00 | 00:00:00 | |
| DM0DOS-11 | 2026-09-04 00:12:58 | 50.90112 | 1.67259 | 97° | 73km/h | 16078m | 5.3m/s | -58.3°C | 5.8% | 0hPa | 2.6V | 08:30:00 | 01:21:46 | 00:00:00 | |
| BIOWL1-15 | 2026-09-04 00:12:54 | 50.90118 | 1.67173 | 96° | 73km/h | 16064m | 4.1m/s | -58.6°C | 2.3% | 0hPa | 2.7V | 18:12:15 | 01:21:43 | 00:00:00 | |
| BIOWL9-15 | 2026-09-04 00:12:48 | 50.90135 | 1.66967 | 101° | 73km/h | 16031m | 5.5m/s | -58.7°C | 2.3% | -1.0hPa | 2.7V | 00:00:00 | 00:00:00 | 00:00:00 | |
| BIOWL1-15 | 2026-09-04 00:12:43 | 50.90151 | 1.66849 | 100° | 80km/h | 16013m | 4.2m/s | -58.7°C | 2.5% | 0hPa | 2.7V | 18:12:15 | 01:21:32 | 00:00:00 | |
| DB0UT-7 | 2026-09-04 00:12:43 | 50.90151 | 1.66849 | 100° | 77km/h | 16014m | 4.2m/s | -58.6°C | 6.1% | 0hPa | 2.7V | 00:00:00 | 00:00:00 | 00:00:00 | |
| DM0DOS-11 | 2026-09-04 00:12:38 | 50.90166 | 1.66664 | 98° | 77km/h | 15987m | 3.9m/s | -58.6°C | 6% | 0hPa | 2.7V | 08:30:00 | 01:21:26 | 00:00:00 | |
| BIOWL1-15 | 2026-09-04 00:12:36 | 50.90178 | 1.66512 | 96° | 78km/h | 15964m | 5.2m/s | -59.1°C | 2.6% | 0hPa | 2.7V | 18:12:15 | 01:21:21 | 00:00:00 | |
| BIOWL1-15 | 2026-09-04 00:12:22 | 50.90213 | 1.66167 | 98° | 80km/h | 15912m | 4.4m/s | -59.9°C | 2.8% | 0hPa | 2.7V | 18:12:15 | 01:21:10 | 00:00:00 | |
| BIOWL1-15 | 2026-09-04 00:12:11 | 50.90230 | 1.65799 | 94° | 82km/h | 15862m | 4.3m/s | -60.2°C | 3% | 0hPa | 2.7V | 18:12:15 | 01:20:59 | 00:00:00 | |
| DM0DOS-11 | 2026-09-04 00:12:08 | 50.90232 | 1.65638 | 91° | 80km/h | 15839m | 4.8m/s | -60.2°C | 6.8% | 0hPa | 2.7V | 08:30:00 | 01:20:54 | 00:00:00 | |
| BIOWL1-15 | 2026-09-04 00:12:01 | 50.90233 | 1.65473 | 91° | 86km/h | 15817m | 4.8m/s | -60.2°C | 3.2% | 0hPa | 2.7V | 18:12:15 | 01:20:49 | 00:00:00 | |
| DM0DOS-11 | 2026-09-04 00:11:52 | 50.90243 | 1.65133 | 90° | 82km/h | 15772m | 5.1m/s | -60.2°C | 6.8% | 0hPa | 2.6V | 08:30:00 | 01:20:39 | 00:00:00 | |
| BIOWL1-15 | 2026-09-04 00:11:50 | 50.90244 | 1.65100 | 91° | 82km/h | 15767m | 4.1m/s | -60.2°C | 3.2% | 0hPa | 2.6V | 18:12:15 | 01:20:38 | 00:00:00 | |
| BIOWL9-15 | 2026-09-04 00:11:45 | 50.90243 | 1.64969 | 90° | 80km/h | 15749m | 5.3m/s | -60.2°C | 2.8% | -1.0hPa | 2.6V | 00:00:00 | 00:00:00 | 00:00:00 | |
| BIOWL1-15 | 2026-09-04 00:11:40 | 50.90246 | 1.64818 | 94° | 75km/h | 15726m | 5.4m/s | -60.9°C | 3.4% | 0hPa | 2.6V | 18:12:15 | 01:20:29 | 00:00:00 | |
| BIOWL1-15 | 2026-09-04 00:11:30 | 50.90244 | 1.64480 | 86° | 77km/h | 15679m | 4.5m/s | -61.1°C | 3.6% | 0hPa | 2.6V | 18:12:15 | 01:20:18 | 00:00:00 | |
| BIOWL1-15 | 2026-09-04 00:11:19 | 50.90232 | 1.64152 | 85° | 71km/h | 15629m | 4.5m/s | -61.1°C | 3.6% | 0hPa | 2.7V | 18:12:15 | 01:20:07 | 00:00:00 | |
| BIOWL9-15 | 2026-09-04 00:11:14 | 50.90225 | 1.64035 | 84° | 73km/h | 15610m | 3.9m/s | -61.0°C | 3.1% | -1.0hPa | 2.7V | 00:00:00 | 00:00:00 | 00:00:00 | |
| BIOWL1-15 | 2026-09-04 00:11:07 | 50.90217 | 1.63330 | 92° | 78km/h | 15502m | 3.1m/s | 0°C | 0% | 0hPa | 2.7V | 18:12:15 | 01:19:39 | 00:00:00 | |
| BIOWL1-15 | 2026-09-04 00:10:57 | 50.90218 | 1.63298 | 91° | 78km/h | 15498m | 5.2m/s | 0°C | 0% | 0hPa | 2.7V | 18:12:15 | 01:19:38 | 00:00:00 | |
| BIOWL1-15 | 2026-09-04 00:10:40 | 50.90220 | 1.62973 | 89° | 71km/h | 15447m | 4.3m/s | 0°C | 0% | 0hPa | 2.7V | 18:12:15 | 01:19:27 | 00:00:00 | |
| BIOWL1-15 | 2026-09-04 00:10:29 | 50.90227 | 1.62710 | 94° | 73km/h | 15406m | 4.9m/s | 0°C | 0% | 0hPa | 2.6V | 18:12:15 | 01:19:18 | 00:00:00 | |
| AU51GT2 | 2026-09-04 00:10:28 | 50.90229 | 1.62652 | 94° | 73km/h | 15398m | 4.3m/s | -60.6°C | 3.1% | -1.0hPa | 2.6V | 00:00:00 | 00:00:00 | 00:00:00 | |
| BIOWL9-15 | 2026-09-04 00:10:12 | 50.90251 | 1.62218 | 96° | 75km/h | 15330m | 5.2m/s | -60.5°C | 3.2% | -1.0hPa | 2.6V | 00:00:00 | 00:00:00 | 00:00:00 | |
| DM0DOS-11 | 2026-09-04 00:09:58 | 50.90298 | 1.61678 | 100° | 78km/h | 15248m | 4.6m/s | -60.3°C | 7.3% | 0hPa | 2.6V | 08:30:00 | 01:18:43 | 00:00:00 | |
| AU51GT2 | 2026-09-04 00:09:56 | 50.90290 | 1.61740 | 102° | 80km/h | 15257m | 4.3m/s | -60.3°C | 3.2% | -1.0hPa | 2.8V | 00:00:00 | 00:00:00 | 00:00:00 | |
| DM0DOS-11 | 2026-09-04 00:09:48 | 50.90339 | 1.61381 | 104° | 84km/h | 15204m | 5.1m/s | -60.2°C | 7.5% | 0hPa | 2.8V | 08:30:00 | 01:18:33 | 00:00:00 | |
| DB0UT-7 | 2026-09-04 00:09:48 | 50.90319 | 1.61503 | 101° | 82km/h | 15222m | 3.7m/s | -60.2°C | 7.3% | 0hPa | 2.6V | 00:00:00 | 00:00:00 | 00:00:00 | |
| BIOWL9-15 | 2026-09-04 00:09:41 | 50.90355 | 1.61285 | 105° | 82km/h | 15190m | 3.7m/s | -60.2°C | 3.3% | -1.0hPa | 2.6V | 00:00:00 | 00:00:00 | 00:00:00 | |
| DM0DOS-11 | 2026-09-04 00:09:39 | 50.90388 | 1.61033 | 101° | 82km/h | 15155m | 3.8m/s | -60°C | 7.4% | 0hPa | 2.6V | 08:30:00 | 01:18:22 | 00:00:00 | |
| DM0DOS-11 | 2026-09-04 00:09:28 | 50.90429 | 1.60705 | 98° | 88km/h | 15110m | 3.2m/s | -59.9°C | 7.5% | 0hPa | 2.7V | 08:30:00 | 01:18:12 | 00:00:00 | |
| HTAHTA | 2026-09-04 00:09:27 | 50.90415 | 1.60840 | 101° | 82km/h | 15128m | 5.7m/s | 0°C | -1.0% | -1.0hPa | 2.7V | 00:00:00 | 00:00:00 | 00:00:00 | |
| AU51GT2 | 2026-09-04 00:09:25 | 50.90423 | 1.60773 | 100° | 84km/h | 15118m | 5.0m/s | -59.9°C | 3.3% | -1.0hPa | 2.7V | 00:00:00 | 00:00:00 | 00:00:00 | |
| DB0UT-7 | 2026-09-04 00:09:18 | 50.90449 | 1.60533 | 101° | 91km/h | 15087m | 3.9m/s | -59.8°C | 7.5% | 0hPa | 2.7V | 00:00:00 | 01:18:07 | 00:00:00 | |
| BIOWL9-15 | 2026-09-04 00:09:10 | 50.90491 | 1.60167 | 96° | 93km/h | 15042m | 5.0m/s | -59.5°C | 3.3% | -1.0hPa | 2.7V | 00:00:00 | 00:00:00 | 00:00:00 | |
| HTAHTA | 2026-09-04 00:08:57 | 50.90529 | 1.59727 | 97° | 93km/h | 14987m | 3.9m/s | 0°C | -1.0% | -1.0hPa | 2.7V | 00:00:00 | 00:00:00 | 00:00:00 | |
| AU51GT2 | 2026-09-04 00:08:54 | 50.90536 | 1.59651 | 98° | 95km/h | 14978m | 3.9m/s | -59.7°C | 3.5% | -1.0hPa | 2.7V | 00:00:00 | 00:00:00 | 00:00:00 | |
| HTAHTA | 2026-09-04 00:08:25 | 50.90609 | 1.58555 | 94° | 95km/h | 14843m | 4.2m/s | 0°C | -1.0% | -1.0hPa | 2.7V | 00:00:00 | 00:00:00 | 00:00:00 | |
| AU51GT2 | 2026-09-04 00:08:23 | 50.90613 | 1.58479 | 94° | 91km/h | 14835m | 5.6m/s | -59.8°C | 3.9% | -1.0hPa | 2.7V | 00:00:00 | 00:00:00 | 00:00:00 | |
| DB0UT-7 | 2026-09-04 00:08:07 | 50.90646 | 1.57901 | 96° | 95km/h | 14762m | 4.1m/s | -59.4°C | 8.2% | 0hPa | 2.7V | 00:00:00 | 00:00:00 | 00:00:00 | |
| BIOWL1-15 | 2026-09-04 00:07:50 | 50.90676 | 1.57148 | 99° | 88km/h | 14662m | 3.8m/s | -60.2°C | 5.9% | 0hPa | 2.7V | 18:12:15 | 01:16:34 | 00:00:00 | |
| BIOWL1-15 | 2026-09-04 00:07:35 | 50.90719 | 1.56728 | 98° | 89km/h | 14608m | 4.2m/s | -60.6°C | 6.4% | 0hPa | 2.7V | 18:12:15 | 01:16:22 | 00:00:00 | |
| BIOWL1-15 | 2026-09-04 00:07:24 | 50.90754 | 1.56350 | 99° | 89km/h | 14557m | 4.1m/s | -60.9°C | 6.5% | 0hPa | 2.8V | 18:12:15 | 01:16:11 | 00:00:00 | |
| BIOWL1-15 | 2026-09-04 00:07:12 | 50.90785 | 1.55978 | 100° | 93km/h | 14513m | 4.2m/s | -60.8°C | 6.6% | 0hPa | 2.7V | 18:12:15 | 01:16:01 | 00:00:00 | |
| BIOWL1-15 | 2026-09-04 00:07:02 | 50.90841 | 1.55411 | 97° | 99km/h | 14446m | 4.8m/s | -60.6°C | 6.5% | 0hPa | 2.7V | 18:12:15 | 01:15:46 | 00:00:00 | |
| BIOWL1-15 | 2026-09-04 00:06:47 | 50.90868 | 1.54938 | 93° | 102km/h | 14393m | 5.2m/s | -60.1°C | 6.6% | 0hPa | 2.7V | 18:12:15 | 01:15:34 | 00:00:00 | |
| BIOWL1-15 | 2026-09-04 00:06:37 | 50.90892 | 1.54463 | 93° | 99km/h | 14341m | 4m/s | -59.7°C | 7% | 0hPa | 2.7V | 18:12:15 | 01:15:22 | 00:00:00 | |
| BIOWL1-15 | 2026-09-04 00:06:24 | 50.90906 | 1.54107 | 92° | 97km/h | 14304m | 4.1m/s | -59.5°C | 7.4% | 0hPa | 2.7V | 18:12:15 | 01:15:13 | 00:00:00 | |
| BIOWL1-15 | 2026-09-04 00:06:13 | 50.90922 | 1.53443 | 92° | 99km/h | 14230m | 3.6m/s | -59.2°C | 9.1% | 0hPa | 2.8V | 18:12:15 | 01:14:56 | 00:00:00 | |
| BIOWL1-15 | 2026-09-04 00:06:01 | 50.90930 | 1.53201 | 97° | 99km/h | 14204m | 4.8m/s | -59°C | 10.3% | 0hPa | 2.7V | 18:12:15 | 01:14:50 | 00:00:00 | |
| BIOWL1-15 | 2026-09-04 00:05:51 | 50.90949 | 1.52820 | 92° | 93km/h | 14166m | 3m/s | -59.3°C | 13% | 0hPa | 2.8V | 18:12:15 | 01:14:40 | 00:00:00 | |
| AU51GT2 | 2026-09-04 00:05:48 | 50.90955 | 1.52708 | 98° | 95km/h | 14152m | 4.6m/s | -59.4°C | 9.2% | -1.0hPa | 2.7V | 00:00:00 | 00:00:00 | 00:00:00 | |
| BIOWL1-15 | 2026-09-04 00:05:42 | 50.90982 | 1.52392 | 97° | 102km/h | 14117m | 5m/s | -60.8°C | 16.8% | 0hPa | 2.7V | 18:12:15 | 01:14:29 | 00:00:00 | |
| BIOWL1-15 | 2026-09-04 00:05:30 | 50.91018 | 1.51964 | 97° | 113km/h | 14074m | 3.8m/s | -61.7°C | 20.9% | 0hPa | 2.7V | 18:12:15 | 01:14:19 | 00:00:00 | |
| BIOWL1-15 | 2026-09-04 00:05:22 | 50.91051 | 1.51501 | 96° | 119km/h | 14032m | 4.9m/s | -62.5°C | 25.7% | 0hPa | 2.8V | 18:12:15 | 01:14:09 | 00:00:00 | |
| BIOWL1-15 | 2026-09-04 00:05:09 | 50.91105 | 1.50809 | 100° | 115km/h | 13971m | 3.8m/s | -63.5°C | 32.1% | 0hPa | 2.7V | 18:12:15 | 01:13:54 | 00:00:00 | |
| DM0DOS-11 | 2026-09-04 00:05:08 | 50.91105 | 1.50809 | 99° | 115km/h | 13971m | 3.8m/s | -63.5°C | 34.2% | 0hPa | 2.7V | 08:30:00 | 01:13:54 | 00:00:00 | |
| BIOWL9-15 | 2026-09-04 00:05:02 | 50.91130 | 1.50574 | 99° | 120km/h | 13950m | 3.9m/s | -63.4°C | 26.1% | -1.0hPa | 2.7V | 00:00:00 | 00:00:00 | 00:00:00 | |
| BIOWL1-15 | 2026-09-04 00:04:58 | 50.91237 | 1.49612 | 103° | 128km/h | 13866m | 5.1m/s | -64.9°C | 41.4% | 0hPa | 2.7V | 18:12:15 | 01:13:29 | 00:00:00 | |
| DM0DOS-11 | 2026-09-04 00:04:58 | 50.91195 | 1.49998 | 97° | 119km/h | 13899m | 4m/s | -64.6°C | 42.2% | 0hPa | 2.7V | 08:30:00 | 01:13:37 | 00:00:00 | |
| BIOWL1-15 | 2026-09-04 00:04:49 | 50.91244 | 1.49562 | 102° | 131km/h | 13862m | 4m/s | -64.9°C | 41.7% | 0hPa | 2.8V | 18:12:15 | 01:13:28 | 00:00:00 | |
| AU51GT2 | 2026-09-04 00:04:46 | 50.91202 | 1.49904 | 97° | 119km/h | 13891m | 3.5m/s | -64.8°C | 32.6% | -1.0hPa | 2.8V | 00:00:00 | 00:00:00 | 00:00:00 | |
| DB0UT-7 | 2026-09-04 00:04:43 | 50.91237 | 1.49612 | 103° | 131km/h | 13867m | 5.0m/s | -64.8°C | 45.1% | 0hPa | 2.8V | 00:00:00 | 01:13:29 | 00:00:00 | |
| DM0DOS-11 | 2026-09-04 00:04:43 | 50.91244 | 1.49562 | 101° | 131km/h | 13862m | 4m/s | -64.9°C | 45.6% | 0hPa | 2.8V | 08:30:00 | 01:13:28 | 00:00:00 | |
| DM0DOS-11 | 2026-09-04 00:04:35 | 50.91300 | 1.48997 | 98° | 131km/h | 13814m | 4.4m/s | -65.6°C | 52% | 0hPa | 2.8V | 08:30:00 | 01:13:17 | 00:00:00 | |
| BIOWL1-15 | 2026-09-04 00:04:30 | 50.91291 | 1.49100 | 98° | 130km/h | 13823m | 5.2m/s | -65.6°C | 43.9% | 0hPa | 2.7V | 18:12:15 | 01:13:19 | 00:00:00 | |
| DM0DOS-11 | 2026-09-04 00:04:23 | 50.91346 | 1.48474 | 96° | 131km/h | 13772m | 4.4m/s | -65.4°C | 52.9% | 0hPa | 2.7V | 08:30:00 | 01:13:07 | 00:00:00 | |
| AU51GT2 | 2026-09-04 00:04:15 | 50.91358 | 1.48319 | 96° | 128km/h | 13758m | 4.9m/s | -65.3°C | 40.1% | -1.0hPa | 2.7V | 00:00:00 | 00:00:00 | 00:00:00 | |
| DM0DOS-11 | 2026-09-04 00:04:11 | 50.91381 | 1.47960 | 96° | 128km/h | 13726m | 5.4m/s | -65.1°C | 54.2% | 0hPa | 2.7V | 08:30:00 | 01:12:57 | 00:00:00 | |
| BIOWL1-15 | 2026-09-04 00:04:02 | 50.91405 | 1.47608 | 95° | 126km/h | 13696m | 4.3m/s | -65.3°C | 51% | 0hPa | 2.7V | 18:12:15 | 01:12:50 | 00:00:00 | |
| DM0DOS-11 | 2026-09-04 00:03:59 | 50.91419 | 1.47306 | 92° | 124km/h | 13671m | 4.3m/s | -65.3°C | 58.3% | 0hPa | 2.7V | 08:30:00 | 01:12:44 | 00:00:00 | |
| BIOWL1-15 | 2026-09-04 00:03:49 | 50.91517 | 1.46292 | 102° | 122km/h | 13577m | 4.1m/s | -66.2°C | 58% | 0hPa | 2.7V | 18:12:15 | 01:12:23 | 00:00:00 | |
| DM0DOS-11 | 2026-09-04 00:03:48 | 50.91457 | 1.46832 | 98° | 117km/h | 13626m | 4.9m/s | -65.7°C | 61.8% | 0hPa | 2.8V | 08:30:00 | 01:12:34 | 00:00:00 | |
| AU51GT2 | 2026-09-04 00:03:44 | 50.91462 | 1.46785 | 97° | 117km/h | 13622m | 3.2m/s | -65.8°C | 49.0% | -1.0hPa | 2.7V | 00:00:00 | 00:00:00 | 00:00:00 | |
| DM0DOS-11 | 2026-09-04 00:03:42 | 50.91516 | 1.46292 | 102° | 122km/h | 13577m | 4.1m/s | -66.2°C | 67.1% | 0hPa | 2.7V | 08:30:00 | 01:12:23 | 00:00:00 | |
| BIOWL1-15 | 2026-09-04 00:03:35 | 50.91523 | 1.46244 | 103° | 124km/h | 13573m | 4.7m/s | -66.3°C | 58.1% | 0hPa | 2.7V | 18:12:15 | 01:12:22 | 00:00:00 | |
| DM0DOS-11 | 2026-09-04 00:03:29 | 50.91585 | 1.45838 | 103° | 133km/h | 13537m | 3.9m/s | -66.4°C | 70.1% | 0hPa | 2.8V | 08:30:00 | 01:12:14 | 00:00:00 | |
| BIOWL1-15 | 2026-09-04 00:03:23 | 50.91600 | 1.45736 | 104° | 130km/h | 13528m | 4.3m/s | -66.4°C | 60.5% | 0hPa | 2.7V | 18:12:15 | 01:12:12 | 00:00:00 | |
| DM0DOS-11 | 2026-09-04 00:03:17 | 50.91659 | 1.45322 | 103° | 139km/h | 13492m | 4.5m/s | -66.2°C | 73.6% | 0hPa | 2.8V | 08:30:00 | 01:12:04 | 00:00:00 | |
| BIOWL1-15 | 2026-09-04 00:03:12 | 50.91684 | 1.45161 | 104° | 137km/h | 13479m | 4.1m/s | -66.2°C | 63.8% | 0hPa | 2.7V | 18:12:15 | 01:12:01 | 00:00:00 | |
| DM0DOS-11 | 2026-09-04 00:03:11 | 50.91738 | 1.44788 | 101° | 137km/h | 13448m | 5.3m/s | -66.1°C | 75.4% | 0hPa | 2.8V | 08:30:00 | 01:11:54 | 00:00:00 | |
| BIOWL1-15 | 2026-09-04 00:03:04 | 50.91760 | 1.44626 | 103° | 137km/h | 13435m | 3.5m/s | -66.2°C | 67.2% | 0hPa | 2.7V | 18:12:15 | 01:11:51 | 00:00:00 | |
| DM0DOS-11 | 2026-09-04 00:02:54 | 50.91827 | 1.44092 | 100° | 135km/h | 13390m | 4.5m/s | -66.8°C | 83.2% | 0hPa | 2.8V | 08:30:00 | 01:11:41 | 00:00:00 | |
| BIOWL1-15 | 2026-09-04 00:02:52 | 50.91843 | 1.43935 | 97° | 131km/h | 13377m | 3.8m/s | -66.8°C | 71.2% | 0hPa | 2.7V | 18:12:15 | 01:11:38 | 00:00:00 | |
| DM0DOS-11 | 2026-09-04 00:02:47 | 50.91877 | 1.43570 | 99° | 133km/h | 13344m | 4m/s | -66.9°C | 87.2% | 0hPa | 2.8V | 08:30:00 | 01:11:31 | 00:00:00 | |
| BIOWL1-15 | 2026-09-04 00:02:39 | 50.91905 | 1.43257 | 98° | 130km/h | 13317m | 4.7m/s | -66.8°C | 72.8% | 0hPa | 2.7V | 18:12:15 | 01:11:25 | 00:00:00 | |
| DM0DOS-11 | 2026-09-04 00:02:37 | 50.91922 | 1.43048 | 96° | 131km/h | 13298m | 4.2m/s | -66.7°C | 87.3% | 0hPa | 2.7V | 08:30:00 | 01:11:21 | 00:00:00 | |
| BIOWL1-15 | 2026-09-04 00:02:28 | 50.91936 | 1.42835 | 96° | 133km/h | 13279m | 4.4m/s | -66.8°C | 73.2% | 0hPa | 2.8V | 18:12:15 | 01:11:17 | 00:00:00 | |
| BIOWL1-15 | 2026-09-04 00:02:20 | 50.91981 | 1.42194 | 95° | 133km/h | 13225m | 5m/s | -66.6°C | 73.4% | 0hPa | 2.8V | 18:12:15 | 01:11:05 | 00:00:00 | |
| BIOWL9-15 | 2026-09-04 00:02:13 | 50.92056 | 1.41074 | 96° | 131km/h | 13131m | 4.2m/s | -66.0°C | 72.6% | -1.0hPa | 2.8V | 00:00:00 | 00:00:00 | 00:00:00 | |
| BIOWL1-15 | 2026-09-04 00:01:59 | 50.92040 | 1.41288 | 98° | 135km/h | 13148m | 3.9m/s | -66.1°C | 73.9% | 0hPa | 2.8V | 18:12:15 | 01:10:48 | 00:00:00 | |
| AU51GT2 | 2026-09-04 00:01:52 | 50.92113 | 1.40240 | 93° | 131km/h | 13060m | 4.5m/s | -65.4°C | 76.0% | -1.0hPa | 2.7V | 00:00:00 | 00:00:00 | 00:00:00 | |
| BIOWL1-15 | 2026-09-04 00:01:49 | 50.92079 | 1.40759 | 97° | 131km/h | 13104m | 4.4m/s | -65.8°C | 75.3% | 0hPa | 2.7V | 18:12:15 | 01:10:38 | 00:00:00 | |
| BIOWL1-15 | 2026-09-04 00:01:38 | 50.92115 | 1.40187 | 94° | 131km/h | 13056m | 3.4m/s | -65.4°C | 77.1% | 0hPa | 2.7V | 18:12:15 | 01:10:27 | 00:00:00 | |
| DB0UT-7 | 2026-09-04 00:01:18 | 50.92178 | 1.38969 | 94° | 130km/h | 12956m | 3.2m/s | -64.7°C | 90.1% | 0hPa | 2.7V | 00:00:00 | 01:10:04 | 00:00:00 | |
| AU51GT2 | 2026-09-04 00:01:12 | 50.92197 | 1.38609 | 95° | 126km/h | 12926m | 4.2m/s | -64.4°C | 71.2% | -1.0hPa | 2.8V | 00:00:00 | 00:00:00 | 00:00:00 | |
| BIOWL1-15 | 2026-09-04 00:01:03 | 50.92231 | 1.37940 | 94° | 128km/h | 12869m | 3.6m/s | -63.9°C | 69.3% | 0hPa | 2.8V | 18:12:15 | 01:09:44 | 00:00:00 | |
| BIOWL1-15 | 2026-09-04 00:00:52 | 50.92240 | 1.37787 | 97° | 130km/h | 12856m | 3m/s | -63.8°C | 68.2% | 0hPa | 2.7V | 18:12:15 | 01:09:41 | 00:00:00 | |
| DB0UT-7 | 2026-09-04 00:00:46 | 50.92259 | 1.37429 | 93° | 122km/h | 12827m | 4.5m/s | -63.5°C | 78.0% | 0hPa | 2.7V | 00:00:00 | 00:00:00 | 00:00:00 | |
| BIOWL1-15 | 2026-09-04 00:00:41 | 50.92267 | 1.37224 | 94° | 128km/h | 12811m | 2.8m/s | -63.4°C | 64.2% | 0hPa | 2.7V | 18:12:15 | 01:09:30 | 00:00:00 | |
| AU51GT2 | 2026-09-04 00:00:38 | 50.92276 | 1.37022 | 93° | 128km/h | 12795m | 4.2m/s | 0°C | -1.0% | -1.0hPa | 2.8V | 00:00:00 | 00:00:00 | 00:00:00 | |
| BIOWL1-15 | 2026-09-04 00:00:31 | 50.92310 | 1.36314 | 94° | 128km/h | 12735m | 5.4m/s | -62.6°C | 59.2% | 0hPa | 2.8V | 18:12:15 | 01:09:12 | 00:00:00 | |
| BIOWL9-15 | 2026-09-04 00:00:25 | 50.92312 | 1.36263 | 93° | 128km/h | 12731m | 3.8m/s | -62.6°C | 56.0% | -1.0hPa | 2.7V | 00:00:00 | 00:00:00 | 00:00:00 | |
| BIOWL1-15 | 2026-09-04 00:00:18 | 50.92326 | 1.35966 | 94° | 120km/h | 12703m | 4.7m/s | -62.3°C | 57.9% | 0hPa | 2.7V | 18:12:15 | 01:09:05 | 00:00:00 | |
| DM0DOS-11 | 2026-09-04 00:00:11 | 50.92344 | 1.35568 | 94° | 124km/h | 12666m | 5.3m/s | -62°C | 65.3% | 0hPa | 2.8V | 08:30:00 | 01:08:57 | 00:00:00 | |
| BIOWL1-15 | 2026-09-04 00:00:06 | 50.92358 | 1.35372 | 97° | 124km/h | 12649m | 3.3m/s | -61.8°C | 56% | 0hPa | 2.7V | 18:12:15 | 01:08:53 | 00:00:00 | |
| DM0DOS-11 | 2026-09-04 00:00:01 | 50.92377 | 1.34976 | 94° | 124km/h | 12614m | 4.8m/s | -61.6°C | 63.7% | 0hPa | 2.8V | 08:30:00 | 01:08:45 | 00:00:00 | |
| BIOWL1-15 | 2026-09-03 23:59:53 | 50.92385 | 1.34831 | 95° | 119km/h | 12602m | 3.3m/s | -61.5°C | 55.3% | 0hPa | 2.7V | 18:12:15 | 01:08:42 | 00:00:00 | |
| DM0DOS-11 | 2026-09-03 23:59:51 | 50.92403 | 1.34497 | 93° | 122km/h | 12573m | 4.2m/s | -61.2°C | 63% | 0hPa | 2.8V | 08:30:00 | 01:08:35 | 00:00:00 | |
| BIOWL1-15 | 2026-09-03 23:59:42 | 50.92410 | 1.34302 | 93° | 122km/h | 12556m | 3.7m/s | -61.2°C | 55.1% | 0hPa | 2.7V | 18:12:15 | 01:08:31 | 00:00:00 | |
| DM0DOS-11 | 2026-09-03 23:59:41 | 50.92423 | 1.34012 | 94° | 119km/h | 12531m | 4.6m/s | -61°C | 63.1% | 0hPa | 2.7V | 08:30:00 | 01:08:25 | 00:00:00 | |
| DB0UT-7 | 2026-09-03 23:59:33 | 50.92430 | 1.33870 | 96° | 117km/h | 12519m | 3.9m/s | -60.9°C | 62.3% | 0hPa | 2.8V | 00:00:00 | 01:08:22 | 00:00:00 | |
| DM0DOS-11 | 2026-09-03 23:59:31 | 50.92442 | 1.33543 | 91° | 115km/h | 12489m | 3.9m/s | -60.6°C | 61.1% | 0hPa | 2.8V | 08:30:00 | 01:08:15 | 00:00:00 | |
| BIOWL1-15 | 2026-09-03 23:59:28 | 50.92440 | 1.33636 | 93° | 117km/h | 12497m | 3.8m/s | -60.7°C | 53.9% | 0hPa | 2.8V | 18:12:15 | 01:08:17 | 00:00:00 | |
| DM0DOS-11 | 2026-09-03 23:59:21 | 50.92460 | 1.33080 | 93° | 113km/h | 12445m | 3.8m/s | -60.3°C | 60.1% | 0hPa | 2.8V | 08:30:00 | 01:08:05 | 00:00:00 | |
| BIOWL9-15 | 2026-09-03 23:59:20 | 50.92451 | 1.33264 | 94° | 117km/h | 12463m | 5.1m/s | -60.5°C | -1.0% | -1.0hPa | 2.8V | 00:00:00 | 00:00:00 | 00:00:00 | |
| BIOWL1-15 | 2026-09-03 23:59:17 | 50.92458 | 1.33125 | 94° | 113km/h | 12449m | 4.2m/s | 0°C | 0% | 0hPa | 2.8V | 18:12:15 | 01:08:06 | 00:00:00 | |
| DM0DOS-11 | 2026-09-03 23:59:11 | 50.92481 | 1.32620 | 93° | 115km/h | 12403m | 5m/s | -60°C | 58.6% | 0hPa | 2.8V | 08:30:00 | 01:07:55 | 00:00:00 | |
| BIOWL1-15 | 2026-09-03 23:59:07 | 50.92479 | 1.32665 | 94° | 113km/h | 12407m | 4.2m/s | 0°C | 0% | 0hPa | 2.7V | 18:12:15 | 01:07:56 | 00:00:00 | |
| DB0UT-7 | 2026-09-03 23:59:03 | 50.92488 | 1.32484 | 96° | 111km/h | 12390m | 3.9m/s | -59.8°C | 59.1% | 0hPa | 2.7V | 00:00:00 | 00:00:00 | 08:30:00 | |
| DM0DOS-11 | 2026-09-03 23:59:01 | 50.92501 | 1.32159 | 92° | 119km/h | 12360m | 3.9m/s | -59.6°C | 57.7% | 0hPa | 2.7V | 08:30:00 | 01:07:45 | 00:00:00 | |
| BIOWL1-15 | 2026-09-03 23:58:56 | 50.92501 | 1.32159 | 93° | 119km/h | 12360m | 3.9m/s | 0°C | 0% | 0hPa | 2.7V | 18:12:15 | 01:07:45 | 00:00:00 | |
| DM0DOS-11 | 2026-09-03 23:58:51 | 50.92521 | 1.31695 | 92° | 119km/h | 12317m | 4.2m/s | -59.3°C | 56.2% | 0hPa | 2.8V | 08:30:00 | 01:07:35 | 00:00:00 | |
| BIOWL1-15 | 2026-09-03 23:58:47 | 50.92523 | 1.31648 | 93° | 117km/h | 12313m | 5.1m/s | 0°C | 0% | 0hPa | 2.7V | 18:12:15 | 01:07:34 | 00:00:00 | |
| DM0DOS-11 | 2026-09-03 23:58:41 | 50.92548 | 1.31238 | 94° | 111km/h | 12273m | 4.2m/s | -58.9°C | 0% | 0hPa | 2.8V | 08:30:00 | 01:07:25 | 00:00:00 | |
| BIOWL1-15 | 2026-09-03 23:58:35 | 50.92550 | 1.31194 | 94° | 113km/h | 12268m | 4.8m/s | 0°C | 0% | 0hPa | 2.8V | 18:12:15 | 01:07:24 | 00:00:00 | |
| AU51GT2 | 2026-09-03 23:58:33 | 50.92554 | 1.31103 | 93° | 113km/h | 12258m | 4.8m/s | -58.7°C | 42.2% | -1.0hPa | 2.7V | 00:00:00 | 00:00:00 | 00:00:00 | |
| DM0DOS-11 | 2026-09-03 23:58:31 | 50.92567 | 1.30746 | 96° | 111km/h | 12219m | 4.8m/s | 0°C | 0% | 0hPa | 2.7V | 08:30:00 | 01:07:14 | 00:00:00 | |
| BIOWL1-15 | 2026-09-03 23:58:25 | 50.92567 | 1.30746 | 97° | 111km/h | 12219m | 4.8m/s | 0°C | 0% | 0hPa | 2.7V | 18:12:15 | 01:07:14 | 00:00:00 | |
| DM0DOS-11 | 2026-09-03 23:58:20 | 50.92596 | 1.30297 | 96° | 110km/h | 12173m | 3.9m/s | 0°C | 0% | 0hPa | 2.8V | 00:00:00 | 01:07:04 | 00:00:00 | |
| DM0DOS-11 | 2026-09-03 23:58:10 | 50.92619 | 1.29858 | 95° | 106km/h | 12128m | 4.6m/s | 0°C | 0% | 0hPa | 2.8V | 00:00:00 | 01:06:54 | 00:00:00 | |
| AU51GT2 | 2026-09-03 23:58:02 | 50.92628 | 1.29729 | 96° | 110km/h | 12114m | 4.7m/s | -57.3°C | 42.5% | -1.0hPa | 2.8V | 00:00:00 | 00:00:00 | 00:00:00 | |
| DB0UT-7 | 2026-09-03 23:57:50 | 50.92662 | 1.29201 | 97° | 110km/h | 12056m | 4.2m/s | -56.8°C | 52.3% | 0hPa | 2.8V | 00:00:00 | 01:06:39 | 00:00:00 | |
| AU51GT2 | 2026-09-03 23:57:31 | 50.92721 | 1.28372 | 97° | 108km/h | 11966m | 4.8m/s | -56.0°C | 37.7% | -1.0hPa | 2.8V | 00:00:00 | 00:00:00 | 00:00:00 | |
| DB0UT-7 | 2026-09-03 23:57:20 | 50.92758 | 1.27892 | 96° | 110km/h | 11916m | 3.6m/s | -55.5°C | 48.0% | 0hPa | 2.8V | 00:00:00 | 00:00:00 | 00:00:00 | |
| AU51GT2 | 2026-09-03 23:57:00 | 50.92826 | 1.27036 | 97° | 108km/h | 11823m | 3.7m/s | -54.7°C | 35.6% | -1.0hPa | 2.8V | 00:00:00 | 00:00:00 | 00:00:00 | |
| AU51GT2 | 2026-09-03 23:56:29 | 50.92934 | 1.25707 | 98° | 110km/h | 11681m | 4.1m/s | -53.3°C | 28.2% | -1.0hPa | 2.8V | 00:00:00 | 00:00:00 | 00:00:00 | |
| DB0UT-7 | 2026-09-03 23:56:09 | 50.93009 | 1.24841 | 96° | 108km/h | 11589m | 5.6m/s | 0°C | 0% | 0hPa | 2.8V | 00:00:00 | 01:04:58 | 00:00:00 | |
| AU51GT2 | 2026-09-03 23:55:58 | 50.93048 | 1.24378 | 96° | 106km/h | 11536m | 5.3m/s | -51.9°C | 22.3% | -1.0hPa | 2.8V | 00:00:00 | 00:00:00 | 00:00:00 | |
| DM0DOS-11 | 2026-09-03 23:55:55 | 50.93058 | 1.24204 | 95° | 110km/h | 11517m | 4m/s | 0°C | 0% | 0hPa | 2.8V | 00:00:00 | 01:04:43 | 00:00:00 | |
| DM0DOS-11 | 2026-09-03 23:55:45 | 50.93101 | 1.23596 | 96° | 110km/h | 11454m | 3.9m/s | 0°C | 0% | 0hPa | 2.8V | 00:00:00 | 01:04:29 | 00:00:00 | |
| DB0UT-7 | 2026-09-03 23:55:39 | 50.93104 | 1.23554 | 98° | 108km/h | 11450m | 4.9m/s | 0°C | 0% | 0hPa | 0V | 00:00:00 | 00:00:00 | 00:00:00 | |
| AU51GT2 | 2026-09-03 23:55:27 | 50.93143 | 1.23043 | 97° | 108km/h | 11401m | 5.0m/s | -50.7°C | 18.9% | -1.0hPa | 0V | 00:00:00 | 00:00:00 | 00:00:00 | |
| AU51GT2 | 2026-09-03 23:54:56 | 50.93234 | 1.21713 | 97° | 108km/h | 11263m | 5.3m/s | -49.4°C | 17.2% | -1.0hPa | 0V | 00:00:00 | 00:00:00 | 00:00:00 | |
| AU51GT2 | 2026-09-03 23:54:25 | 50.93317 | 1.20389 | 94° | 106km/h | 11128m | 4.2m/s | -48.1°C | 16.1% | -1.0hPa | 0V | 00:00:00 | 00:00:00 | 00:00:00 | |
| AU51GT2 | 2026-09-03 23:53:54 | 50.93395 | 1.19051 | 93° | 108km/h | 11004m | 3.0m/s | 0°C | -1.0% | -1.0hPa | 0V | 00:00:00 | 00:00:00 | 00:00:00 | |
| DB0UT-7 | 2026-09-03 23:51:00 | 50.93415 | 1.11866 | 89° | 100km/h | 10253m | 3.3m/s | 0°C | 0% | 0hPa | 0V | 00:00:00 | 00:00:00 | 00:00:00 | |
| DB0UT-7 | 2026-09-03 23:50:30 | 50.93373 | 1.10656 | 86° | 108km/h | 10124m | 3.6m/s | 0°C | 0% | 0hPa | 0V | 00:00:00 | 00:59:19 | 00:00:00 | |
| DB0UT-7 | 2026-09-03 23:49:23 | 50.93197 | 1.07858 | 84° | 106km/h | 9787m | 3.9m/s | 0°C | 0% | 0hPa | 0V | 00:00:00 | 00:00:00 | 00:00:00 | |
| DB0UT-7 | 2026-09-03 23:48:53 | 50.93078 | 1.06591 | 82° | 106km/h | 9662m | 3.5m/s | 0°C | 0% | 0hPa | 0V | 00:00:00 | 00:57:42 | 00:00:00 |